PWSweather.com
Personal Weather Stations
Station Observations
GHWX1
Golden Heights, Sturgeon County, AB T0A1N5

Golden HeightsSturgeon County, AB T0A1N5

Lat: 53.919, Lon: -113.37

Elevation: 2159

Station Type:

http://www.ghwx.ca

High Low Average
Temperature 18.9°F-7.3°C -1.5°F-18.6°C 9.2°F-12.7°C
Dew Point 11.5°F-11.4°C -3.5°F-19.7°C 6.0°F-14.4°C
Winds 11.0 mph 17.7 kmh Calm Calm 3.0 mph S4.8 kmh S
Wind Gusts -- -- --
Humidity 96% 71% 87%
Pressure 30.13 in1020.3 mb 30.01 in1016.3 mb -
Precipitation 0.00 in0.0 mm - -
Hour Temp Dew Point Humidity Winds Wind Gusts Pressure Precip Precip Rate Daily Precip Total
12:00 AM 13.6°F-10.2°C 11.5°F-11.4°C 91% 3.0 mph SSE4.8 kmh SSE -- 30.12 in1020.0 mb 0.00 in0.0 mm 0.00 in0.0 mm 0.00 in0.0 mm
12:01 AM 13.6°F-10.2°C 11.5°F-11.4°C 91% 3.0 mph ESE4.8 kmh ESE -- 30.12 in1020.0 mb 0.00 in0.0 mm 0.00 in0.0 mm 0.00 in0.0 mm
12:02 AM 13.6°F-10.2°C 11.5°F-11.4°C 91% 3.0 mph SE4.8 kmh SE -- 30.12 in1020.0 mb 0.00 in0.0 mm 0.00 in0.0 mm 0.00 in0.0 mm
12:03 AM 13.3°F-10.4°C 11.1°F-11.6°C 91% 3.0 mph SSE4.8 kmh SSE -- 30.13 in1020.3 mb 0.00 in0.0 mm 0.00 in0.0 mm 0.00 in0.0 mm
12:04 AM 13.3°F-10.4°C 11.1°F-11.6°C 91% 2.0 mph SE3.2 kmh SE -- 30.12 in1020.0 mb 0.00 in0.0 mm 0.00 in0.0 mm 0.00 in0.0 mm
12:05 AM 13.3°F-10.4°C 11.1°F-11.6°C 91% 2.0 mph SSE3.2 kmh SSE -- 30.12 in1020.0 mb 0.00 in0.0 mm 0.00 in0.0 mm 0.00 in0.0 mm
12:06 AM 13.1°F-10.5°C 10.9°F-11.7°C 91% 2.0 mph SSE3.2 kmh SSE -- 30.12 in1020.0 mb 0.00 in0.0 mm 0.00 in0.0 mm 0.00 in0.0 mm
12:07 AM 12.8°F-10.7°C 10.6°F-11.9°C 91% 2.0 mph SSE3.2 kmh SSE -- 30.12 in1020.0 mb 0.00 in0.0 mm 0.00 in0.0 mm 0.00 in0.0 mm
12:08 AM 12.8°F-10.7°C 10.6°F-11.9°C 91% 3.0 mph S4.8 kmh S -- 30.12 in1020.0 mb 0.00 in0.0 mm 0.00 in0.0 mm 0.00 in0.0 mm
12:09 AM 12.8°F-10.7°C 10.6°F-11.9°C 91% 4.0 mph SSE6.4 kmh SSE -- 30.12 in1020.0 mb 0.00 in0.0 mm 0.00 in0.0 mm 0.00 in0.0 mm
12:10 AM 12.8°F-10.7°C 10.6°F-11.9°C 91% 2.0 mph SSE3.2 kmh SSE -- 30.12 in1020.0 mb 0.00 in0.0 mm 0.00 in0.0 mm 0.00 in0.0 mm
12:11 AM 12.6°F-10.8°C 10.4°F-12.0°C 91% 2.0 mph SSE3.2 kmh SSE -- 30.12 in1020.0 mb 0.00 in0.0 mm 0.00 in0.0 mm 0.00 in0.0 mm
12:12 AM 12.7°F-10.7°C 10.6°F-11.9°C 91% 2.0 mph SSE3.2 kmh SSE -- 30.12 in1020.0 mb 0.00 in0.0 mm 0.00 in0.0 mm 0.00 in0.0 mm
12:13 AM 12.6°F-10.8°C 10.4°F-12.0°C 91% 3.0 mph SE4.8 kmh SE -- 30.12 in1020.0 mb 0.00 in0.0 mm 0.00 in0.0 mm 0.00 in0.0 mm
12:14 AM 12.5°F-10.8°C 10.4°F-12.0°C 91% 2.0 mph SSE3.2 kmh SSE -- 30.12 in1020.0 mb 0.00 in0.0 mm 0.00 in0.0 mm 0.00 in0.0 mm
12:15 AM 12.5°F-10.8°C 10.4°F-12.0°C 91% 2.0 mph SE3.2 kmh SE -- 30.12 in1020.0 mb 0.00 in0.0 mm 0.00 in0.0 mm 0.00 in0.0 mm
12:16 AM 12.5°F-10.8°C 10.4°F-12.0°C 91% 3.0 mph SE4.8 kmh SE -- 30.12 in1020.0 mb 0.00 in0.0 mm 0.00 in0.0 mm 0.00 in0.0 mm
12:17 AM 12.6°F-10.8°C 10.7°F-11.8°C 92% 2.0 mph ESE3.2 kmh ESE -- 30.12 in1020.0 mb 0.00 in0.0 mm 0.00 in0.0 mm 0.00 in0.0 mm
12:18 AM 12.5°F-10.8°C 10.4°F-12.0°C 91% 3.0 mph ESE4.8 kmh ESE -- 30.12 in1020.0 mb 0.00 in0.0 mm 0.00 in0.0 mm 0.00 in0.0 mm
12:19 AM 12.5°F-10.8°C 10.4°F-12.0°C 91% 2.0 mph ESE3.2 kmh ESE -- 30.12 in1020.0 mb 0.00 in0.0 mm 0.00 in0.0 mm 0.00 in0.0 mm
12:20 AM 12.5°F-10.8°C 10.4°F-12.0°C 91% 3.0 mph ESE4.8 kmh ESE -- 30.12 in1020.0 mb 0.00 in0.0 mm 0.00 in0.0 mm 0.00 in0.0 mm
12:21 AM 12.4°F-10.9°C 10.2°F-12.1°C 91% 3.0 mph SE4.8 kmh SE -- 30.12 in1020.0 mb 0.00 in0.0 mm 0.00 in0.0 mm 0.00 in0.0 mm
12:22 AM 12.2°F-11.0°C 10.3°F-12.1°C 92% 3.0 mph ESE4.8 kmh ESE -- 30.12 in1020.0 mb 0.00 in0.0 mm 0.00 in0.0 mm 0.00 in0.0 mm
12:23 AM 12.2°F-11.0°C 10.3°F-12.1°C 92% 3.0 mph SSE4.8 kmh SSE -- 30.12 in1020.0 mb 0.00 in0.0 mm 0.00 in0.0 mm 0.00 in0.0 mm
12:24 AM 12.2°F-11.0°C 10.0°F-12.2°C 91% 2.0 mph SE3.2 kmh SE -- 30.12 in1020.0 mb 0.00 in0.0 mm 0.00 in0.0 mm 0.00 in0.0 mm
12:25 AM 12.0°F-11.1°C 9.9°F-12.3°C 91% 2.0 mph ESE3.2 kmh ESE -- 30.12 in1020.0 mb 0.00 in0.0 mm 0.00 in0.0 mm 0.00 in0.0 mm
12:26 AM 12.0°F-11.1°C 9.9°F-12.3°C 91% 2.0 mph SE3.2 kmh SE -- 30.12 in1020.0 mb 0.00 in0.0 mm 0.00 in0.0 mm 0.00 in0.0 mm
12:27 AM 11.8°F-11.2°C 9.9°F-12.3°C 92% 2.0 mph SE3.2 kmh SE -- 30.12 in1020.0 mb 0.00 in0.0 mm 0.00 in0.0 mm 0.00 in0.0 mm
12:28 AM 11.8°F-11.2°C 9.7°F-12.4°C 91% 2.0 mph SSE3.2 kmh SSE -- 30.12 in1020.0 mb 0.00 in0.0 mm 0.00 in0.0 mm 0.00 in0.0 mm
12:29 AM 11.8°F-11.2°C 9.7°F-12.4°C 91% 1.0 mph SE1.6 kmh SE -- 30.12 in1020.0 mb 0.00 in0.0 mm 0.00 in0.0 mm 0.00 in0.0 mm
12:30 AM 11.6°F-11.3°C 9.5°F-12.5°C 91% 2.0 mph SSE3.2 kmh SSE -- 30.12 in1020.0 mb 0.00 in0.0 mm 0.00 in0.0 mm 0.00 in0.0 mm
12:31 AM 11.4°F-11.4°C 9.3°F-12.6°C 91% 2.0 mph SE3.2 kmh SE -- 30.12 in1020.0 mb 0.00 in0.0 mm 0.00 in0.0 mm 0.00 in0.0 mm
12:32 AM 11.5°F-11.4°C 9.6°F-12.4°C 92% 1.0 mph SE1.6 kmh SE -- 30.11 in1019.6 mb 0.00 in0.0 mm 0.00 in0.0 mm 0.00 in0.0 mm
12:33 AM 11.4°F-11.4°C 9.3°F-12.6°C 91% Calm Calm -- 30.12 in1020.0 mb 0.00 in0.0 mm 0.00 in0.0 mm 0.00 in0.0 mm
12:34 AM 11.4°F-11.4°C 9.3°F-12.6°C 91% 2.0 mph SE3.2 kmh SE -- 30.12 in1020.0 mb 0.00 in0.0 mm 0.00 in0.0 mm 0.00 in0.0 mm
12:35 AM 11.2°F-11.6°C 9.0°F-12.8°C 91% 1.0 mph SE1.6 kmh SE -- 30.12 in1020.0 mb 0.00 in0.0 mm 0.00 in0.0 mm 0.00 in0.0 mm
12:36 AM 11.1°F-11.6°C 9.0°F-12.8°C 91% 2.0 mph SE3.2 kmh SE -- 30.12 in1020.0 mb 0.00 in0.0 mm 0.00 in0.0 mm 0.00 in0.0 mm
12:37 AM 11.1°F-11.6°C 9.2°F-12.7°C 92% 1.0 mph SSE1.6 kmh SSE -- 30.11 in1019.6 mb 0.00 in0.0 mm 0.00 in0.0 mm 0.00 in0.0 mm
12:38 AM 10.8°F-11.8°C 8.6°F-13.0°C 91% 3.0 mph SSE4.8 kmh SSE -- 30.11 in1019.6 mb 0.00 in0.0 mm 0.00 in0.0 mm 0.00 in0.0 mm
12:39 AM 10.8°F-11.8°C 8.6°F-13.0°C 91% 2.0 mph SE3.2 kmh SE -- 30.11 in1019.6 mb 0.00 in0.0 mm 0.00 in0.0 mm 0.00 in0.0 mm
12:40 AM 10.8°F-11.8°C 9.1°F-12.7°C 93% 2.0 mph SE3.2 kmh SE -- 30.11 in1019.6 mb 0.00 in0.0 mm 0.00 in0.0 mm 0.00 in0.0 mm
12:41 AM 10.8°F-11.8°C 9.1°F-12.7°C 93% 2.0 mph SSE3.2 kmh SSE -- 30.12 in1020.0 mb 0.00 in0.0 mm 0.00 in0.0 mm 0.00 in0.0 mm
12:42 AM 10.6°F-11.9°C 8.9°F-12.8°C 93% 2.0 mph SSE3.2 kmh SSE -- 30.12 in1020.0 mb 0.00 in0.0 mm 0.00 in0.0 mm 0.00 in0.0 mm
12:43 AM 10.6°F-11.9°C 8.9°F-12.8°C 93% 3.0 mph SSE4.8 kmh SSE -- 30.12 in1020.0 mb 0.00 in0.0 mm 0.00 in0.0 mm 0.00 in0.0 mm
12:44 AM 10.8°F-11.8°C 9.1°F-12.7°C 93% 2.0 mph SSW3.2 kmh SSW -- 30.11 in1019.6 mb 0.00 in0.0 mm 0.00 in0.0 mm 0.00 in0.0 mm
12:45 AM 10.8°F-11.8°C 9.1°F-12.7°C 93% 4.0 mph SSE6.4 kmh SSE -- 30.11 in1019.6 mb 0.00 in0.0 mm 0.00 in0.0 mm 0.00 in0.0 mm
12:46 AM 10.8°F-11.8°C 9.1°F-12.7°C 93% 4.0 mph SSW6.4 kmh SSW -- 30.11 in1019.6 mb 0.00 in0.0 mm 0.00 in0.0 mm 0.00 in0.0 mm
12:47 AM 10.8°F-11.8°C 9.1°F-12.7°C 93% 3.0 mph SSE4.8 kmh SSE -- 30.11 in1019.6 mb 0.00 in0.0 mm 0.00 in0.0 mm 0.00 in0.0 mm
12:48 AM 10.8°F-11.8°C 9.1°F-12.7°C 93% 3.0 mph SSE4.8 kmh SSE -- 30.12 in1020.0 mb 0.00 in0.0 mm 0.00 in0.0 mm 0.00 in0.0 mm
12:49 AM 10.8°F-11.8°C 9.1°F-12.7°C 93% 4.0 mph SSE6.4 kmh SSE -- 30.12 in1020.0 mb 0.00 in0.0 mm 0.00 in0.0 mm 0.00 in0.0 mm
12:50 AM 10.8°F-11.8°C 9.1°F-12.7°C 93% 3.0 mph SE4.8 kmh SE -- 30.12 in1020.0 mb 0.00 in0.0 mm 0.00 in0.0 mm 0.00 in0.0 mm
12:51 AM 10.8°F-11.8°C 9.1°F-12.7°C 93% 3.0 mph SSE4.8 kmh SSE -- 30.12 in1020.0 mb 0.00 in0.0 mm 0.00 in0.0 mm 0.00 in0.0 mm
12:52 AM 10.9°F-11.7°C 9.5°F-12.5°C 94% 3.0 mph SSE4.8 kmh SSE -- 30.12 in1020.0 mb 0.00 in0.0 mm 0.00 in0.0 mm 0.00 in0.0 mm
12:53 AM 10.8°F-11.8°C 9.1°F-12.7°C 93% 3.0 mph SSE4.8 kmh SSE -- 30.11 in1019.6 mb 0.00 in0.0 mm 0.00 in0.0 mm 0.00 in0.0 mm
12:54 AM 10.8°F-11.8°C 9.1°F-12.7°C 93% 4.0 mph SSE6.4 kmh SSE -- 30.11 in1019.6 mb 0.00 in0.0 mm 0.00 in0.0 mm 0.00 in0.0 mm
12:55 AM 10.6°F-11.9°C 8.9°F-12.8°C 93% 3.0 mph S4.8 kmh S -- 30.12 in1020.0 mb 0.00 in0.0 mm 0.00 in0.0 mm 0.00 in0.0 mm
12:56 AM 10.6°F-11.9°C 8.9°F-12.8°C 93% 3.0 mph SSE4.8 kmh SSE -- 30.11 in1019.6 mb 0.00 in0.0 mm 0.00 in0.0 mm 0.00 in0.0 mm
12:57 AM 10.6°F-11.9°C 9.2°F-12.7°C 94% 3.0 mph S4.8 kmh S -- 30.11 in1019.6 mb 0.00 in0.0 mm 0.00 in0.0 mm 0.00 in0.0 mm
12:58 AM 10.3°F-12.1°C 8.6°F-13.0°C 93% 3.0 mph SSE4.8 kmh SSE -- 30.12 in1020.0 mb 0.00 in0.0 mm 0.00 in0.0 mm 0.00 in0.0 mm
12:59 AM 10.3°F-12.1°C 8.6°F-13.0°C 93% 3.0 mph SSW4.8 kmh SSW -- 30.12 in1020.0 mb 0.00 in0.0 mm 0.00 in0.0 mm 0.00 in0.0 mm
01:00 AM 10.3°F-12.1°C 8.6°F-13.0°C 93% 4.0 mph SSW6.4 kmh SSW -- 30.11 in1019.6 mb 0.00 in0.0 mm 0.00 in0.0 mm 0.00 in0.0 mm
01:01 AM 10.3°F-12.1°C 8.6°F-13.0°C 93% 4.0 mph S6.4 kmh S -- 30.11 in1019.6 mb 0.00 in0.0 mm 0.00 in0.0 mm 0.00 in0.0 mm
01:02 AM 10.4°F-12.0°C 9.0°F-12.8°C 94% 3.0 mph SSE4.8 kmh SSE -- 30.12 in1020.0 mb 0.00 in0.0 mm 0.00 in0.0 mm 0.00 in0.0 mm
01:03 AM 10.3°F-12.1°C 8.6°F-13.0°C 93% 3.0 mph S4.8 kmh S -- 30.11 in1019.6 mb 0.00 in0.0 mm 0.00 in0.0 mm 0.00 in0.0 mm
01:04 AM 10.3°F-12.1°C 8.6°F-13.0°C 93% 5.0 mph SSW8.0 kmh SSW -- 30.11 in1019.6 mb 0.00 in0.0 mm 0.00 in0.0 mm 0.00 in0.0 mm
01:05 AM 10.3°F-12.1°C 8.6°F-13.0°C 93% 3.0 mph SSE4.8 kmh SSE -- 30.11 in1019.6 mb 0.00 in0.0 mm 0.00 in0.0 mm 0.00 in0.0 mm
01:06 AM 10.3°F-12.1°C 8.6°F-13.0°C 93% 4.0 mph S6.4 kmh S -- 30.11 in1019.6 mb 0.00 in0.0 mm 0.00 in0.0 mm 0.00 in0.0 mm
01:07 AM 10.4°F-12.0°C 9.0°F-12.8°C 94% 4.0 mph S6.4 kmh S -- 30.11 in1019.6 mb 0.00 in0.0 mm 0.00 in0.0 mm 0.00 in0.0 mm
01:09 AM 10.6°F-11.9°C 8.9°F-12.8°C 93% 4.0 mph SSW6.4 kmh SSW -- 30.11 in1019.6 mb 0.00 in0.0 mm 0.00 in0.0 mm 0.00 in0.0 mm
01:10 AM 10.6°F-11.9°C 8.9°F-12.8°C 93% 4.0 mph SSE6.4 kmh SSE -- 30.11 in1019.6 mb 0.00 in0.0 mm 0.00 in0.0 mm 0.00 in0.0 mm
01:11 AM 10.6°F-11.9°C 8.9°F-12.8°C 93% 4.0 mph S6.4 kmh S -- 30.11 in1019.6 mb 0.00 in0.0 mm 0.00 in0.0 mm 0.00 in0.0 mm
01:12 AM 10.6°F-11.9°C 9.2°F-12.7°C 94% 6.0 mph SSE9.7 kmh SSE -- 30.11 in1019.6 mb 0.00 in0.0 mm 0.00 in0.0 mm 0.00 in0.0 mm
01:13 AM 10.6°F-11.9°C 8.9°F-12.8°C 93% 4.0 mph SSE6.4 kmh SSE -- 30.11 in1019.6 mb 0.00 in0.0 mm 0.00 in0.0 mm 0.00 in0.0 mm
01:14 AM 10.3°F-12.1°C 8.6°F-13.0°C 93% 7.0 mph SSE11.3 kmh SSE -- 30.11 in1019.6 mb 0.00 in0.0 mm 0.00 in0.0 mm 0.00 in0.0 mm
01:15 AM 10.3°F-12.1°C 8.6°F-13.0°C 93% 3.0 mph SSE4.8 kmh SSE -- 30.11 in1019.6 mb 0.00 in0.0 mm 0.00 in0.0 mm 0.00 in0.0 mm
01:16 AM 10.1°F-12.2°C 8.4°F-13.1°C 93% 3.0 mph SSE4.8 kmh SSE -- 30.11 in1019.6 mb 0.00 in0.0 mm 0.00 in0.0 mm 0.00 in0.0 mm
01:17 AM 10.2°F-12.1°C 8.8°F-12.9°C 94% 5.0 mph SSE8.0 kmh SSE -- 30.11 in1019.6 mb 0.00 in0.0 mm 0.00 in0.0 mm 0.00 in0.0 mm
01:18 AM 10.1°F-12.2°C 8.4°F-13.1°C 93% 4.0 mph S6.4 kmh S -- 30.11 in1019.6 mb 0.00 in0.0 mm 0.00 in0.0 mm 0.00 in0.0 mm
01:19 AM 10.1°F-12.2°C 8.4°F-13.1°C 93% 3.0 mph SE4.8 kmh SE -- 30.11 in1019.6 mb 0.00 in0.0 mm 0.00 in0.0 mm 0.00 in0.0 mm
01:20 AM 10.0°F-12.2°C 8.4°F-13.1°C 93% 2.0 mph SSE3.2 kmh SSE -- 30.11 in1019.6 mb 0.00 in0.0 mm 0.00 in0.0 mm 0.00 in0.0 mm
01:21 AM 10.0°F-12.2°C 8.4°F-13.1°C 93% 2.0 mph SE3.2 kmh SE -- 30.11 in1019.6 mb 0.00 in0.0 mm 0.00 in0.0 mm 0.00 in0.0 mm
01:22 AM 9.9°F-12.3°C 8.5°F-13.1°C 94% 3.0 mph SSE4.8 kmh SSE -- 30.11 in1019.6 mb 0.00 in0.0 mm 0.00 in0.0 mm 0.00 in0.0 mm
01:23 AM 9.9°F-12.3°C 8.5°F-13.1°C 94% 3.0 mph SE4.8 kmh SE -- 30.11 in1019.6 mb 0.00 in0.0 mm 0.00 in0.0 mm 0.00 in0.0 mm
01:24 AM 9.8°F-12.3°C 8.2°F-13.2°C 93% 4.0 mph SSE6.4 kmh SSE -- 30.11 in1019.6 mb 0.00 in0.0 mm 0.00 in0.0 mm 0.00 in0.0 mm
01:25 AM 9.6°F-12.4°C 8.0°F-13.3°C 93% 4.0 mph SE6.4 kmh SE -- 30.11 in1019.6 mb 0.00 in0.0 mm 0.00 in0.0 mm 0.00 in0.0 mm
01:26 AM 9.6°F-12.4°C 8.0°F-13.3°C 93% 2.0 mph SSE3.2 kmh SSE -- 30.11 in1019.6 mb 0.00 in0.0 mm 0.00 in0.0 mm 0.00 in0.0 mm
01:27 AM 9.7°F-12.4°C 8.3°F-13.2°C 94% 3.0 mph ESE4.8 kmh ESE -- 30.11 in1019.6 mb 0.00 in0.0 mm 0.00 in0.0 mm 0.00 in0.0 mm
01:28 AM 9.5°F-12.5°C 7.9°F-13.4°C 93% 5.0 mph ESE8.0 kmh ESE -- 30.11 in1019.6 mb 0.00 in0.0 mm 0.00 in0.0 mm 0.00 in0.0 mm
01:29 AM 9.5°F-12.5°C 7.9°F-13.4°C 93% 3.0 mph ESE4.8 kmh ESE -- 30.11 in1019.6 mb 0.00 in0.0 mm 0.00 in0.0 mm 0.00 in0.0 mm
01:30 AM 9.5°F-12.5°C 7.9°F-13.4°C 93% 3.0 mph SE4.8 kmh SE -- 30.11 in1019.6 mb 0.00 in0.0 mm 0.00 in0.0 mm 0.00 in0.0 mm
01:31 AM 9.5°F-12.5°C 7.9°F-13.4°C 93% 2.0 mph ESE3.2 kmh ESE -- 30.11 in1019.6 mb 0.00 in0.0 mm 0.00 in0.0 mm 0.00 in0.0 mm
01:35 AM 9.3°F-12.6°C 7.7°F-13.5°C 93% 2.0 mph SSE3.2 kmh SSE -- 30.11 in1019.6 mb 0.00 in0.0 mm 0.00 in0.0 mm 0.00 in0.0 mm
01:36 AM 9.3°F-12.6°C 7.7°F-13.5°C 93% 3.0 mph SSE4.8 kmh SSE -- 30.11 in1019.6 mb 0.00 in0.0 mm 0.00 in0.0 mm 0.00 in0.0 mm
01:37 AM 9.5°F-12.5°C 8.1°F-13.3°C 94% 3.0 mph SE4.8 kmh SE -- 30.10 in1019.3 mb 0.00 in0.0 mm 0.00 in0.0 mm 0.00 in0.0 mm
01:38 AM 9.5°F-12.5°C 8.1°F-13.3°C 94% 3.0 mph SSE4.8 kmh SSE -- 30.10 in1019.3 mb 0.00 in0.0 mm 0.00 in0.0 mm 0.00 in0.0 mm
01:39 AM 9.3°F-12.6°C 7.7°F-13.5°C 93% 2.0 mph ESE3.2 kmh ESE -- 30.10 in1019.3 mb 0.00 in0.0 mm 0.00 in0.0 mm 0.00 in0.0 mm
01:40 AM 9.1°F-12.7°C 7.5°F-13.6°C 93% 3.0 mph ESE4.8 kmh ESE -- 30.10 in1019.3 mb 0.00 in0.0 mm 0.00 in0.0 mm 0.00 in0.0 mm
01:42 AM 9.1°F-12.7°C 7.7°F-13.5°C 94% 3.0 mph ESE4.8 kmh ESE -- 30.10 in1019.3 mb 0.00 in0.0 mm 0.00 in0.0 mm 0.00 in0.0 mm
01:44 AM 9.1°F-12.7°C 7.5°F-13.6°C 93% 3.0 mph SSE4.8 kmh SSE -- 30.10 in1019.3 mb 0.00 in0.0 mm 0.00 in0.0 mm 0.00 in0.0 mm
01:45 AM 9.1°F-12.7°C 7.5°F-13.6°C 93% 3.0 mph ESE4.8 kmh ESE -- 30.10 in1019.3 mb 0.00 in0.0 mm 0.00 in0.0 mm 0.00 in0.0 mm
01:46 AM 9.1°F-12.7°C 7.5°F-13.6°C 93% 4.0 mph SSE6.4 kmh SSE -- 30.10 in1019.3 mb 0.00 in0.0 mm 0.00 in0.0 mm 0.00 in0.0 mm
01:47 AM 9.0°F-12.8°C 7.6°F-13.6°C 94% 3.0 mph ESE4.8 kmh ESE -- 30.10 in1019.3 mb 0.00 in0.0 mm 0.00 in0.0 mm 0.00 in0.0 mm
01:48 AM 9.0°F-12.8°C 7.6°F-13.6°C 94% 2.0 mph SE3.2 kmh SE -- 30.10 in1019.3 mb 0.00 in0.0 mm 0.00 in0.0 mm 0.00 in0.0 mm
01:49 AM 9.0°F-12.8°C 7.3°F-13.7°C 93% 2.0 mph ESE3.2 kmh ESE -- 30.10 in1019.3 mb 0.00 in0.0 mm 0.00 in0.0 mm 0.00 in0.0 mm
01:50 AM 9.0°F-12.8°C 7.3°F-13.7°C 93% 3.0 mph SE4.8 kmh SE -- 30.10 in1019.3 mb 0.00 in0.0 mm 0.00 in0.0 mm 0.00 in0.0 mm
01:51 AM 9.0°F-12.8°C 7.3°F-13.7°C 93% 2.0 mph S3.2 kmh S -- 30.10 in1019.3 mb 0.00 in0.0 mm 0.00 in0.0 mm 0.00 in0.0 mm
01:52 AM 8.8°F-12.9°C 7.4°F-13.7°C 94% 2.0 mph ESE3.2 kmh ESE -- 30.10 in1019.3 mb 0.00 in0.0 mm 0.00 in0.0 mm 0.00 in0.0 mm
01:53 AM 8.8°F-12.9°C 7.4°F-13.7°C 94% 3.0 mph SE4.8 kmh SE -- 30.10 in1019.3 mb 0.00 in0.0 mm 0.00 in0.0 mm 0.00 in0.0 mm
01:54 AM 8.8°F-12.9°C 7.1°F-13.8°C 93% 4.0 mph ESE6.4 kmh ESE -- 30.10 in1019.3 mb 0.00 in0.0 mm 0.00 in0.0 mm 0.00 in0.0 mm
01:55 AM 8.8°F-12.9°C 7.1°F-13.8°C 93% 4.0 mph SSE6.4 kmh SSE -- 30.09 in1019.0 mb 0.00 in0.0 mm 0.00 in0.0 mm 0.00 in0.0 mm
01:56 AM 8.8°F-12.9°C 7.1°F-13.8°C 93% 3.0 mph S4.8 kmh S -- 30.09 in1019.0 mb 0.00 in0.0 mm 0.00 in0.0 mm 0.00 in0.0 mm
01:57 AM 8.8°F-12.9°C 7.4°F-13.7°C 94% 3.0 mph ESE4.8 kmh ESE -- 30.10 in1019.3 mb 0.00 in0.0 mm 0.00 in0.0 mm 0.00 in0.0 mm
01:58 AM 8.8°F-12.9°C 7.1°F-13.8°C 93% 5.0 mph ESE8.0 kmh ESE -- 30.09 in1019.0 mb 0.00 in0.0 mm 0.00 in0.0 mm 0.00 in0.0 mm
01:59 AM 8.8°F-12.9°C 7.1°F-13.8°C 93% 3.0 mph ESE4.8 kmh ESE -- 30.09 in1019.0 mb 0.00 in0.0 mm 0.00 in0.0 mm 0.00 in0.0 mm
02:00 AM 8.8°F-12.9°C 7.1°F-13.8°C 93% 2.0 mph ESE3.2 kmh ESE -- 30.09 in1019.0 mb 0.00 in0.0 mm 0.00 in0.0 mm 0.00 in0.0 mm
02:01 AM 8.8°F-12.9°C 7.1°F-13.8°C 93% 3.0 mph ESE4.8 kmh ESE -- 30.09 in1019.0 mb 0.00 in0.0 mm 0.00 in0.0 mm 0.00 in0.0 mm
02:02 AM 8.8°F-12.9°C 7.4°F-13.7°C 94% 2.0 mph ESE3.2 kmh ESE -- 30.09 in1019.0 mb 0.00 in0.0 mm 0.00 in0.0 mm 0.00 in0.0 mm
02:03 AM 8.8°F-12.9°C 7.1°F-13.8°C 93% 4.0 mph ESE6.4 kmh ESE -- 30.10 in1019.3 mb 0.00 in0.0 mm 0.00 in0.0 mm 0.00 in0.0 mm
02:04 AM 8.8°F-12.9°C 7.1°F-13.8°C 93% 3.0 mph ESE4.8 kmh ESE -- 30.10 in1019.3 mb 0.00 in0.0 mm 0.00 in0.0 mm 0.00 in0.0 mm
02:05 AM 8.8°F-12.9°C 7.1°F-13.8°C 93% 2.0 mph SSE3.2 kmh SSE -- 30.10 in1019.3 mb 0.00 in0.0 mm 0.00 in0.0 mm 0.00 in0.0 mm
02:06 AM 8.8°F-12.9°C 7.1°F-13.8°C 93% 2.0 mph SE3.2 kmh SE -- 30.10 in1019.3 mb 0.00 in0.0 mm 0.00 in0.0 mm 0.00 in0.0 mm
02:07 AM 8.8°F-12.9°C 7.4°F-13.7°C 94% 3.0 mph SSE4.8 kmh SSE -- 30.09 in1019.0 mb 0.00 in0.0 mm 0.00 in0.0 mm 0.00 in0.0 mm
02:08 AM 8.8°F-12.9°C 7.1°F-13.8°C 93% 3.0 mph SE4.8 kmh SE -- 30.09 in1019.0 mb 0.00 in0.0 mm 0.00 in0.0 mm 0.00 in0.0 mm
02:09 AM 8.8°F-12.9°C 7.1°F-13.8°C 93% 2.0 mph S3.2 kmh S -- 30.09 in1019.0 mb 0.00 in0.0 mm 0.00 in0.0 mm 0.00 in0.0 mm
02:10 AM 9.0°F-12.8°C 7.3°F-13.7°C 93% 2.0 mph S3.2 kmh S -- 30.10 in1019.3 mb 0.00 in0.0 mm 0.00 in0.0 mm 0.00 in0.0 mm
02:11 AM 9.0°F-12.8°C 7.3°F-13.7°C 93% 2.0 mph ESE3.2 kmh ESE -- 30.10 in1019.3 mb 0.00 in0.0 mm 0.00 in0.0 mm 0.00 in0.0 mm
02:12 AM 9.0°F-12.8°C 7.6°F-13.6°C 94% 3.0 mph SSE4.8 kmh SSE -- 30.10 in1019.3 mb 0.00 in0.0 mm 0.00 in0.0 mm 0.00 in0.0 mm
02:13 AM 9.0°F-12.8°C 7.3°F-13.7°C 93% 2.0 mph SSE3.2 kmh SSE -- 30.09 in1019.0 mb 0.00 in0.0 mm 0.00 in0.0 mm 0.00 in0.0 mm
02:14 AM 9.0°F-12.8°C 7.3°F-13.7°C 93% 3.0 mph ESE4.8 kmh ESE -- 30.09 in1019.0 mb 0.00 in0.0 mm 0.00 in0.0 mm 0.00 in0.0 mm
02:15 AM 9.0°F-12.8°C 7.3°F-13.7°C 93% 2.0 mph ESE3.2 kmh ESE -- 30.09 in1019.0 mb 0.00 in0.0 mm 0.00 in0.0 mm 0.00 in0.0 mm
02:16 AM 9.0°F-12.8°C 7.3°F-13.7°C 93% 3.0 mph SSE4.8 kmh SSE -- 30.09 in1019.0 mb 0.00 in0.0 mm 0.00 in0.0 mm 0.00 in0.0 mm
02:33 AM 9.1°F-12.7°C 7.5°F-13.6°C 93% 3.0 mph SSE4.8 kmh SSE -- 30.09 in1019.0 mb 0.00 in0.0 mm 0.00 in0.0 mm 0.00 in0.0 mm
02:34 AM 9.1°F-12.7°C 7.5°F-13.6°C 93% 3.0 mph ESE4.8 kmh ESE -- 30.09 in1019.0 mb 0.00 in0.0 mm 0.00 in0.0 mm 0.00 in0.0 mm
02:35 AM 9.1°F-12.7°C 7.5°F-13.6°C 93% 2.0 mph SE3.2 kmh SE -- 30.09 in1019.0 mb 0.00 in0.0 mm 0.00 in0.0 mm 0.00 in0.0 mm
02:37 AM 9.1°F-12.7°C 7.7°F-13.5°C 94% Calm Calm -- 30.09 in1019.0 mb 0.00 in0.0 mm 0.00 in0.0 mm 0.00 in0.0 mm
02:38 AM 9.1°F-12.7°C 7.5°F-13.6°C 93% 1.0 mph E1.6 kmh E -- 30.09 in1019.0 mb 0.00 in0.0 mm 0.00 in0.0 mm 0.00 in0.0 mm
02:40 AM 9.1°F-12.7°C 7.5°F-13.6°C 93% Calm Calm -- 30.09 in1019.0 mb 0.00 in0.0 mm 0.00 in0.0 mm 0.00 in0.0 mm
02:42 AM 9.1°F-12.7°C 7.7°F-13.5°C 94% 2.0 mph SSE3.2 kmh SSE -- 30.09 in1019.0 mb 0.00 in0.0 mm 0.00 in0.0 mm 0.00 in0.0 mm
02:43 AM 9.1°F-12.7°C 7.5°F-13.6°C 93% 2.0 mph SSE3.2 kmh SSE -- 30.09 in1019.0 mb 0.00 in0.0 mm 0.00 in0.0 mm 0.00 in0.0 mm
02:44 AM 9.1°F-12.7°C 7.5°F-13.6°C 93% 1.0 mph S1.6 kmh S -- 30.09 in1019.0 mb 0.00 in0.0 mm 0.00 in0.0 mm 0.00 in0.0 mm
02:45 AM 9.0°F-12.8°C 7.3°F-13.7°C 93% Calm Calm -- 30.09 in1019.0 mb 0.00 in0.0 mm 0.00 in0.0 mm 0.00 in0.0 mm
02:46 AM 9.0°F-12.8°C 7.3°F-13.7°C 93% Calm Calm -- 30.09 in1019.0 mb 0.00 in0.0 mm 0.00 in0.0 mm 0.00 in0.0 mm
02:47 AM 9.0°F-12.8°C 7.6°F-13.6°C 94% Calm Calm -- 30.09 in1019.0 mb 0.00 in0.0 mm 0.00 in0.0 mm 0.00 in0.0 mm
02:48 AM 9.0°F-12.8°C 7.3°F-13.7°C 93% 1.0 mph E1.6 kmh E -- 30.09 in1019.0 mb 0.00 in0.0 mm 0.00 in0.0 mm 0.00 in0.0 mm
02:49 AM 8.8°F-12.9°C 7.1°F-13.8°C 93% 2.0 mph E3.2 kmh E -- 30.09 in1019.0 mb 0.00 in0.0 mm 0.00 in0.0 mm 0.00 in0.0 mm
02:50 AM 8.8°F-12.9°C 7.1°F-13.8°C 93% Calm Calm -- 30.09 in1019.0 mb 0.00 in0.0 mm 0.00 in0.0 mm 0.00 in0.0 mm
02:51 AM 8.8°F-12.9°C 7.1°F-13.8°C 93% Calm Calm -- 30.09 in1019.0 mb 0.00 in0.0 mm 0.00 in0.0 mm 0.00 in0.0 mm
02:52 AM 8.8°F-12.9°C 7.4°F-13.7°C 94% 2.0 mph S3.2 kmh S -- 30.09 in1019.0 mb 0.00 in0.0 mm 0.00 in0.0 mm 0.00 in0.0 mm
02:53 AM 8.8°F-12.9°C 7.1°F-13.8°C 93% Calm Calm -- 30.09 in1019.0 mb 0.00 in0.0 mm 0.00 in0.0 mm 0.00 in0.0 mm
02:54 AM 8.8°F-12.9°C 7.1°F-13.8°C 93% 3.0 mph SSE4.8 kmh SSE -- 30.09 in1019.0 mb 0.00 in0.0 mm 0.00 in0.0 mm 0.00 in0.0 mm
02:55 AM 9.0°F-12.8°C 7.3°F-13.7°C 93% 2.0 mph ESE3.2 kmh ESE -- 30.09 in1019.0 mb 0.00 in0.0 mm 0.00 in0.0 mm 0.00 in0.0 mm
02:56 AM 9.0°F-12.8°C 7.3°F-13.7°C 93% 3.0 mph ESE4.8 kmh ESE -- 30.09 in1019.0 mb 0.00 in0.0 mm 0.00 in0.0 mm 0.00 in0.0 mm
02:57 AM 9.0°F-12.8°C 7.6°F-13.6°C 94% 2.0 mph ESE3.2 kmh ESE -- 30.09 in1019.0 mb 0.00 in0.0 mm 0.00 in0.0 mm 0.00 in0.0 mm
02:58 AM 9.0°F-12.8°C 7.3°F-13.7°C 93% 2.0 mph ESE3.2 kmh ESE -- 30.09 in1019.0 mb 0.00 in0.0 mm 0.00 in0.0 mm 0.00 in0.0 mm
02:59 AM 9.0°F-12.8°C 7.3°F-13.7°C 93% 3.0 mph SE4.8 kmh SE -- 30.09 in1019.0 mb 0.00 in0.0 mm 0.00 in0.0 mm 0.00 in0.0 mm
03:00 AM 9.0°F-12.8°C 7.3°F-13.7°C 93% Calm Calm -- 30.10 in1019.3 mb 0.00 in0.0 mm 0.00 in0.0 mm 0.00 in0.0 mm
03:01 AM 9.0°F-12.8°C 7.8°F-13.4°C 95% Calm Calm -- 30.10 in1019.3 mb 0.00 in0.0 mm 0.00 in0.0 mm 0.00 in0.0 mm
03:02 AM 9.0°F-12.8°C 7.8°F-13.4°C 95% 2.0 mph ESE3.2 kmh ESE -- 30.10 in1019.3 mb 0.00 in0.0 mm 0.00 in0.0 mm 0.00 in0.0 mm
03:03 AM 9.0°F-12.8°C 7.8°F-13.4°C 95% 1.0 mph ESE1.6 kmh ESE -- 30.10 in1019.3 mb 0.00 in0.0 mm 0.00 in0.0 mm 0.00 in0.0 mm
03:04 AM 9.1°F-12.7°C 8.0°F-13.3°C 95% 2.0 mph SE3.2 kmh SE -- 30.09 in1019.0 mb 0.00 in0.0 mm 0.00 in0.0 mm 0.00 in0.0 mm
03:05 AM 9.3°F-12.6°C 8.2°F-13.2°C 95% 2.0 mph SE3.2 kmh SE -- 30.10 in1019.3 mb 0.00 in0.0 mm 0.00 in0.0 mm 0.00 in0.0 mm
03:06 AM 9.3°F-12.6°C 8.2°F-13.2°C 95% 2.0 mph S3.2 kmh S -- 30.09 in1019.0 mb 0.00 in0.0 mm 0.00 in0.0 mm 0.00 in0.0 mm
03:07 AM 9.3°F-12.6°C 8.2°F-13.2°C 95% 1.0 mph SSE1.6 kmh SSE -- 30.09 in1019.0 mb 0.00 in0.0 mm 0.00 in0.0 mm 0.00 in0.0 mm
03:08 AM 9.5°F-12.5°C 8.3°F-13.2°C 95% Calm Calm -- 30.09 in1019.0 mb 0.00 in0.0 mm 0.00 in0.0 mm 0.00 in0.0 mm
03:09 AM 9.5°F-12.5°C 8.3°F-13.2°C 95% Calm Calm -- 30.09 in1019.0 mb 0.00 in0.0 mm 0.00 in0.0 mm 0.00 in0.0 mm
03:10 AM 9.5°F-12.5°C 8.3°F-13.2°C 95% Calm Calm -- 30.10 in1019.3 mb 0.00 in0.0 mm 0.00 in0.0 mm 0.00 in0.0 mm
03:11 AM 9.5°F-12.5°C 8.3°F-13.2°C 95% Calm Calm -- 30.09 in1019.0 mb 0.00 in0.0 mm 0.00 in0.0 mm 0.00 in0.0 mm
03:12 AM 9.5°F-12.5°C 8.3°F-13.2°C 95% Calm Calm -- 30.09 in1019.0 mb 0.00 in0.0 mm 0.00 in0.0 mm 0.00 in0.0 mm
03:13 AM 9.5°F-12.5°C 8.3°F-13.2°C 95% Calm Calm -- 30.09 in1019.0 mb 0.00 in0.0 mm 0.00 in0.0 mm 0.00 in0.0 mm
03:15 AM 9.5°F-12.5°C 8.3°F-13.2°C 95% 2.0 mph SSE3.2 kmh SSE -- 30.09 in1019.0 mb 0.00 in0.0 mm 0.00 in0.0 mm 0.00 in0.0 mm
03:16 AM 9.5°F-12.5°C 8.3°F-13.2°C 95% Calm Calm -- 30.09 in1019.0 mb 0.00 in0.0 mm 0.00 in0.0 mm 0.00 in0.0 mm
03:18 AM 9.3°F-12.6°C 8.2°F-13.2°C 95% Calm Calm -- 30.09 in1019.0 mb 0.00 in0.0 mm 0.00 in0.0 mm 0.00 in0.0 mm
03:20 AM 9.1°F-12.7°C 8.0°F-13.3°C 95% Calm Calm -- 30.09 in1019.0 mb 0.00 in0.0 mm 0.00 in0.0 mm 0.00 in0.0 mm
03:22 AM 9.0°F-12.8°C 7.8°F-13.4°C 95% Calm Calm -- 30.09 in1019.0 mb 0.00 in0.0 mm 0.00 in0.0 mm 0.00 in0.0 mm
03:23 AM 9.0°F-12.8°C 7.8°F-13.4°C 95% Calm Calm -- 30.09 in1019.0 mb 0.00 in0.0 mm 0.00 in0.0 mm 0.00 in0.0 mm
03:24 AM 9.0°F-12.8°C 7.8°F-13.4°C 95% 2.0 mph SW3.2 kmh SW -- 30.09 in1019.0 mb 0.00 in0.0 mm 0.00 in0.0 mm 0.00 in0.0 mm
03:25 AM 9.0°F-12.8°C 7.8°F-13.4°C 95% 2.0 mph SSW3.2 kmh SSW -- 30.09 in1019.0 mb 0.00 in0.0 mm 0.00 in0.0 mm 0.00 in0.0 mm
03:26 AM 9.0°F-12.8°C 7.8°F-13.4°C 95% Calm Calm -- 30.09 in1019.0 mb 0.00 in0.0 mm 0.00 in0.0 mm 0.00 in0.0 mm
03:27 AM 8.8°F-12.9°C 7.6°F-13.6°C 95% 4.0 mph SSW6.4 kmh SSW -- 30.09 in1019.0 mb 0.00 in0.0 mm 0.00 in0.0 mm 0.00 in0.0 mm
03:28 AM 8.8°F-12.9°C 7.6°F-13.6°C 95% 3.0 mph SSW4.8 kmh SSW -- 30.09 in1019.0 mb 0.00 in0.0 mm 0.00 in0.0 mm 0.00 in0.0 mm
03:29 AM 8.8°F-12.9°C 7.6°F-13.6°C 95% 1.0 mph SSW1.6 kmh SSW -- 30.09 in1019.0 mb 0.00 in0.0 mm 0.00 in0.0 mm 0.00 in0.0 mm
03:30 AM 8.8°F-12.9°C 7.6°F-13.6°C 95% 1.0 mph SW1.6 kmh SW -- 30.09 in1019.0 mb 0.00 in0.0 mm 0.00 in0.0 mm 0.00 in0.0 mm
03:31 AM 8.8°F-12.9°C 7.6°F-13.6°C 95% 1.0 mph SSW1.6 kmh SSW -- 30.09 in1019.0 mb 0.00 in0.0 mm 0.00 in0.0 mm 0.00 in0.0 mm
03:32 AM 8.8°F-12.9°C 7.6°F-13.6°C 95% 2.0 mph SW3.2 kmh SW -- 30.09 in1019.0 mb 0.00 in0.0 mm 0.00 in0.0 mm 0.00 in0.0 mm
03:33 AM 8.8°F-12.9°C 7.6°F-13.6°C 95% Calm Calm -- 30.09 in1019.0 mb 0.00 in0.0 mm 0.00 in0.0 mm 0.00 in0.0 mm
03:34 AM 8.8°F-12.9°C 7.6°F-13.6°C 95% Calm Calm -- 30.09 in1019.0 mb 0.00 in0.0 mm 0.00 in0.0 mm 0.00 in0.0 mm
03:36 AM 8.6°F-13.0°C 7.4°F-13.7°C 95% Calm Calm -- 30.09 in1019.0 mb 0.00 in0.0 mm 0.00 in0.0 mm 0.00 in0.0 mm
03:38 AM 8.6°F-13.0°C 7.4°F-13.7°C 95% Calm Calm -- 30.09 in1019.0 mb 0.00 in0.0 mm 0.00 in0.0 mm 0.00 in0.0 mm
03:39 AM 8.3°F-13.2°C 7.1°F-13.8°C 95% Calm Calm -- 30.09 in1019.0 mb 0.00 in0.0 mm 0.00 in0.0 mm 0.00 in0.0 mm
03:41 AM 8.3°F-13.2°C 7.1°F-13.8°C 95% Calm Calm -- 30.09 in1019.0 mb 0.00 in0.0 mm 0.00 in0.0 mm 0.00 in0.0 mm
03:42 AM 8.4°F-13.1°C 7.0°F-13.9°C 94% 2.0 mph SSW3.2 kmh SSW -- 30.10 in1019.3 mb 0.00 in0.0 mm 0.00 in0.0 mm 0.00 in0.0 mm
03:43 AM 8.3°F-13.2°C 6.6°F-14.1°C 93% Calm Calm -- 30.10 in1019.3 mb 0.00 in0.0 mm 0.00 in0.0 mm 0.00 in0.0 mm
03:44 AM 8.3°F-13.2°C 6.6°F-14.1°C 93% Calm Calm -- 30.09 in1019.0 mb 0.00 in0.0 mm 0.00 in0.0 mm 0.00 in0.0 mm
03:45 AM 8.8°F-12.9°C 7.6°F-13.6°C 95% Calm Calm -- 30.09 in1019.0 mb 0.00 in0.0 mm 0.00 in0.0 mm 0.00 in0.0 mm
03:46 AM 8.6°F-13.0°C 7.4°F-13.7°C 95% Calm Calm -- 30.09 in1019.0 mb 0.00 in0.0 mm 0.00 in0.0 mm 0.00 in0.0 mm
03:47 AM 8.6°F-13.0°C 7.4°F-13.7°C 95% Calm Calm -- 30.09 in1019.0 mb 0.00 in0.0 mm 0.00 in0.0 mm 0.00 in0.0 mm
03:48 AM 8.3°F-13.2°C 7.1°F-13.8°C 95% Calm Calm -- 30.09 in1019.0 mb 0.00 in0.0 mm 0.00 in0.0 mm 0.00 in0.0 mm
03:49 AM 8.3°F-13.2°C 7.1°F-13.8°C 95% Calm Calm -- 30.09 in1019.0 mb 0.00 in0.0 mm 0.00 in0.0 mm 0.00 in0.0 mm
03:50 AM 8.3°F-13.2°C 7.1°F-13.8°C 95% Calm Calm -- 30.10 in1019.3 mb 0.00 in0.0 mm 0.00 in0.0 mm 0.00 in0.0 mm
03:51 AM 8.1°F-13.3°C 6.9°F-13.9°C 95% Calm Calm -- 30.10 in1019.3 mb 0.00 in0.0 mm 0.00 in0.0 mm 0.00 in0.0 mm
03:52 AM 8.2°F-13.2°C 7.1°F-13.8°C 95% 2.0 mph ESE3.2 kmh ESE -- 30.09 in1019.0 mb 0.00 in0.0 mm 0.00 in0.0 mm 0.00 in0.0 mm
03:53 AM 8.1°F-13.3°C 6.9°F-13.9°C 95% Calm Calm -- 30.09 in1019.0 mb 0.00 in0.0 mm 0.00 in0.0 mm 0.00 in0.0 mm
03:55 AM 8.1°F-13.3°C 6.9°F-13.9°C 95% Calm Calm -- 30.09 in1019.0 mb 0.00 in0.0 mm 0.00 in0.0 mm 0.00 in0.0 mm
03:56 AM 7.9°F-13.4°C 6.7°F-14.1°C 95% Calm Calm -- 30.09 in1019.0 mb 0.00 in0.0 mm 0.00 in0.0 mm 0.00 in0.0 mm
03:57 AM 7.9°F-13.4°C 6.7°F-14.1°C 95% Calm Calm -- 30.09 in1019.0 mb 0.00 in0.0 mm 0.00 in0.0 mm 0.00 in0.0 mm
03:58 AM 7.9°F-13.4°C 6.7°F-14.1°C 95% Calm Calm -- 30.09 in1019.0 mb 0.00 in0.0 mm 0.00 in0.0 mm 0.00 in0.0 mm
03:59 AM 7.6°F-13.6°C 6.4°F-14.2°C 95% Calm Calm -- 30.09 in1019.0 mb 0.00 in0.0 mm 0.00 in0.0 mm 0.00 in0.0 mm
04:00 AM 7.5°F-13.6°C 6.4°F-14.2°C 95% Calm Calm -- 30.09 in1019.0 mb 0.00 in0.0 mm 0.00 in0.0 mm 0.00 in0.0 mm
04:03 AM 7.5°F-13.6°C 6.4°F-14.2°C 95% Calm Calm -- 30.09 in1019.0 mb 0.00 in0.0 mm 0.00 in0.0 mm 0.00 in0.0 mm
04:05 AM 7.5°F-13.6°C 6.4°F-14.2°C 95% Calm Calm -- 30.09 in1019.0 mb 0.00 in0.0 mm 0.00 in0.0 mm 0.00 in0.0 mm
04:06 AM 7.5°F-13.6°C 6.4°F-14.2°C 95% Calm Calm -- 30.09 in1019.0 mb 0.00 in0.0 mm 0.00 in0.0 mm 0.00 in0.0 mm
04:07 AM 7.5°F-13.6°C 6.4°F-14.2°C 95% Calm Calm -- 30.09 in1019.0 mb 0.00 in0.0 mm 0.00 in0.0 mm 0.00 in0.0 mm
04:09 AM 7.5°F-13.6°C 6.4°F-14.2°C 95% Calm Calm -- 30.09 in1019.0 mb 0.00 in0.0 mm 0.00 in0.0 mm 0.00 in0.0 mm
04:10 AM 7.5°F-13.6°C 6.4°F-14.2°C 95% Calm Calm -- 30.09 in1019.0 mb 0.00 in0.0 mm 0.00 in0.0 mm 0.00 in0.0 mm
04:11 AM 7.5°F-13.6°C 6.4°F-14.2°C 95% Calm Calm -- 30.09 in1019.0 mb 0.00 in0.0 mm 0.00 in0.0 mm 0.00 in0.0 mm
04:13 AM 7.5°F-13.6°C 6.4°F-14.2°C 95% Calm Calm -- 30.10 in1019.3 mb 0.00 in0.0 mm 0.00 in0.0 mm 0.00 in0.0 mm
04:14 AM 7.5°F-13.6°C 6.4°F-14.2°C 95% Calm Calm -- 30.09 in1019.0 mb 0.00 in0.0 mm 0.00 in0.0 mm 0.00 in0.0 mm
04:15 AM 7.5°F-13.6°C 6.4°F-14.2°C 95% Calm Calm -- 30.09 in1019.0 mb 0.00 in0.0 mm 0.00 in0.0 mm 0.00 in0.0 mm
04:16 AM 7.5°F-13.6°C 6.4°F-14.2°C 95% 2.0 mph SSE3.2 kmh SSE -- 30.09 in1019.0 mb 0.00 in0.0 mm 0.00 in0.0 mm 0.00 in0.0 mm
04:17 AM 7.5°F-13.6°C 6.4°F-14.2°C 95% 1.0 mph SSE1.6 kmh SSE -- 30.09 in1019.0 mb 0.00 in0.0 mm 0.00 in0.0 mm 0.00 in0.0 mm
04:18 AM 7.5°F-13.6°C 6.4°F-14.2°C 95% Calm Calm -- 30.09 in1019.0 mb 0.00 in0.0 mm 0.00 in0.0 mm 0.00 in0.0 mm
04:22 AM 7.5°F-13.6°C 6.4°F-14.2°C 95% Calm Calm -- 30.09 in1019.0 mb 0.00 in0.0 mm 0.00 in0.0 mm 0.00 in0.0 mm
04:26 AM 7.3°F-13.7°C 6.2°F-14.3°C 95% Calm Calm -- 30.09 in1019.0 mb 0.00 in0.0 mm 0.00 in0.0 mm 0.00 in0.0 mm
04:28 AM 7.1°F-13.8°C 6.0°F-14.4°C 95% Calm Calm -- 30.09 in1019.0 mb 0.00 in0.0 mm 0.00 in0.0 mm 0.00 in0.0 mm
04:32 AM 7.2°F-13.8°C 6.0°F-14.4°C 95% Calm Calm -- 30.09 in1019.0 mb 0.00 in0.0 mm 0.00 in0.0 mm 0.00 in0.0 mm
04:33 AM 7.0°F-13.9°C 5.8°F-14.6°C 95% Calm Calm -- 30.09 in1019.0 mb 0.00 in0.0 mm 0.00 in0.0 mm 0.00 in0.0 mm
04:34 AM 7.0°F-13.9°C 5.8°F-14.6°C 95% Calm Calm -- 30.09 in1019.0 mb 0.00 in0.0 mm 0.00 in0.0 mm 0.00 in0.0 mm
04:36 AM 6.8°F-14.0°C 5.7°F-14.6°C 95% Calm Calm -- 30.09 in1019.0 mb 0.00 in0.0 mm 0.00 in0.0 mm 0.00 in0.0 mm
04:38 AM 6.3°F-14.3°C 4.6°F-15.2°C 93% Calm Calm -- 30.09 in1019.0 mb 0.00 in0.0 mm 0.00 in0.0 mm 0.00 in0.0 mm
04:39 AM 6.3°F-14.3°C 5.1°F-14.9°C 95% Calm Calm -- 30.09 in1019.0 mb 0.00 in0.0 mm 0.00 in0.0 mm 0.00 in0.0 mm
04:40 AM 6.3°F-14.3°C 5.1°F-14.9°C 95% Calm Calm -- 30.09 in1019.0 mb 0.00 in0.0 mm 0.00 in0.0 mm 0.00 in0.0 mm
04:41 AM 6.3°F-14.3°C 5.1°F-14.9°C 95% Calm Calm -- 30.09 in1019.0 mb 0.00 in0.0 mm 0.00 in0.0 mm 0.00 in0.0 mm
04:42 AM 6.4°F-14.2°C 5.3°F-14.8°C 95% Calm Calm -- 30.08 in1018.6 mb 0.00 in0.0 mm 0.00 in0.0 mm 0.00 in0.0 mm
04:43 AM 6.3°F-14.3°C 5.1°F-14.9°C 95% Calm Calm -- 30.08 in1018.6 mb 0.00 in0.0 mm 0.00 in0.0 mm 0.00 in0.0 mm
04:44 AM 6.3°F-14.3°C 5.1°F-14.9°C 95% Calm Calm -- 30.09 in1019.0 mb 0.00 in0.0 mm 0.00 in0.0 mm 0.00 in0.0 mm
04:45 AM 6.3°F-14.3°C 5.1°F-14.9°C 95% Calm Calm -- 30.08 in1018.6 mb 0.00 in0.0 mm 0.00 in0.0 mm 0.00 in0.0 mm
04:46 AM 6.3°F-14.3°C 5.1°F-14.9°C 95% Calm Calm -- 30.09 in1019.0 mb 0.00 in0.0 mm 0.00 in0.0 mm 0.00 in0.0 mm
04:47 AM 6.4°F-14.2°C 5.3°F-14.8°C 95% Calm Calm -- 30.09 in1019.0 mb 0.00 in0.0 mm 0.00 in0.0 mm 0.00 in0.0 mm
04:48 AM 6.3°F-14.3°C 5.1°F-14.9°C 95% Calm Calm -- 30.09 in1019.0 mb 0.00 in0.0 mm 0.00 in0.0 mm 0.00 in0.0 mm
04:49 AM 6.3°F-14.3°C 5.1°F-14.9°C 95% Calm Calm -- 30.08 in1018.6 mb 0.00 in0.0 mm 0.00 in0.0 mm 0.00 in0.0 mm
04:50 AM 6.3°F-14.3°C 5.1°F-14.9°C 95% 2.0 mph ESE3.2 kmh ESE -- 30.08 in1018.6 mb 0.00 in0.0 mm 0.00 in0.0 mm 0.00 in0.0 mm
04:53 AM 6.3°F-14.3°C 5.1°F-14.9°C 95% 2.0 mph ESE3.2 kmh ESE -- 30.09 in1019.0 mb 0.00 in0.0 mm 0.00 in0.0 mm 0.00 in0.0 mm
04:54 AM 6.3°F-14.3°C 5.1°F-14.9°C 95% 2.0 mph ESE3.2 kmh ESE -- 30.08 in1018.6 mb 0.00 in0.0 mm 0.00 in0.0 mm 0.00 in0.0 mm
04:55 AM 6.3°F-14.3°C 5.1°F-14.9°C 95% 1.0 mph ESE1.6 kmh ESE -- 30.08 in1018.6 mb 0.00 in0.0 mm 0.00 in0.0 mm 0.00 in0.0 mm
04:56 AM 6.3°F-14.3°C 5.1°F-14.9°C 95% Calm Calm -- 30.09 in1019.0 mb 0.00 in0.0 mm 0.00 in0.0 mm 0.00 in0.0 mm
04:57 AM 6.3°F-14.3°C 5.1°F-14.9°C 95% Calm Calm -- 30.09 in1019.0 mb 0.00 in0.0 mm 0.00 in0.0 mm 0.00 in0.0 mm
04:58 AM 6.3°F-14.3°C 5.1°F-14.9°C 95% 1.0 mph ESE1.6 kmh ESE -- 30.08 in1018.6 mb 0.00 in0.0 mm 0.00 in0.0 mm 0.00 in0.0 mm
04:59 AM 6.3°F-14.3°C 5.1°F-14.9°C 95% Calm Calm -- 30.08 in1018.6 mb 0.00 in0.0 mm 0.00 in0.0 mm 0.00 in0.0 mm
05:00 AM 6.3°F-14.3°C 5.1°F-14.9°C 95% Calm Calm -- 30.09 in1019.0 mb 0.00 in0.0 mm 0.00 in0.0 mm 0.00 in0.0 mm
05:01 AM 6.3°F-14.3°C 5.1°F-14.9°C 95% Calm Calm -- 30.09 in1019.0 mb 0.00 in0.0 mm 0.00 in0.0 mm 0.00 in0.0 mm
05:02 AM 6.3°F-14.3°C 5.1°F-14.9°C 95% Calm Calm -- 30.09 in1019.0 mb 0.00 in0.0 mm 0.00 in0.0 mm 0.00 in0.0 mm
05:03 AM 6.1°F-14.4°C 4.9°F-15.1°C 95% Calm Calm -- 30.09 in1019.0 mb 0.00 in0.0 mm 0.00 in0.0 mm 0.00 in0.0 mm
05:04 AM 6.1°F-14.4°C 4.9°F-15.1°C 95% Calm Calm -- 30.08 in1018.6 mb 0.00 in0.0 mm 0.00 in0.0 mm 0.00 in0.0 mm
05:05 AM 5.6°F-14.7°C 4.4°F-15.3°C 95% Calm Calm -- 30.08 in1018.6 mb 0.00 in0.0 mm 0.00 in0.0 mm 0.00 in0.0 mm
05:07 AM 5.7°F-14.6°C 4.6°F-15.2°C 95% Calm Calm -- 30.08 in1018.6 mb 0.00 in0.0 mm 0.00 in0.0 mm 0.00 in0.0 mm
05:08 AM 5.6°F-14.7°C 4.4°F-15.3°C 95% Calm Calm -- 30.08 in1018.6 mb 0.00 in0.0 mm 0.00 in0.0 mm 0.00 in0.0 mm
05:09 AM 5.6°F-14.7°C 4.4°F-15.3°C 95% Calm Calm -- 30.08 in1018.6 mb 0.00 in0.0 mm 0.00 in0.0 mm 0.00 in0.0 mm
05:11 AM 5.6°F-14.7°C 4.4°F-15.3°C 95% Calm Calm -- 30.08 in1018.6 mb 0.00 in0.0 mm 0.00 in0.0 mm 0.00 in0.0 mm
05:12 AM 5.9°F-14.5°C 4.8°F-15.1°C 95% Calm Calm -- 30.08 in1018.6 mb 0.00 in0.0 mm 0.00 in0.0 mm 0.00 in0.0 mm
05:13 AM 5.9°F-14.5°C 4.8°F-15.1°C 95% Calm Calm -- 30.08 in1018.6 mb 0.00 in0.0 mm 0.00 in0.0 mm 0.00 in0.0 mm
05:16 AM 5.9°F-14.5°C 4.8°F-15.1°C 95% Calm Calm -- 30.08 in1018.6 mb 0.00 in0.0 mm 0.00 in0.0 mm 0.00 in0.0 mm
05:17 AM 5.9°F-14.5°C 4.8°F-15.1°C 95% 3.0 mph SSW4.8 kmh SSW -- 30.08 in1018.6 mb 0.00 in0.0 mm 0.00 in0.0 mm 0.00 in0.0 mm
05:18 AM 5.6°F-14.7°C 4.4°F-15.3°C 95% Calm Calm -- 30.08 in1018.6 mb 0.00 in0.0 mm 0.00 in0.0 mm 0.00 in0.0 mm
05:19 AM 5.6°F-14.7°C 4.4°F-15.3°C 95% Calm Calm -- 30.08 in1018.6 mb 0.00 in0.0 mm 0.00 in0.0 mm 0.00 in0.0 mm
05:20 AM 5.6°F-14.7°C 4.4°F-15.3°C 95% Calm Calm -- 30.09 in1019.0 mb 0.00 in0.0 mm 0.00 in0.0 mm 0.00 in0.0 mm
05:21 AM 5.5°F-14.7°C 4.4°F-15.3°C 95% Calm Calm -- 30.08 in1018.6 mb 0.00 in0.0 mm 0.00 in0.0 mm 0.00 in0.0 mm
05:22 AM 5.5°F-14.7°C 4.4°F-15.3°C 95% Calm Calm -- 30.09 in1019.0 mb 0.00 in0.0 mm 0.00 in0.0 mm 0.00 in0.0 mm
05:23 AM 5.5°F-14.7°C 4.4°F-15.3°C 95% 2.0 mph SE3.2 kmh SE -- 30.09 in1019.0 mb 0.00 in0.0 mm 0.00 in0.0 mm 0.00 in0.0 mm
05:24 AM 5.5°F-14.7°C 4.4°F-15.3°C 95% 3.0 mph E4.8 kmh E -- 30.08 in1018.6 mb 0.00 in0.0 mm 0.00 in0.0 mm 0.00 in0.0 mm
05:25 AM 5.5°F-14.7°C 4.4°F-15.3°C 95% Calm Calm -- 30.08 in1018.6 mb 0.00 in0.0 mm 0.00 in0.0 mm 0.00 in0.0 mm
05:26 AM 5.4°F-14.8°C 4.2°F-15.4°C 95% Calm Calm -- 30.08 in1018.6 mb 0.00 in0.0 mm 0.00 in0.0 mm 0.00 in0.0 mm
05:28 AM 5.4°F-14.8°C 4.2°F-15.4°C 95% Calm Calm -- 30.08 in1018.6 mb 0.00 in0.0 mm 0.00 in0.0 mm 0.00 in0.0 mm
05:29 AM 5.4°F-14.8°C 4.2°F-15.4°C 95% Calm Calm -- 30.08 in1018.6 mb 0.00 in0.0 mm 0.00 in0.0 mm 0.00 in0.0 mm
05:31 AM 5.4°F-14.8°C 4.2°F-15.4°C 95% Calm Calm -- 30.08 in1018.6 mb 0.00 in0.0 mm 0.00 in0.0 mm 0.00 in0.0 mm
05:33 AM 5.4°F-14.8°C 4.2°F-15.4°C 95% Calm Calm -- 30.08 in1018.6 mb 0.00 in0.0 mm 0.00 in0.0 mm 0.00 in0.0 mm
05:34 AM 5.0°F-15.0°C 3.9°F-15.6°C 95% Calm Calm -- 30.08 in1018.6 mb 0.00 in0.0 mm 0.00 in0.0 mm 0.00 in0.0 mm
05:35 AM 5.4°F-14.8°C 3.8°F-15.7°C 93% 4.0 mph SSE6.4 kmh SSE -- 30.08 in1018.6 mb 0.00 in0.0 mm 0.00 in0.0 mm 0.00 in0.0 mm
05:36 AM 5.4°F-14.8°C 3.8°F-15.7°C 93% 3.0 mph SSE4.8 kmh SSE -- 30.07 in1018.3 mb 0.00 in0.0 mm 0.00 in0.0 mm 0.00 in0.0 mm
05:37 AM 5.6°F-14.7°C 4.4°F-15.3°C 95% 4.0 mph SSE6.4 kmh SSE -- 30.07 in1018.3 mb 0.00 in0.0 mm 0.00 in0.0 mm 0.00 in0.0 mm
05:38 AM 5.6°F-14.7°C 4.6°F-15.2°C 96% 2.0 mph SSE3.2 kmh SSE -- 30.08 in1018.6 mb 0.00 in0.0 mm 0.00 in0.0 mm 0.00 in0.0 mm
05:39 AM 5.6°F-14.7°C 4.4°F-15.3°C 95% 3.0 mph SE4.8 kmh SE -- 30.08 in1018.6 mb 0.00 in0.0 mm 0.00 in0.0 mm 0.00 in0.0 mm
05:40 AM 5.6°F-14.7°C 4.4°F-15.3°C 95% 3.0 mph ESE4.8 kmh ESE -- 30.08 in1018.6 mb 0.00 in0.0 mm 0.00 in0.0 mm 0.00 in0.0 mm
05:41 AM 5.6°F-14.7°C 4.4°F-15.3°C 95% 2.0 mph ESE3.2 kmh ESE -- 30.08 in1018.6 mb 0.00 in0.0 mm 0.00 in0.0 mm 0.00 in0.0 mm
05:43 AM 5.6°F-14.7°C 4.4°F-15.3°C 95% 2.0 mph ESE3.2 kmh ESE -- 30.07 in1018.3 mb 0.00 in0.0 mm 0.00 in0.0 mm 0.00 in0.0 mm
05:44 AM 5.5°F-14.7°C 4.4°F-15.3°C 95% 1.0 mph SE1.6 kmh SE -- 30.07 in1018.3 mb 0.00 in0.0 mm 0.00 in0.0 mm 0.00 in0.0 mm
05:45 AM 5.5°F-14.7°C 4.4°F-15.3°C 95% 3.0 mph ESE4.8 kmh ESE -- 30.07 in1018.3 mb 0.00 in0.0 mm 0.00 in0.0 mm 0.00 in0.0 mm
05:46 AM 5.4°F-14.8°C 4.2°F-15.4°C 95% 3.0 mph ESE4.8 kmh ESE -- 30.08 in1018.6 mb 0.00 in0.0 mm 0.00 in0.0 mm 0.00 in0.0 mm
05:47 AM 5.4°F-14.8°C 4.2°F-15.4°C 95% 2.0 mph ESE3.2 kmh ESE -- 30.08 in1018.6 mb 0.00 in0.0 mm 0.00 in0.0 mm 0.00 in0.0 mm
05:48 AM 5.4°F-14.8°C 4.2°F-15.4°C 95% 2.0 mph SE3.2 kmh SE -- 30.08 in1018.6 mb 0.00 in0.0 mm 0.00 in0.0 mm 0.00 in0.0 mm
05:49 AM 5.1°F-14.9°C 3.6°F-15.8°C 93% 3.0 mph ESE4.8 kmh ESE -- 30.08 in1018.6 mb 0.00 in0.0 mm 0.00 in0.0 mm 0.00 in0.0 mm
05:50 AM 5.2°F-14.9°C 3.8°F-15.7°C 94% 1.0 mph ESE1.6 kmh ESE -- 30.08 in1018.6 mb 0.00 in0.0 mm 0.00 in0.0 mm 0.00 in0.0 mm
05:51 AM 5.0°F-15.0°C 3.4°F-15.9°C 93% Calm Calm -- 30.08 in1018.6 mb 0.00 in0.0 mm 0.00 in0.0 mm 0.00 in0.0 mm
05:52 AM 5.0°F-15.0°C 3.4°F-15.9°C 93% 2.0 mph ESE3.2 kmh ESE -- 30.07 in1018.3 mb 0.00 in0.0 mm 0.00 in0.0 mm 0.00 in0.0 mm
05:54 AM 4.8°F-15.1°C 3.2°F-16.0°C 93% 3.0 mph ESE4.8 kmh ESE -- 30.08 in1018.6 mb 0.00 in0.0 mm 0.00 in0.0 mm 0.00 in0.0 mm
05:57 AM 4.8°F-15.1°C 3.2°F-16.0°C 93% 3.0 mph SE4.8 kmh SE -- 30.08 in1018.6 mb 0.00 in0.0 mm 0.00 in0.0 mm 0.00 in0.0 mm
05:58 AM 4.8°F-15.1°C 3.2°F-16.0°C 93% 2.0 mph ESE3.2 kmh ESE -- 30.08 in1018.6 mb 0.00 in0.0 mm 0.00 in0.0 mm 0.00 in0.0 mm
06:00 AM 4.8°F-15.1°C 3.5°F-15.8°C 94% 2.0 mph ESE3.2 kmh ESE -- 30.08 in1018.6 mb 0.00 in0.0 mm 0.00 in0.0 mm 0.00 in0.0 mm
06:01 AM 4.8°F-15.1°C 3.2°F-16.0°C 93% 2.0 mph ESE3.2 kmh ESE -- 30.08 in1018.6 mb 0.00 in0.0 mm 0.00 in0.0 mm 0.00 in0.0 mm
06:02 AM 4.8°F-15.1°C 3.2°F-16.0°C 93% Calm Calm -- 30.07 in1018.3 mb 0.00 in0.0 mm 0.00 in0.0 mm 0.00 in0.0 mm
06:03 AM 4.5°F-15.3°C 2.9°F-16.2°C 93% 2.0 mph E3.2 kmh E -- 30.08 in1018.6 mb 0.00 in0.0 mm 0.00 in0.0 mm 0.00 in0.0 mm
06:05 AM 4.6°F-15.2°C 3.3°F-15.9°C 94% 1.0 mph E1.6 kmh E -- 30.08 in1018.6 mb 0.00 in0.0 mm 0.00 in0.0 mm 0.00 in0.0 mm
06:06 AM 4.5°F-15.3°C 2.9°F-16.2°C 93% 2.0 mph E3.2 kmh E -- 30.08 in1018.6 mb 0.00 in0.0 mm 0.00 in0.0 mm 0.00 in0.0 mm
06:07 AM 4.5°F-15.3°C 2.9°F-16.2°C 93% 2.0 mph ENE3.2 kmh ENE -- 30.08 in1018.6 mb 0.00 in0.0 mm 0.00 in0.0 mm 0.00 in0.0 mm
06:08 AM 4.5°F-15.3°C 2.9°F-16.2°C 93% 1.0 mph ENE1.6 kmh ENE -- 30.08 in1018.6 mb 0.00 in0.0 mm 0.00 in0.0 mm 0.00 in0.0 mm
06:09 AM 4.5°F-15.3°C 2.9°F-16.2°C 93% Calm Calm -- 30.08 in1018.6 mb 0.00 in0.0 mm 0.00 in0.0 mm 0.00 in0.0 mm
06:10 AM 4.3°F-15.4°C 2.9°F-16.2°C 94% 2.0 mph E3.2 kmh E -- 30.07 in1018.3 mb 0.00 in0.0 mm 0.00 in0.0 mm 0.00 in0.0 mm
06:11 AM 4.3°F-15.4°C 2.7°F-16.3°C 93% Calm Calm -- 30.07 in1018.3 mb 0.00 in0.0 mm 0.00 in0.0 mm 0.00 in0.0 mm
06:12 AM 4.3°F-15.4°C 2.7°F-16.3°C 93% 1.0 mph ESE1.6 kmh ESE -- 30.07 in1018.3 mb 0.00 in0.0 mm 0.00 in0.0 mm 0.00 in0.0 mm
06:13 AM 4.3°F-15.4°C 2.7°F-16.3°C 93% 2.0 mph ESE3.2 kmh ESE -- 30.08 in1018.6 mb 0.00 in0.0 mm 0.00 in0.0 mm 0.00 in0.0 mm
06:14 AM 4.3°F-15.4°C 2.7°F-16.3°C 93% 3.0 mph ESE4.8 kmh ESE -- 30.07 in1018.3 mb 0.00 in0.0 mm 0.00 in0.0 mm 0.00 in0.0 mm
06:15 AM 4.3°F-15.4°C 2.9°F-16.2°C 94% 3.0 mph ESE4.8 kmh ESE -- 30.07 in1018.3 mb 0.00 in0.0 mm 0.00 in0.0 mm 0.00 in0.0 mm
06:16 AM 4.3°F-15.4°C 2.7°F-16.3°C 93% 2.0 mph ESE3.2 kmh ESE -- 30.07 in1018.3 mb 0.00 in0.0 mm 0.00 in0.0 mm 0.00 in0.0 mm
06:18 AM 4.3°F-15.4°C 2.7°F-16.3°C 93% 2.0 mph ESE3.2 kmh ESE -- 30.08 in1018.6 mb 0.00 in0.0 mm 0.00 in0.0 mm 0.00 in0.0 mm
06:19 AM 4.5°F-15.3°C 2.9°F-16.2°C 93% 2.0 mph ESE3.2 kmh ESE -- 30.07 in1018.3 mb 0.00 in0.0 mm 0.00 in0.0 mm 0.00 in0.0 mm
06:20 AM 4.5°F-15.3°C 3.1°F-16.1°C 94% 3.0 mph ESE4.8 kmh ESE -- 30.07 in1018.3 mb 0.00 in0.0 mm 0.00 in0.0 mm 0.00 in0.0 mm
06:21 AM 4.5°F-15.3°C 2.9°F-16.2°C 93% 2.0 mph ESE3.2 kmh ESE -- 30.07 in1018.3 mb 0.00 in0.0 mm 0.00 in0.0 mm 0.00 in0.0 mm
06:22 AM 4.5°F-15.3°C 2.9°F-16.2°C 93% 1.0 mph ESE1.6 kmh ESE -- 30.08 in1018.6 mb 0.00 in0.0 mm 0.00 in0.0 mm 0.00 in0.0 mm
06:23 AM 4.5°F-15.3°C 2.9°F-16.2°C 93% Calm Calm -- 30.08 in1018.6 mb 0.00 in0.0 mm 0.00 in0.0 mm 0.00 in0.0 mm
06:24 AM 4.5°F-15.3°C 2.9°F-16.2°C 93% Calm Calm -- 30.08 in1018.6 mb 0.00 in0.0 mm 0.00 in0.0 mm 0.00 in0.0 mm
06:25 AM 4.3°F-15.4°C 3.2°F-16.0°C 95% Calm Calm -- 30.07 in1018.3 mb 0.00 in0.0 mm 0.00 in0.0 mm 0.00 in0.0 mm
06:26 AM 4.3°F-15.4°C 2.7°F-16.3°C 93% 2.0 mph ESE3.2 kmh ESE -- 30.07 in1018.3 mb 0.00 in0.0 mm 0.00 in0.0 mm 0.00 in0.0 mm
06:27 AM 4.5°F-15.3°C 2.9°F-16.2°C 93% Calm Calm -- 30.07 in1018.3 mb 0.00 in0.0 mm 0.00 in0.0 mm 0.00 in0.0 mm
06:28 AM 4.5°F-15.3°C 3.3°F-15.9°C 95% 1.0 mph SSE1.6 kmh SSE -- 30.07 in1018.3 mb 0.00 in0.0 mm 0.00 in0.0 mm 0.00 in0.0 mm
06:29 AM 4.5°F-15.3°C 3.3°F-15.9°C 95% 1.0 mph W1.6 kmh W -- 30.08 in1018.6 mb 0.00 in0.0 mm 0.00 in0.0 mm 0.00 in0.0 mm
06:30 AM 4.3°F-15.4°C 2.9°F-16.2°C 94% Calm Calm -- 30.08 in1018.6 mb 0.00 in0.0 mm 0.00 in0.0 mm 0.00 in0.0 mm
06:31 AM 4.3°F-15.4°C 2.7°F-16.3°C 93% Calm Calm -- 30.08 in1018.6 mb 0.00 in0.0 mm 0.00 in0.0 mm 0.00 in0.0 mm
06:33 AM 4.3°F-15.4°C 2.7°F-16.3°C 93% Calm Calm -- 30.08 in1018.6 mb 0.00 in0.0 mm 0.00 in0.0 mm 0.00 in0.0 mm
06:35 AM 4.3°F-15.4°C 2.9°F-16.2°C 94% Calm Calm -- 30.08 in1018.6 mb 0.00 in0.0 mm 0.00 in0.0 mm 0.00 in0.0 mm
06:36 AM 4.0°F-15.6°C 2.3°F-16.5°C 93% Calm Calm -- 30.08 in1018.6 mb 0.00 in0.0 mm 0.00 in0.0 mm 0.00 in0.0 mm
06:37 AM 3.5°F-15.8°C 2.0°F-16.7°C 93% Calm Calm -- 30.08 in1018.6 mb 0.00 in0.0 mm 0.00 in0.0 mm 0.00 in0.0 mm
06:38 AM 3.5°F-15.8°C 2.0°F-16.7°C 93% Calm Calm -- 30.08 in1018.6 mb 0.00 in0.0 mm 0.00 in0.0 mm 0.00 in0.0 mm
06:39 AM 3.4°F-15.9°C 1.8°F-16.8°C 93% Calm Calm -- 30.07 in1018.3 mb 0.00 in0.0 mm 0.00 in0.0 mm 0.00 in0.0 mm
06:40 AM 3.4°F-15.9°C 2.0°F-16.7°C 94% Calm Calm -- 30.07 in1018.3 mb 0.00 in0.0 mm 0.00 in0.0 mm 0.00 in0.0 mm
06:41 AM 3.4°F-15.9°C 1.8°F-16.8°C 93% Calm Calm -- 30.07 in1018.3 mb 0.00 in0.0 mm 0.00 in0.0 mm 0.00 in0.0 mm
06:42 AM 3.4°F-15.9°C 1.8°F-16.8°C 93% Calm Calm -- 30.08 in1018.6 mb 0.00 in0.0 mm 0.00 in0.0 mm 0.00 in0.0 mm
06:43 AM 3.5°F-15.8°C 2.0°F-16.7°C 93% 2.0 mph NE3.2 kmh NE -- 30.07 in1018.3 mb 0.00 in0.0 mm 0.00 in0.0 mm 0.00 in0.0 mm
06:44 AM 3.7°F-15.7°C 2.1°F-16.6°C 93% 1.0 mph NE1.6 kmh NE -- 30.08 in1018.6 mb 0.00 in0.0 mm 0.00 in0.0 mm 0.00 in0.0 mm
06:45 AM 3.7°F-15.7°C 2.6°F-16.3°C 95% Calm Calm -- 30.07 in1018.3 mb 0.00 in0.0 mm 0.00 in0.0 mm 0.00 in0.0 mm
06:46 AM 3.9°F-15.6°C 2.8°F-16.2°C 95% Calm Calm -- 30.07 in1018.3 mb 0.00 in0.0 mm 0.00 in0.0 mm 0.00 in0.0 mm
06:48 AM 3.9°F-15.6°C 2.8°F-16.2°C 95% Calm Calm -- 30.07 in1018.3 mb 0.00 in0.0 mm 0.00 in0.0 mm 0.00 in0.0 mm
06:49 AM 3.9°F-15.6°C 2.8°F-16.2°C 95% 3.0 mph WNW4.8 kmh WNW -- 30.07 in1018.3 mb 0.00 in0.0 mm 0.00 in0.0 mm 0.00 in0.0 mm
06:50 AM 3.9°F-15.6°C 2.8°F-16.2°C 95% Calm Calm -- 30.07 in1018.3 mb 0.00 in0.0 mm 0.00 in0.0 mm 0.00 in0.0 mm
06:51 AM 4.0°F-15.6°C 2.8°F-16.2°C 95% 3.0 mph SSW4.8 kmh SSW -- 30.08 in1018.6 mb 0.00 in0.0 mm 0.00 in0.0 mm 0.00 in0.0 mm
06:52 AM 4.0°F-15.6°C 2.8°F-16.2°C 95% 5.0 mph W8.0 kmh W -- 30.07 in1018.3 mb 0.00 in0.0 mm 0.00 in0.0 mm 0.00 in0.0 mm
06:53 AM 4.5°F-15.3°C 3.3°F-15.9°C 95% 2.0 mph SW3.2 kmh SW -- 30.07 in1018.3 mb 0.00 in0.0 mm 0.00 in0.0 mm 0.00 in0.0 mm
06:54 AM 4.0°F-15.6°C 2.8°F-16.2°C 95% 2.0 mph SW3.2 kmh SW -- 30.07 in1018.3 mb 0.00 in0.0 mm 0.00 in0.0 mm 0.00 in0.0 mm
06:55 AM 4.1°F-15.5°C 3.0°F-16.1°C 95% 2.0 mph WNW3.2 kmh WNW -- 30.08 in1018.6 mb 0.00 in0.0 mm 0.00 in0.0 mm 0.00 in0.0 mm
06:56 AM 4.3°F-15.4°C 3.2°F-16.0°C 95% 1.0 mph SW1.6 kmh SW -- 30.07 in1018.3 mb 0.00 in0.0 mm 0.00 in0.0 mm 0.00 in0.0 mm
06:57 AM 4.5°F-15.3°C 3.3°F-15.9°C 95% 4.0 mph WSW6.4 kmh WSW -- 30.08 in1018.6 mb 0.00 in0.0 mm 0.00 in0.0 mm 0.00 in0.0 mm
06:58 AM 4.5°F-15.3°C 3.3°F-15.9°C 95% 3.0 mph WSW4.8 kmh WSW -- 30.07 in1018.3 mb 0.00 in0.0 mm 0.00 in0.0 mm 0.00 in0.0 mm
06:59 AM 4.5°F-15.3°C 3.3°F-15.9°C 95% 4.0 mph WSW6.4 kmh WSW -- 30.08 in1018.6 mb 0.00 in0.0 mm 0.00 in0.0 mm 0.00 in0.0 mm
07:00 AM 4.3°F-15.4°C 3.2°F-16.0°C 95% 1.0 mph W1.6 kmh W -- 30.07 in1018.3 mb 0.00 in0.0 mm 0.00 in0.0 mm 0.00 in0.0 mm
07:01 AM 4.3°F-15.4°C 3.2°F-16.0°C 95% 4.0 mph W6.4 kmh W -- 30.08 in1018.6 mb 0.00 in0.0 mm 0.00 in0.0 mm 0.00 in0.0 mm
07:02 AM 5.1°F-14.9°C 4.0°F-15.6°C 95% Calm Calm -- 30.07 in1018.3 mb 0.00 in0.0 mm 0.00 in0.0 mm 0.00 in0.0 mm
07:03 AM 5.1°F-14.9°C 4.0°F-15.6°C 95% Calm Calm -- 30.07 in1018.3 mb 0.00 in0.0 mm 0.00 in0.0 mm 0.00 in0.0 mm
07:04 AM 5.1°F-14.9°C 4.0°F-15.6°C 95% 1.0 mph SW1.6 kmh SW -- 30.07 in1018.3 mb 0.00 in0.0 mm 0.00 in0.0 mm 0.00 in0.0 mm
07:05 AM 4.3°F-15.4°C 3.2°F-16.0°C 95% Calm Calm -- 30.07 in1018.3 mb 0.00 in0.0 mm 0.00 in0.0 mm 0.00 in0.0 mm
07:06 AM 5.4°F-14.8°C 4.2°F-15.4°C 95% 3.0 mph SSW4.8 kmh SSW -- 30.07 in1018.3 mb 0.00 in0.0 mm 0.00 in0.0 mm 0.00 in0.0 mm
07:07 AM 5.5°F-14.7°C 4.4°F-15.3°C 95% Calm Calm -- 30.07 in1018.3 mb 0.00 in0.0 mm 0.00 in0.0 mm 0.00 in0.0 mm
07:09 AM 5.5°F-14.7°C 4.4°F-15.3°C 95% Calm Calm -- 30.07 in1018.3 mb 0.00 in0.0 mm 0.00 in0.0 mm 0.00 in0.0 mm
07:10 AM 5.5°F-14.7°C 4.4°F-15.3°C 95% Calm Calm -- 30.07 in1018.3 mb 0.00 in0.0 mm 0.00 in0.0 mm 0.00 in0.0 mm
07:11 AM 5.4°F-14.8°C 4.2°F-15.4°C 95% Calm Calm -- 30.06 in1017.9 mb 0.00 in0.0 mm 0.00 in0.0 mm 0.00 in0.0 mm
07:12 AM 5.4°F-14.8°C 4.2°F-15.4°C 95% 2.0 mph SSW3.2 kmh SSW -- 30.07 in1018.3 mb 0.00 in0.0 mm 0.00 in0.0 mm 0.00 in0.0 mm
07:13 AM 5.5°F-14.7°C 4.4°F-15.3°C 95% Calm Calm -- 30.07 in1018.3 mb 0.00 in0.0 mm 0.00 in0.0 mm 0.00 in0.0 mm
07:14 AM 5.5°F-14.7°C 4.4°F-15.3°C 95% Calm Calm -- 30.07 in1018.3 mb 0.00 in0.0 mm 0.00 in0.0 mm 0.00 in0.0 mm
07:15 AM 5.5°F-14.7°C 4.4°F-15.3°C 95% Calm Calm -- 30.07 in1018.3 mb 0.00 in0.0 mm 0.00 in0.0 mm 0.00 in0.0 mm
07:17 AM 5.5°F-14.7°C 4.4°F-15.3°C 95% Calm Calm -- 30.07 in1018.3 mb 0.00 in0.0 mm 0.00 in0.0 mm 0.00 in0.0 mm
07:18 AM 5.4°F-14.8°C 4.2°F-15.4°C 95% Calm Calm -- 30.07 in1018.3 mb 0.00 in0.0 mm 0.00 in0.0 mm 0.00 in0.0 mm
07:19 AM 5.4°F-14.8°C 4.2°F-15.4°C 95% 2.0 mph ENE3.2 kmh ENE -- 30.07 in1018.3 mb 0.00 in0.0 mm 0.00 in0.0 mm 0.00 in0.0 mm
07:20 AM 5.4°F-14.8°C 4.2°F-15.4°C 95% 3.0 mph ESE4.8 kmh ESE -- 30.07 in1018.3 mb 0.00 in0.0 mm 0.00 in0.0 mm 0.00 in0.0 mm
07:21 AM 5.4°F-14.8°C 4.2°F-15.4°C 95% Calm Calm -- 30.07 in1018.3 mb 0.00 in0.0 mm 0.00 in0.0 mm 0.00 in0.0 mm
07:22 AM 5.4°F-14.8°C 4.2°F-15.4°C 95% 2.0 mph E3.2 kmh E -- 30.07 in1018.3 mb 0.00 in0.0 mm 0.00 in0.0 mm 0.00 in0.0 mm
07:23 AM 5.4°F-14.8°C 4.2°F-15.4°C 95% 2.0 mph NE3.2 kmh NE -- 30.07 in1018.3 mb 0.00 in0.0 mm 0.00 in0.0 mm 0.00 in0.0 mm
07:24 AM 5.4°F-14.8°C 4.2°F-15.4°C 95% 1.0 mph E1.6 kmh E -- 30.07 in1018.3 mb 0.00 in0.0 mm 0.00 in0.0 mm 0.00 in0.0 mm
07:25 AM 5.4°F-14.8°C 4.2°F-15.4°C 95% Calm Calm -- 30.07 in1018.3 mb 0.00 in0.0 mm 0.00 in0.0 mm 0.00 in0.0 mm
07:26 AM 5.4°F-14.8°C 4.2°F-15.4°C 95% 1.0 mph ESE1.6 kmh ESE -- 30.07 in1018.3 mb 0.00 in0.0 mm 0.00 in0.0 mm 0.00 in0.0 mm
07:27 AM 5.5°F-14.7°C 4.4°F-15.3°C 95% 2.0 mph SSE3.2 kmh SSE -- 30.07 in1018.3 mb 0.00 in0.0 mm 0.00 in0.0 mm 0.00 in0.0 mm
07:28 AM 5.5°F-14.7°C 4.4°F-15.3°C 95% 2.0 mph S3.2 kmh S -- 30.07 in1018.3 mb 0.00 in0.0 mm 0.00 in0.0 mm 0.00 in0.0 mm
07:29 AM 5.5°F-14.7°C 4.4°F-15.3°C 95% 1.0 mph WSW1.6 kmh WSW -- 30.07 in1018.3 mb 0.00 in0.0 mm 0.00 in0.0 mm 0.00 in0.0 mm
07:30 AM 5.9°F-14.5°C 4.8°F-15.1°C 95% 3.0 mph SSW4.8 kmh SSW -- 30.07 in1018.3 mb 0.00 in0.0 mm 0.00 in0.0 mm 0.00 in0.0 mm
07:31 AM 5.9°F-14.5°C 4.8°F-15.1°C 95% 1.0 mph S1.6 kmh S -- 30.07 in1018.3 mb 0.00 in0.0 mm 0.00 in0.0 mm 0.00 in0.0 mm
07:32 AM 5.9°F-14.5°C 4.3°F-15.4°C 93% 4.0 mph SW6.4 kmh SW -- 30.07 in1018.3 mb 0.00 in0.0 mm 0.00 in0.0 mm 0.00 in0.0 mm
07:33 AM 5.9°F-14.5°C 4.3°F-15.4°C 93% Calm Calm -- 30.07 in1018.3 mb 0.00 in0.0 mm 0.00 in0.0 mm 0.00 in0.0 mm
07:34 AM 5.9°F-14.5°C 4.3°F-15.4°C 93% Calm Calm -- 30.07 in1018.3 mb 0.00 in0.0 mm 0.00 in0.0 mm 0.00 in0.0 mm
07:35 AM 5.9°F-14.5°C 4.5°F-15.3°C 94% Calm Calm -- 30.07 in1018.3 mb 0.00 in0.0 mm 0.00 in0.0 mm 0.00 in0.0 mm
07:36 AM 5.6°F-14.7°C 3.9°F-15.6°C 93% Calm Calm -- 30.07 in1018.3 mb 0.00 in0.0 mm 0.00 in0.0 mm 0.00 in0.0 mm
07:37 AM 5.6°F-14.7°C 3.9°F-15.6°C 93% 2.0 mph SSE3.2 kmh SSE -- 30.07 in1018.3 mb 0.00 in0.0 mm 0.00 in0.0 mm 0.00 in0.0 mm
07:38 AM 5.6°F-14.7°C 3.9°F-15.6°C 93% 1.0 mph SSE1.6 kmh SSE -- 30.07 in1018.3 mb 0.00 in0.0 mm 0.00 in0.0 mm 0.00 in0.0 mm
07:39 AM 5.6°F-14.7°C 3.9°F-15.6°C 93% 1.0 mph S1.6 kmh S -- 30.06 in1017.9 mb 0.00 in0.0 mm 0.00 in0.0 mm 0.00 in0.0 mm
07:40 AM 5.6°F-14.7°C 3.9°F-15.6°C 93% Calm Calm -- 30.06 in1017.9 mb 0.00 in0.0 mm 0.00 in0.0 mm 0.00 in0.0 mm
07:41 AM 5.5°F-14.7°C 3.9°F-15.6°C 93% 2.0 mph S3.2 kmh S -- 30.06 in1017.9 mb 0.00 in0.0 mm 0.00 in0.0 mm 0.00 in0.0 mm
07:42 AM 5.5°F-14.7°C 3.9°F-15.6°C 93% Calm Calm -- 30.07 in1018.3 mb 0.00 in0.0 mm 0.00 in0.0 mm 0.00 in0.0 mm
07:43 AM 5.6°F-14.7°C 3.9°F-15.6°C 93% 2.0 mph SSE3.2 kmh SSE -- 30.07 in1018.3 mb 0.00 in0.0 mm 0.00 in0.0 mm 0.00 in0.0 mm
07:44 AM 5.9°F-14.5°C 4.3°F-15.4°C 93% 2.0 mph SW3.2 kmh SW -- 30.06 in1017.9 mb 0.00 in0.0 mm 0.00 in0.0 mm 0.00 in0.0 mm
07:45 AM 5.7°F-14.6°C 4.3°F-15.4°C 94% 3.0 mph SW4.8 kmh SW -- 30.07 in1018.3 mb 0.00 in0.0 mm 0.00 in0.0 mm 0.00 in0.0 mm
07:46 AM 5.9°F-14.5°C 4.3°F-15.4°C 93% 4.0 mph SW6.4 kmh SW -- 30.07 in1018.3 mb 0.00 in0.0 mm 0.00 in0.0 mm 0.00 in0.0 mm
07:47 AM 5.9°F-14.5°C 4.3°F-15.4°C 93% 2.0 mph SSW3.2 kmh SSW -- 30.07 in1018.3 mb 0.00 in0.0 mm 0.00 in0.0 mm 0.00 in0.0 mm
07:48 AM 5.9°F-14.5°C 4.3°F-15.4°C 93% 2.0 mph SW3.2 kmh SW -- 30.07 in1018.3 mb 0.00 in0.0 mm 0.00 in0.0 mm 0.00 in0.0 mm
07:49 AM 5.9°F-14.5°C 4.3°F-15.4°C 93% 1.0 mph SW1.6 kmh SW -- 30.07 in1018.3 mb 0.00 in0.0 mm 0.00 in0.0 mm 0.00 in0.0 mm
07:50 AM 5.9°F-14.5°C 4.5°F-15.3°C 94% 1.0 mph ESE1.6 kmh ESE -- 30.06 in1017.9 mb 0.00 in0.0 mm 0.00 in0.0 mm 0.00 in0.0 mm
07:51 AM 6.1°F-14.4°C 4.5°F-15.3°C 93% 2.0 mph SSE3.2 kmh SSE -- 30.06 in1017.9 mb 0.00 in0.0 mm 0.00 in0.0 mm 0.00 in0.0 mm
07:52 AM 6.1°F-14.4°C 4.5°F-15.3°C 93% Calm Calm -- 30.07 in1018.3 mb 0.00 in0.0 mm 0.00 in0.0 mm 0.00 in0.0 mm
07:53 AM 5.6°F-14.7°C 3.9°F-15.6°C 93% 1.0 mph ENE1.6 kmh ENE -- 30.07 in1018.3 mb 0.00 in0.0 mm 0.00 in0.0 mm 0.00 in0.0 mm
07:54 AM 5.6°F-14.7°C 3.9°F-15.6°C 93% Calm Calm -- 30.06 in1017.9 mb 0.00 in0.0 mm 0.00 in0.0 mm 0.00 in0.0 mm
07:55 AM 5.7°F-14.6°C 4.3°F-15.4°C 94% Calm Calm -- 30.06 in1017.9 mb 0.00 in0.0 mm 0.00 in0.0 mm 0.00 in0.0 mm
07:56 AM 5.5°F-14.7°C 3.9°F-15.6°C 93% 2.0 mph NE3.2 kmh NE -- 30.07 in1018.3 mb 0.00 in0.0 mm 0.00 in0.0 mm 0.00 in0.0 mm
07:58 AM 5.5°F-14.7°C 3.9°F-15.6°C 93% 2.0 mph NE3.2 kmh NE -- 30.06 in1017.9 mb 0.00 in0.0 mm 0.00 in0.0 mm 0.00 in0.0 mm
07:59 AM 5.5°F-14.7°C 3.9°F-15.6°C 93% Calm Calm -- 30.07 in1018.3 mb 0.00 in0.0 mm 0.00 in0.0 mm 0.00 in0.0 mm
08:00 AM 5.5°F-14.7°C 4.2°F-15.4°C 94% 2.0 mph NNW3.2 kmh NNW -- 30.07 in1018.3 mb 0.00 in0.0 mm 0.00 in0.0 mm 0.00 in0.0 mm
08:01 AM 5.5°F-14.7°C 3.9°F-15.6°C 93% 2.0 mph NW3.2 kmh NW -- 30.07 in1018.3 mb 0.00 in0.0 mm 0.00 in0.0 mm 0.00 in0.0 mm
08:02 AM 5.5°F-14.7°C 3.9°F-15.6°C 93% Calm Calm -- 30.07 in1018.3 mb 0.00 in0.0 mm 0.00 in0.0 mm 0.00 in0.0 mm
08:03 AM 5.5°F-14.7°C 3.9°F-15.6°C 93% 3.0 mph W4.8 kmh W -- 30.07 in1018.3 mb 0.00 in0.0 mm 0.00 in0.0 mm 0.00 in0.0 mm
08:04 AM 5.6°F-14.7°C 3.9°F-15.6°C 93% 2.0 mph WNW3.2 kmh WNW -- 30.07 in1018.3 mb 0.00 in0.0 mm 0.00 in0.0 mm 0.00 in0.0 mm
08:05 AM 5.7°F-14.6°C 4.3°F-15.4°C 94% Calm Calm -- 30.07 in1018.3 mb 0.00 in0.0 mm 0.00 in0.0 mm 0.00 in0.0 mm
08:06 AM 5.6°F-14.7°C 3.9°F-15.6°C 93% 3.0 mph WSW4.8 kmh WSW -- 30.07 in1018.3 mb 0.00 in0.0 mm 0.00 in0.0 mm 0.00 in0.0 mm
08:07 AM 5.6°F-14.7°C 3.9°F-15.6°C 93% Calm Calm -- 30.07 in1018.3 mb 0.00 in0.0 mm 0.00 in0.0 mm 0.00 in0.0 mm
08:08 AM 5.6°F-14.7°C 3.9°F-15.6°C 93% 2.0 mph 3.2 kmh -- 30.07 in1018.3 mb 0.00 in0.0 mm 0.00 in0.0 mm 0.00 in0.0 mm
08:09 AM 5.6°F-14.7°C 3.9°F-15.6°C 93% Calm Calm -- 30.07 in1018.3 mb 0.00 in0.0 mm 0.00 in0.0 mm 0.00 in0.0 mm
08:10 AM 5.7°F-14.6°C 4.3°F-15.4°C 94% 4.0 mph W6.4 kmh W -- 30.07 in1018.3 mb 0.00 in0.0 mm 0.00 in0.0 mm 0.00 in0.0 mm
08:11 AM 5.6°F-14.7°C 3.9°F-15.6°C 93% 5.0 mph W8.0 kmh W -- 30.07 in1018.3 mb 0.00 in0.0 mm 0.00 in0.0 mm 0.00 in0.0 mm
08:12 AM 5.6°F-14.7°C 3.9°F-15.6°C 93% 2.0 mph W3.2 kmh W -- 30.07 in1018.3 mb 0.00 in0.0 mm 0.00 in0.0 mm 0.00 in0.0 mm
08:13 AM 5.6°F-14.7°C 3.9°F-15.6°C 93% 4.0 mph W6.4 kmh W -- 30.07 in1018.3 mb 0.00 in0.0 mm 0.00 in0.0 mm 0.00 in0.0 mm
08:15 AM 5.7°F-14.6°C 4.3°F-15.4°C 94% 4.0 mph WNW6.4 kmh WNW -- 30.07 in1018.3 mb 0.00 in0.0 mm 0.00 in0.0 mm 0.00 in0.0 mm
08:16 AM 5.6°F-14.7°C 3.9°F-15.6°C 93% 5.0 mph WNW8.0 kmh WNW -- 30.07 in1018.3 mb 0.00 in0.0 mm 0.00 in0.0 mm 0.00 in0.0 mm
08:17 AM 5.6°F-14.7°C 3.9°F-15.6°C 93% 4.0 mph WNW6.4 kmh WNW -- 30.07 in1018.3 mb 0.00 in0.0 mm 0.00 in0.0 mm 0.00 in0.0 mm
08:18 AM 5.6°F-14.7°C 3.9°F-15.6°C 93% 5.0 mph W8.0 kmh W -- 30.07 in1018.3 mb 0.00 in0.0 mm 0.00 in0.0 mm 0.00 in0.0 mm
08:19 AM 5.9°F-14.5°C 4.3°F-15.4°C 93% 6.0 mph W9.7 kmh W -- 30.07 in1018.3 mb 0.00 in0.0 mm 0.00 in0.0 mm 0.00 in0.0 mm
08:20 AM 6.1°F-14.4°C 4.7°F-15.2°C 94% 6.0 mph W9.7 kmh W -- 30.07 in1018.3 mb 0.00 in0.0 mm 0.00 in0.0 mm 0.00 in0.0 mm
08:21 AM 6.1°F-14.4°C 4.5°F-15.3°C 93% 5.0 mph WSW8.0 kmh WSW -- 30.07 in1018.3 mb 0.00 in0.0 mm 0.00 in0.0 mm 0.00 in0.0 mm
08:22 AM 6.1°F-14.4°C 4.5°F-15.3°C 93% 5.0 mph W8.0 kmh W -- 30.08 in1018.6 mb 0.00 in0.0 mm 0.00 in0.0 mm 0.00 in0.0 mm
08:23 AM 6.1°F-14.4°C 4.5°F-15.3°C 93% 4.0 mph WNW6.4 kmh WNW -- 30.07 in1018.3 mb 0.00 in0.0 mm 0.00 in0.0 mm 0.00 in0.0 mm
08:24 AM 6.1°F-14.4°C 4.5°F-15.3°C 93% 6.0 mph W9.7 kmh W -- 30.07 in1018.3 mb 0.00 in0.0 mm 0.00 in0.0 mm 0.00 in0.0 mm
08:25 AM 6.3°F-14.3°C 4.9°F-15.1°C 94% 4.0 mph W6.4 kmh W -- 30.07 in1018.3 mb 0.00 in0.0 mm 0.00 in0.0 mm 0.00 in0.0 mm
08:27 AM 6.3°F-14.3°C 4.6°F-15.2°C 93% 5.0 mph W8.0 kmh W -- 30.07 in1018.3 mb 0.00 in0.0 mm 0.00 in0.0 mm 0.00 in0.0 mm
08:28 AM 6.3°F-14.3°C 4.6°F-15.2°C 93% 5.0 mph W8.0 kmh W -- 30.08 in1018.6 mb 0.00 in0.0 mm 0.00 in0.0 mm 0.00 in0.0 mm
08:30 AM 6.1°F-14.4°C 4.7°F-15.2°C 94% 4.0 mph W6.4 kmh W -- 30.08 in1018.6 mb 0.00 in0.0 mm 0.00 in0.0 mm 0.00 in0.0 mm
08:31 AM 6.1°F-14.4°C 4.5°F-15.3°C 93% 4.0 mph W6.4 kmh W -- 30.07 in1018.3 mb 0.00 in0.0 mm 0.00 in0.0 mm 0.00 in0.0 mm
08:33 AM 6.1°F-14.4°C 4.5°F-15.3°C 93% 5.0 mph WNW8.0 kmh WNW -- 30.08 in1018.6 mb 0.00 in0.0 mm 0.00 in0.0 mm 0.00 in0.0 mm
08:34 AM 6.1°F-14.4°C 4.5°F-15.3°C 93% 5.0 mph W8.0 kmh W -- 30.08 in1018.6 mb 0.00 in0.0 mm 0.00 in0.0 mm 0.00 in0.0 mm
08:35 AM 6.1°F-14.4°C 4.7°F-15.2°C 94% 4.0 mph W6.4 kmh W -- 30.08 in1018.6 mb 0.00 in0.0 mm 0.00 in0.0 mm 0.00 in0.0 mm
08:36 AM 5.9°F-14.5°C 4.3°F-15.4°C 93% 4.0 mph W6.4 kmh W -- 30.08 in1018.6 mb 0.00 in0.0 mm 0.00 in0.0 mm 0.00 in0.0 mm
08:38 AM 5.6°F-14.7°C 3.9°F-15.6°C 93% 4.0 mph W6.4 kmh W -- 30.08 in1018.6 mb 0.00 in0.0 mm 0.00 in0.0 mm 0.00 in0.0 mm
08:39 AM 5.6°F-14.7°C 3.9°F-15.6°C 93% 5.0 mph W8.0 kmh W -- 30.07 in1018.3 mb 0.00 in0.0 mm 0.00 in0.0 mm 0.00 in0.0 mm
08:40 AM 5.7°F-14.6°C 4.1°F-15.5°C 93% 4.0 mph W6.4 kmh W -- 30.08 in1018.6 mb 0.00 in0.0 mm 0.00 in0.0 mm 0.00 in0.0 mm
08:41 AM 5.6°F-14.7°C 3.9°F-15.6°C 93% 4.0 mph W6.4 kmh W -- 30.08 in1018.6 mb 0.00 in0.0 mm 0.00 in0.0 mm 0.00 in0.0 mm
08:44 AM 5.5°F-14.7°C 3.9°F-15.6°C 93% 5.0 mph W8.0 kmh W -- 30.08 in1018.6 mb 0.00 in0.0 mm 0.00 in0.0 mm 0.00 in0.0 mm
08:45 AM 5.5°F-14.7°C 3.9°F-15.6°C 93% 5.0 mph W8.0 kmh W -- 30.07 in1018.3 mb 0.00 in0.0 mm 0.00 in0.0 mm 0.00 in0.0 mm
08:48 AM 5.5°F-14.7°C 3.9°F-15.6°C 93% 4.0 mph W6.4 kmh W -- 30.07 in1018.3 mb 0.00 in0.0 mm 0.00 in0.0 mm 0.00 in0.0 mm
08:49 AM 5.5°F-14.7°C 3.9°F-15.6°C 93% 6.0 mph WNW9.7 kmh WNW -- 30.07 in1018.3 mb 0.00 in0.0 mm 0.00 in0.0 mm 0.00 in0.0 mm
08:50 AM 5.5°F-14.7°C 3.9°F-15.6°C 93% 5.0 mph W8.0 kmh W -- 30.07 in1018.3 mb 0.00 in0.0 mm 0.00 in0.0 mm 0.00 in0.0 mm
08:51 AM 5.5°F-14.7°C 3.9°F-15.6°C 93% 4.0 mph WSW6.4 kmh WSW -- 30.08 in1018.6 mb 0.00 in0.0 mm 0.00 in0.0 mm 0.00 in0.0 mm
08:52 AM 5.5°F-14.7°C 3.9°F-15.6°C 93% 4.0 mph NW6.4 kmh NW -- 30.07 in1018.3 mb 0.00 in0.0 mm 0.00 in0.0 mm 0.00 in0.0 mm
08:53 AM 5.5°F-14.7°C 3.9°F-15.6°C 93% 5.0 mph W8.0 kmh W -- 30.07 in1018.3 mb 0.00 in0.0 mm 0.00 in0.0 mm 0.00 in0.0 mm
08:54 AM 5.6°F-14.7°C 3.9°F-15.6°C 93% 6.0 mph W9.7 kmh W -- 30.08 in1018.6 mb 0.00 in0.0 mm 0.00 in0.0 mm 0.00 in0.0 mm
08:55 AM 5.7°F-14.6°C 4.1°F-15.5°C 93% 4.0 mph W6.4 kmh W -- 30.08 in1018.6 mb 0.00 in0.0 mm 0.00 in0.0 mm 0.00 in0.0 mm
08:56 AM 5.9°F-14.5°C 4.3°F-15.4°C 93% 5.0 mph W8.0 kmh W -- 30.08 in1018.6 mb 0.00 in0.0 mm 0.00 in0.0 mm 0.00 in0.0 mm
08:57 AM 5.9°F-14.5°C 4.3°F-15.4°C 93% 6.0 mph W9.7 kmh W -- 30.08 in1018.6 mb 0.00 in0.0 mm 0.00 in0.0 mm 0.00 in0.0 mm
08:58 AM 5.9°F-14.5°C 4.3°F-15.4°C 93% 5.0 mph W8.0 kmh W -- 30.08 in1018.6 mb 0.00 in0.0 mm 0.00 in0.0 mm 0.00 in0.0 mm
08:59 AM 6.1°F-14.4°C 4.5°F-15.3°C 93% 6.0 mph W9.7 kmh W -- 30.08 in1018.6 mb 0.00 in0.0 mm 0.00 in0.0 mm 0.00 in0.0 mm
09:01 AM 6.3°F-14.3°C 4.6°F-15.2°C 93% 5.0 mph W8.0 kmh W -- 30.08 in1018.6 mb 0.00 in0.0 mm 0.00 in0.0 mm 0.00 in0.0 mm
09:02 AM 6.3°F-14.3°C 4.6°F-15.2°C 93% 6.0 mph W9.7 kmh W -- 30.08 in1018.6 mb 0.00 in0.0 mm 0.00 in0.0 mm 0.00 in0.0 mm
09:04 AM 6.3°F-14.3°C 4.6°F-15.2°C 93% 5.0 mph W8.0 kmh W -- 30.08 in1018.6 mb 0.00 in0.0 mm 0.00 in0.0 mm 0.00 in0.0 mm
09:07 AM 6.3°F-14.3°C 4.6°F-15.2°C 93% 6.0 mph W9.7 kmh W -- 30.08 in1018.6 mb 0.00 in0.0 mm 0.00 in0.0 mm 0.00 in0.0 mm
09:08 AM 6.3°F-14.3°C 4.6°F-15.2°C 93% 5.0 mph W8.0 kmh W -- 30.08 in1018.6 mb 0.00 in0.0 mm 0.00 in0.0 mm 0.00 in0.0 mm
09:10 AM 6.3°F-14.3°C 4.6°F-15.2°C 93% 4.0 mph W6.4 kmh W -- 30.08 in1018.6 mb 0.00 in0.0 mm 0.00 in0.0 mm 0.00 in0.0 mm
09:11 AM 6.3°F-14.3°C 4.6°F-15.2°C 93% 5.0 mph WNW8.0 kmh WNW -- 30.08 in1018.6 mb 0.00 in0.0 mm 0.00 in0.0 mm 0.00 in0.0 mm
09:12 AM 6.3°F-14.3°C 4.6°F-15.2°C 93% 5.0 mph W8.0 kmh W -- 30.08 in1018.6 mb 0.00 in0.0 mm 0.00 in0.0 mm 0.00 in0.0 mm
09:13 AM 6.3°F-14.3°C 4.6°F-15.2°C 93% 5.0 mph WNW8.0 kmh WNW -- 30.08 in1018.6 mb 0.00 in0.0 mm 0.00 in0.0 mm 0.00 in0.0 mm
09:14 AM 6.3°F-14.3°C 4.2°F-15.4°C 91% 4.0 mph WNW6.4 kmh WNW -- 30.08 in1018.6 mb 0.00 in0.0 mm 0.00 in0.0 mm 0.00 in0.0 mm
09:15 AM 6.6°F-14.1°C 4.8°F-15.1°C 92% 5.0 mph WSW8.0 kmh WSW -- 30.08 in1018.6 mb 0.00 in0.0 mm 0.00 in0.0 mm 0.00 in0.0 mm
09:16 AM 6.5°F-14.2°C 4.3°F-15.4°C 91% 5.0 mph W8.0 kmh W -- 30.08 in1018.6 mb 0.00 in0.0 mm 0.00 in0.0 mm 0.00 in0.0 mm
09:17 AM 6.8°F-14.0°C 4.7°F-15.2°C 91% 5.0 mph W8.0 kmh W -- 30.08 in1018.6 mb 0.00 in0.0 mm 0.00 in0.0 mm 0.00 in0.0 mm
09:18 AM 7.0°F-13.9°C 4.9°F-15.1°C 91% 4.0 mph W6.4 kmh W -- 30.08 in1018.6 mb 0.00 in0.0 mm 0.00 in0.0 mm 0.00 in0.0 mm
09:20 AM 7.2°F-13.8°C 5.1°F-14.9°C 91% 5.0 mph W8.0 kmh W -- 30.08 in1018.6 mb 0.00 in0.0 mm 0.00 in0.0 mm 0.00 in0.0 mm
09:21 AM 7.3°F-13.7°C 5.2°F-14.9°C 91% 4.0 mph WNW6.4 kmh WNW -- 30.08 in1018.6 mb 0.00 in0.0 mm 0.00 in0.0 mm 0.00 in0.0 mm
09:22 AM 7.3°F-13.7°C 5.2°F-14.9°C 91% 5.0 mph WSW8.0 kmh WSW -- 30.08 in1018.6 mb 0.00 in0.0 mm 0.00 in0.0 mm 0.00 in0.0 mm
09:23 AM 7.5°F-13.6°C 5.4°F-14.8°C 91% 5.0 mph W8.0 kmh W -- 30.08 in1018.6 mb 0.00 in0.0 mm 0.00 in0.0 mm 0.00 in0.0 mm
09:24 AM 7.9°F-13.4°C 5.8°F-14.6°C 91% 4.0 mph SW6.4 kmh SW -- 30.08 in1018.6 mb 0.00 in0.0 mm 0.00 in0.0 mm 0.00 in0.0 mm
09:25 AM 7.9°F-13.4°C 5.8°F-14.6°C 91% 5.0 mph W8.0 kmh W -- 30.08 in1018.6 mb 0.00 in0.0 mm 0.00 in0.0 mm 0.00 in0.0 mm
09:26 AM 8.1°F-13.3°C 5.9°F-14.5°C 91% 4.0 mph W6.4 kmh W -- 30.08 in1018.6 mb 0.00 in0.0 mm 0.00 in0.0 mm 0.00 in0.0 mm
09:27 AM 8.1°F-13.3°C 5.9°F-14.5°C 91% 5.0 mph W8.0 kmh W -- 30.08 in1018.6 mb 0.00 in0.0 mm 0.00 in0.0 mm 0.00 in0.0 mm
09:28 AM 8.1°F-13.3°C 5.7°F-14.6°C 90% 4.0 mph W6.4 kmh W -- 30.08 in1018.6 mb 0.00 in0.0 mm 0.00 in0.0 mm 0.00 in0.0 mm
09:29 AM 8.3°F-13.2°C 5.9°F-14.5°C 90% 5.0 mph W8.0 kmh W -- 30.08 in1018.6 mb 0.00 in0.0 mm 0.00 in0.0 mm 0.00 in0.0 mm
09:30 AM 8.4°F-13.1°C 6.1°F-14.4°C 90% 5.0 mph W8.0 kmh W -- 30.08 in1018.6 mb 0.00 in0.0 mm 0.00 in0.0 mm 0.00 in0.0 mm
09:31 AM 8.6°F-13.0°C 6.2°F-14.3°C 90% 4.0 mph W6.4 kmh W -- 30.08 in1018.6 mb 0.00 in0.0 mm 0.00 in0.0 mm 0.00 in0.0 mm
09:32 AM 8.6°F-13.0°C 6.2°F-14.3°C 90% 6.0 mph W9.7 kmh W -- 30.08 in1018.6 mb 0.00 in0.0 mm 0.00 in0.0 mm 0.00 in0.0 mm
09:33 AM 8.6°F-13.0°C 6.2°F-14.3°C 90% 5.0 mph W8.0 kmh W -- 30.08 in1018.6 mb 0.00 in0.0 mm 0.00 in0.0 mm 0.00 in0.0 mm
09:34 AM 8.6°F-13.0°C 5.7°F-14.6°C 88% 5.0 mph W8.0 kmh W -- 30.09 in1019.0 mb 0.00 in0.0 mm 0.00 in0.0 mm 0.00 in0.0 mm
09:35 AM 8.8°F-12.9°C 6.2°F-14.3°C 89% 6.0 mph W9.7 kmh W -- 30.09 in1019.0 mb 0.00 in0.0 mm 0.00 in0.0 mm 0.00 in0.0 mm
09:36 AM 9.0°F-12.8°C 6.1°F-14.4°C 88% 5.0 mph W8.0 kmh W -- 30.08 in1018.6 mb 0.00 in0.0 mm 0.00 in0.0 mm 0.00 in0.0 mm
09:37 AM 9.0°F-12.8°C 6.1°F-14.4°C 88% 4.0 mph W6.4 kmh W -- 30.08 in1018.6 mb 0.00 in0.0 mm 0.00 in0.0 mm 0.00 in0.0 mm
09:38 AM 9.0°F-12.8°C 6.1°F-14.4°C 88% 5.0 mph W8.0 kmh W -- 30.08 in1018.6 mb 0.00 in0.0 mm 0.00 in0.0 mm 0.00 in0.0 mm
09:39 AM 9.0°F-12.8°C 6.1°F-14.4°C 88% 3.0 mph W4.8 kmh W -- 30.08 in1018.6 mb 0.00 in0.0 mm 0.00 in0.0 mm 0.00 in0.0 mm
09:40 AM 9.0°F-12.8°C 6.3°F-14.3°C 89% 4.0 mph W6.4 kmh W -- 30.08 in1018.6 mb 0.00 in0.0 mm 0.00 in0.0 mm 0.00 in0.0 mm
09:41 AM 9.0°F-12.8°C 6.1°F-14.4°C 88% 3.0 mph W4.8 kmh W -- 30.08 in1018.6 mb 0.00 in0.0 mm 0.00 in0.0 mm 0.00 in0.0 mm
09:42 AM 9.1°F-12.7°C 6.3°F-14.3°C 88% 4.0 mph W6.4 kmh W -- 30.08 in1018.6 mb 0.00 in0.0 mm 0.00 in0.0 mm 0.00 in0.0 mm
09:43 AM 9.3°F-12.6°C 6.4°F-14.2°C 88% 4.0 mph W6.4 kmh W -- 30.08 in1018.6 mb 0.00 in0.0 mm 0.00 in0.0 mm 0.00 in0.0 mm
09:44 AM 9.3°F-12.6°C 6.4°F-14.2°C 88% 3.0 mph WNW4.8 kmh WNW -- 30.08 in1018.6 mb 0.00 in0.0 mm 0.00 in0.0 mm 0.00 in0.0 mm
09:45 AM 9.1°F-12.7°C 6.3°F-14.3°C 88% 3.0 mph W4.8 kmh W -- 30.08 in1018.6 mb 0.00 in0.0 mm 0.00 in0.0 mm 0.00 in0.0 mm
09:47 AM 9.1°F-12.7°C 6.3°F-14.3°C 88% 5.0 mph W8.0 kmh W -- 30.08 in1018.6 mb 0.00 in0.0 mm 0.00 in0.0 mm 0.00 in0.0 mm
09:49 AM 9.1°F-12.7°C 6.3°F-14.3°C 88% 3.0 mph W4.8 kmh W -- 30.08 in1018.6 mb 0.00 in0.0 mm 0.00 in0.0 mm 0.00 in0.0 mm
09:51 AM 9.1°F-12.7°C 6.3°F-14.3°C 88% 2.0 mph W3.2 kmh W -- 30.09 in1019.0 mb 0.00 in0.0 mm 0.00 in0.0 mm 0.00 in0.0 mm
09:53 AM 9.1°F-12.7°C 6.3°F-14.3°C 88% 3.0 mph W4.8 kmh W -- 30.09 in1019.0 mb 0.00 in0.0 mm 0.00 in0.0 mm 0.00 in0.0 mm
09:55 AM 9.3°F-12.6°C 6.4°F-14.2°C 88% 4.0 mph W6.4 kmh W -- 30.09 in1019.0 mb 0.00 in0.0 mm 0.00 in0.0 mm 0.00 in0.0 mm
09:56 AM 9.5°F-12.5°C 6.6°F-14.1°C 88% 4.0 mph W6.4 kmh W -- 30.09 in1019.0 mb 0.00 in0.0 mm 0.00 in0.0 mm 0.00 in0.0 mm
09:57 AM 9.6°F-12.4°C 6.3°F-14.3°C 86% 4.0 mph W6.4 kmh W -- 30.09 in1019.0 mb 0.00 in0.0 mm 0.00 in0.0 mm 0.00 in0.0 mm
09:58 AM 9.6°F-12.4°C 6.3°F-14.3°C 86% 5.0 mph W8.0 kmh W -- 30.09 in1019.0 mb 0.00 in0.0 mm 0.00 in0.0 mm 0.00 in0.0 mm
09:59 AM 9.6°F-12.4°C 6.3°F-14.3°C 86% 4.0 mph W6.4 kmh W -- 30.08 in1018.6 mb 0.00 in0.0 mm 0.00 in0.0 mm 0.00 in0.0 mm
10:00 AM 9.7°F-12.4°C 6.5°F-14.2°C 87% 3.0 mph W4.8 kmh W -- 30.08 in1018.6 mb 0.00 in0.0 mm 0.00 in0.0 mm 0.00 in0.0 mm
10:01 AM 9.6°F-12.4°C 6.3°F-14.3°C 86% 3.0 mph W4.8 kmh W -- 30.08 in1018.6 mb 0.00 in0.0 mm 0.00 in0.0 mm 0.00 in0.0 mm
10:03 AM 9.6°F-12.4°C 6.3°F-14.3°C 86% 3.0 mph W4.8 kmh W -- 30.09 in1019.0 mb 0.00 in0.0 mm 0.00 in0.0 mm 0.00 in0.0 mm
10:04 AM 9.6°F-12.4°C 6.3°F-14.3°C 86% 4.0 mph W6.4 kmh W -- 30.09 in1019.0 mb 0.00 in0.0 mm 0.00 in0.0 mm 0.00 in0.0 mm
10:05 AM 9.9°F-12.3°C 6.7°F-14.1°C 87% 3.0 mph W4.8 kmh W -- 30.09 in1019.0 mb 0.00 in0.0 mm 0.00 in0.0 mm 0.00 in0.0 mm
10:06 AM 9.8°F-12.3°C 6.5°F-14.2°C 86% 3.0 mph WNW4.8 kmh WNW -- 30.08 in1018.6 mb 0.00 in0.0 mm 0.00 in0.0 mm 0.00 in0.0 mm
10:07 AM 9.8°F-12.3°C 6.5°F-14.2°C 86% 2.0 mph W3.2 kmh W -- 30.08 in1018.6 mb 0.00 in0.0 mm 0.00 in0.0 mm 0.00 in0.0 mm
10:08 AM 9.8°F-12.3°C 6.5°F-14.2°C 86% 2.0 mph W3.2 kmh W -- 30.09 in1019.0 mb 0.00 in0.0 mm 0.00 in0.0 mm 0.00 in0.0 mm
10:09 AM 9.8°F-12.3°C 6.5°F-14.2°C 86% 3.0 mph W4.8 kmh W -- 30.08 in1018.6 mb 0.00 in0.0 mm 0.00 in0.0 mm 0.00 in0.0 mm
10:10 AM 9.9°F-12.3°C 6.5°F-14.2°C 86% 1.0 mph W1.6 kmh W -- 30.09 in1019.0 mb 0.00 in0.0 mm 0.00 in0.0 mm 0.00 in0.0 mm
10:11 AM 9.8°F-12.3°C 6.5°F-14.2°C 86% 2.0 mph W3.2 kmh W -- 30.09 in1019.0 mb 0.00 in0.0 mm 0.00 in0.0 mm 0.00 in0.0 mm
10:12 AM 10.0°F-12.2°C 6.6°F-14.1°C 86% 3.0 mph W4.8 kmh W -- 30.09 in1019.0 mb 0.00 in0.0 mm 0.00 in0.0 mm 0.00 in0.0 mm
10:13 AM 10.3°F-12.1°C 6.8°F-14.0°C 86% 4.0 mph W6.4 kmh W -- 30.09 in1019.0 mb 0.00 in0.0 mm 0.00 in0.0 mm 0.00 in0.0 mm
10:14 AM 10.3°F-12.1°C 6.8°F-14.0°C 86% 3.0 mph W4.8 kmh W -- 30.09 in1019.0 mb 0.00 in0.0 mm 0.00 in0.0 mm 0.00 in0.0 mm
10:15 AM 10.4°F-12.0°C 6.7°F-14.1°C 85% 3.0 mph W4.8 kmh W -- 30.09 in1019.0 mb 0.00 in0.0 mm 0.00 in0.0 mm 0.00 in0.0 mm
10:16 AM 10.6°F-11.9°C 6.9°F-13.9°C 85% 4.0 mph W6.4 kmh W -- 30.09 in1019.0 mb 0.00 in0.0 mm 0.00 in0.0 mm 0.00 in0.0 mm
10:17 AM 10.6°F-11.9°C 6.9°F-13.9°C 85% 3.0 mph W4.8 kmh W -- 30.09 in1019.0 mb 0.00 in0.0 mm 0.00 in0.0 mm 0.00 in0.0 mm
10:18 AM 10.3°F-12.1°C 6.6°F-14.1°C 85% 3.0 mph WSW4.8 kmh WSW -- 30.09 in1019.0 mb 0.00 in0.0 mm 0.00 in0.0 mm 0.00 in0.0 mm
10:19 AM 10.3°F-12.1°C 6.6°F-14.1°C 85% 4.0 mph W6.4 kmh W -- 30.09 in1019.0 mb 0.00 in0.0 mm 0.00 in0.0 mm 0.00 in0.0 mm
10:20 AM 10.6°F-11.9°C 6.9°F-13.9°C 85% 3.0 mph W4.8 kmh W -- 30.09 in1019.0 mb 0.00 in0.0 mm 0.00 in0.0 mm 0.00 in0.0 mm
10:21 AM 10.8°F-11.8°C 7.1°F-13.8°C 85% 2.0 mph W3.2 kmh W -- 30.09 in1019.0 mb 0.00 in0.0 mm 0.00 in0.0 mm 0.00 in0.0 mm
10:22 AM 10.8°F-11.8°C 7.1°F-13.8°C 85% 3.0 mph W4.8 kmh W -- 30.09 in1019.0 mb 0.00 in0.0 mm 0.00 in0.0 mm 0.00 in0.0 mm
10:23 AM 10.8°F-11.8°C 6.6°F-14.1°C 83% 4.0 mph W6.4 kmh W -- 30.09 in1019.0 mb 0.00 in0.0 mm 0.00 in0.0 mm 0.00 in0.0 mm
10:24 AM 10.8°F-11.8°C 6.6°F-14.1°C 83% 2.0 mph WSW3.2 kmh WSW -- 30.09 in1019.0 mb 0.00 in0.0 mm 0.00 in0.0 mm 0.00 in0.0 mm
10:25 AM 10.8°F-11.8°C 6.8°F-14.0°C 84% 3.0 mph W4.8 kmh W -- 30.08 in1018.6 mb 0.00 in0.0 mm 0.00 in0.0 mm 0.00 in0.0 mm
10:26 AM 10.8°F-11.8°C 6.6°F-14.1°C 83% 3.0 mph W4.8 kmh W -- 30.08 in1018.6 mb 0.00 in0.0 mm 0.00 in0.0 mm 0.00 in0.0 mm
10:27 AM 10.8°F-11.8°C 6.6°F-14.1°C 83% 2.0 mph W3.2 kmh W -- 30.09 in1019.0 mb 0.00 in0.0 mm 0.00 in0.0 mm 0.00 in0.0 mm
10:28 AM 10.8°F-11.8°C 6.6°F-14.1°C 83% 4.0 mph W6.4 kmh W -- 30.09 in1019.0 mb 0.00 in0.0 mm 0.00 in0.0 mm 0.00 in0.0 mm
10:29 AM 11.1°F-11.6°C 6.9°F-13.9°C 83% 3.0 mph WSW4.8 kmh WSW -- 30.09 in1019.0 mb 0.00 in0.0 mm 0.00 in0.0 mm 0.00 in0.0 mm
10:30 AM 11.1°F-11.6°C 7.2°F-13.8°C 84% 3.0 mph WNW4.8 kmh WNW -- 30.09 in1019.0 mb 0.00 in0.0 mm 0.00 in0.0 mm 0.00 in0.0 mm
10:31 AM 11.1°F-11.6°C 7.2°F-13.8°C 84% 4.0 mph W6.4 kmh W -- 30.09 in1019.0 mb 0.00 in0.0 mm 0.00 in0.0 mm 0.00 in0.0 mm
10:32 AM 11.2°F-11.6°C 6.9°F-13.9°C 83% 4.0 mph W6.4 kmh W -- 30.09 in1019.0 mb 0.00 in0.0 mm 0.00 in0.0 mm 0.00 in0.0 mm
10:33 AM 11.2°F-11.6°C 6.9°F-13.9°C 83% 4.0 mph W6.4 kmh W -- 30.08 in1018.6 mb 0.00 in0.0 mm 0.00 in0.0 mm 0.00 in0.0 mm
10:34 AM 11.4°F-11.4°C 7.3°F-13.7°C 83% 4.0 mph W6.4 kmh W -- 30.09 in1019.0 mb 0.00 in0.0 mm 0.00 in0.0 mm 0.00 in0.0 mm
10:35 AM 11.5°F-11.4°C 7.3°F-13.7°C 83% 5.0 mph W8.0 kmh W -- 30.09 in1019.0 mb 0.00 in0.0 mm 0.00 in0.0 mm 0.00 in0.0 mm
10:36 AM 11.5°F-11.4°C 7.3°F-13.7°C 83% 3.0 mph W4.8 kmh W -- 30.09 in1019.0 mb 0.00 in0.0 mm 0.00 in0.0 mm 0.00 in0.0 mm
10:37 AM 11.4°F-11.4°C 7.3°F-13.7°C 83% 4.0 mph WNW6.4 kmh WNW -- 30.09 in1019.0 mb 0.00 in0.0 mm 0.00 in0.0 mm 0.00 in0.0 mm
10:40 AM 11.5°F-11.4°C 7.3°F-13.7°C 83% 5.0 mph W8.0 kmh W -- 30.09 in1019.0 mb 0.00 in0.0 mm 0.00 in0.0 mm 0.00 in0.0 mm
10:41 AM 11.5°F-11.4°C 7.3°F-13.7°C 83% 4.0 mph W6.4 kmh W -- 30.08 in1018.6 mb 0.00 in0.0 mm 0.00 in0.0 mm 0.00 in0.0 mm
10:42 AM 11.8°F-11.2°C 7.6°F-13.6°C 83% 5.0 mph W8.0 kmh W -- 30.08 in1018.6 mb 0.00 in0.0 mm 0.00 in0.0 mm 0.00 in0.0 mm
10:43 AM 11.8°F-11.2°C 7.1°F-13.8°C 81% 4.0 mph W6.4 kmh W -- 30.08 in1018.6 mb 0.00 in0.0 mm 0.00 in0.0 mm 0.00 in0.0 mm
10:44 AM 12.0°F-11.1°C 7.2°F-13.8°C 81% 6.0 mph W9.7 kmh W -- 30.08 in1018.6 mb 0.00 in0.0 mm 0.00 in0.0 mm 0.00 in0.0 mm
10:45 AM 12.0°F-11.1°C 7.5°F-13.6°C 82% 3.0 mph W4.8 kmh W -- 30.08 in1018.6 mb 0.00 in0.0 mm 0.00 in0.0 mm 0.00 in0.0 mm
10:46 AM 12.0°F-11.1°C 7.2°F-13.8°C 81% 5.0 mph W8.0 kmh W -- 30.08 in1018.6 mb 0.00 in0.0 mm 0.00 in0.0 mm 0.00 in0.0 mm
10:47 AM 12.2°F-11.0°C 7.4°F-13.7°C 81% 4.0 mph W6.4 kmh W -- 30.08 in1018.6 mb 0.00 in0.0 mm 0.00 in0.0 mm 0.00 in0.0 mm
10:48 AM 12.2°F-11.0°C 7.4°F-13.7°C 81% 5.0 mph W8.0 kmh W -- 30.08 in1018.6 mb 0.00 in0.0 mm 0.00 in0.0 mm 0.00 in0.0 mm
10:49 AM 12.4°F-10.9°C 7.6°F-13.6°C 81% 6.0 mph SW9.7 kmh SW -- 30.08 in1018.6 mb 0.00 in0.0 mm 0.00 in0.0 mm 0.00 in0.0 mm
10:50 AM 12.4°F-10.9°C 7.9°F-13.4°C 82% 5.0 mph W8.0 kmh W -- 30.09 in1019.0 mb 0.00 in0.0 mm 0.00 in0.0 mm 0.00 in0.0 mm
10:51 AM 12.5°F-10.8°C 7.8°F-13.4°C 81% 6.0 mph W9.7 kmh W -- 30.09 in1019.0 mb 0.00 in0.0 mm 0.00 in0.0 mm 0.00 in0.0 mm
10:52 AM 12.5°F-10.8°C 7.8°F-13.4°C 81% 6.0 mph W9.7 kmh W -- 30.08 in1018.6 mb 0.00 in0.0 mm 0.00 in0.0 mm 0.00 in0.0 mm
10:53 AM 12.6°F-10.8°C 7.8°F-13.4°C 81% 5.0 mph W8.0 kmh W -- 30.09 in1019.0 mb 0.00 in0.0 mm 0.00 in0.0 mm 0.00 in0.0 mm
10:54 AM 12.6°F-10.8°C 7.8°F-13.4°C 81% 8.0 mph W12.9 kmh W -- 30.08 in1018.6 mb 0.00 in0.0 mm 0.00 in0.0 mm 0.00 in0.0 mm
10:55 AM 12.7°F-10.7°C 8.2°F-13.2°C 82% 6.0 mph W9.7 kmh W -- 30.08 in1018.6 mb 0.00 in0.0 mm 0.00 in0.0 mm 0.00 in0.0 mm
10:56 AM 12.6°F-10.8°C 7.8°F-13.4°C 81% 6.0 mph W9.7 kmh W -- 30.08 in1018.6 mb 0.00 in0.0 mm 0.00 in0.0 mm 0.00 in0.0 mm
10:57 AM 12.6°F-10.8°C 7.8°F-13.4°C 81% 6.0 mph W9.7 kmh W -- 30.09 in1019.0 mb 0.00 in0.0 mm 0.00 in0.0 mm 0.00 in0.0 mm
10:58 AM 12.8°F-10.7°C 7.9°F-13.4°C 81% 5.0 mph W8.0 kmh W -- 30.09 in1019.0 mb 0.00 in0.0 mm 0.00 in0.0 mm 0.00 in0.0 mm
10:59 AM 12.8°F-10.7°C 7.9°F-13.4°C 81% 6.0 mph W9.7 kmh W -- 30.09 in1019.0 mb 0.00 in0.0 mm 0.00 in0.0 mm 0.00 in0.0 mm
11:00 AM 12.9°F-10.6°C 8.1°F-13.3°C 81% 5.0 mph W8.0 kmh W -- 30.08 in1018.6 mb 0.00 in0.0 mm 0.00 in0.0 mm 0.00 in0.0 mm
11:01 AM 12.9°F-10.6°C 8.1°F-13.3°C 81% 5.0 mph W8.0 kmh W -- 30.09 in1019.0 mb 0.00 in0.0 mm 0.00 in0.0 mm 0.00 in0.0 mm
11:02 AM 12.6°F-10.8°C 7.8°F-13.4°C 81% 6.0 mph W9.7 kmh W -- 30.09 in1019.0 mb 0.00 in0.0 mm 0.00 in0.0 mm 0.00 in0.0 mm
11:03 AM 12.6°F-10.8°C 7.8°F-13.4°C 81% 5.0 mph W8.0 kmh W -- 30.09 in1019.0 mb 0.00 in0.0 mm 0.00 in0.0 mm 0.00 in0.0 mm
11:04 AM 12.6°F-10.8°C 7.8°F-13.4°C 81% 7.0 mph W11.3 kmh W -- 30.08 in1018.6 mb 0.00 in0.0 mm 0.00 in0.0 mm 0.00 in0.0 mm
11:05 AM 12.7°F-10.7°C 7.9°F-13.4°C 81% 6.0 mph W9.7 kmh W -- 30.08 in1018.6 mb 0.00 in0.0 mm 0.00 in0.0 mm 0.00 in0.0 mm
11:06 AM 12.6°F-10.8°C 7.8°F-13.4°C 81% 5.0 mph W8.0 kmh W -- 30.08 in1018.6 mb 0.00 in0.0 mm 0.00 in0.0 mm 0.00 in0.0 mm
11:07 AM 12.6°F-10.8°C 7.8°F-13.4°C 81% 5.0 mph W8.0 kmh W -- 30.09 in1019.0 mb 0.00 in0.0 mm 0.00 in0.0 mm 0.00 in0.0 mm
11:09 AM 12.8°F-10.7°C 7.9°F-13.4°C 81% 4.0 mph W6.4 kmh W -- 30.09 in1019.0 mb 0.00 in0.0 mm 0.00 in0.0 mm 0.00 in0.0 mm
11:10 AM 12.9°F-10.6°C 8.1°F-13.3°C 81% 4.0 mph W6.4 kmh W -- 30.08 in1018.6 mb 0.00 in0.0 mm 0.00 in0.0 mm 0.00 in0.0 mm
11:11 AM 12.8°F-10.7°C 7.9°F-13.4°C 81% 4.0 mph W6.4 kmh W -- 30.09 in1019.0 mb 0.00 in0.0 mm 0.00 in0.0 mm 0.00 in0.0 mm
11:13 AM 12.8°F-10.7°C 7.9°F-13.4°C 81% 5.0 mph W8.0 kmh W -- 30.09 in1019.0 mb 0.00 in0.0 mm 0.00 in0.0 mm 0.00 in0.0 mm
11:22 AM 13.6°F-10.2°C 8.5°F-13.1°C 80% 5.0 mph W8.0 kmh W -- 30.09 in1019.0 mb 0.00 in0.0 mm 0.00 in0.0 mm 0.00 in0.0 mm
11:23 AM 14.1°F-9.9°C 9.1°F-12.7°C 80% 7.0 mph WSW11.3 kmh WSW -- 30.08 in1018.6 mb 0.00 in0.0 mm 0.00 in0.0 mm 0.00 in0.0 mm
11:24 AM 14.1°F-9.9°C 8.8°F-12.9°C 79% 7.0 mph WSW11.3 kmh WSW -- 30.08 in1018.6 mb 0.00 in0.0 mm 0.00 in0.0 mm 0.00 in0.0 mm
11:25 AM 14.2°F-9.9°C 8.8°F-12.9°C 79% 5.0 mph W8.0 kmh W -- 30.08 in1018.6 mb 0.00 in0.0 mm 0.00 in0.0 mm 0.00 in0.0 mm
11:26 AM 14.1°F-9.9°C 8.8°F-12.9°C 79% 6.0 mph W9.7 kmh W -- 30.08 in1018.6 mb 0.00 in0.0 mm 0.00 in0.0 mm 0.00 in0.0 mm
11:27 AM 14.1°F-9.9°C 8.8°F-12.9°C 79% 7.0 mph WNW11.3 kmh WNW -- 30.08 in1018.6 mb 0.00 in0.0 mm 0.00 in0.0 mm 0.00 in0.0 mm
11:28 AM 14.3°F-9.8°C 9.0°F-12.8°C 79% 8.0 mph W12.9 kmh W -- 30.08 in1018.6 mb 0.00 in0.0 mm 0.00 in0.0 mm 0.00 in0.0 mm
11:29 AM 14.3°F-9.8°C 9.0°F-12.8°C 79% 5.0 mph W8.0 kmh W -- 30.08 in1018.6 mb 0.00 in0.0 mm 0.00 in0.0 mm 0.00 in0.0 mm
11:30 AM 14.4°F-9.8°C 9.0°F-12.8°C 79% 6.0 mph W9.7 kmh W -- 30.08 in1018.6 mb 0.00 in0.0 mm 0.00 in0.0 mm 0.00 in0.0 mm
11:31 AM 14.3°F-9.8°C 9.0°F-12.8°C 79% 8.0 mph W12.9 kmh W -- 30.08 in1018.6 mb 0.00 in0.0 mm 0.00 in0.0 mm 0.00 in0.0 mm
11:32 AM 14.3°F-9.8°C 9.0°F-12.8°C 79% 6.0 mph W9.7 kmh W -- 30.08 in1018.6 mb 0.00 in0.0 mm 0.00 in0.0 mm 0.00 in0.0 mm
11:33 AM 14.3°F-9.8°C 9.0°F-12.8°C 79% 7.0 mph W11.3 kmh W -- 30.08 in1018.6 mb 0.00 in0.0 mm 0.00 in0.0 mm 0.00 in0.0 mm
11:34 AM 14.3°F-9.8°C 9.0°F-12.8°C 79% 6.0 mph W9.7 kmh W -- 30.08 in1018.6 mb 0.00 in0.0 mm 0.00 in0.0 mm 0.00 in0.0 mm
11:35 AM 14.4°F-9.8°C 9.0°F-12.8°C 79% 5.0 mph W8.0 kmh W -- 30.08 in1018.6 mb 0.00 in0.0 mm 0.00 in0.0 mm 0.00 in0.0 mm
11:36 AM 14.3°F-9.8°C 9.0°F-12.8°C 79% 7.0 mph W11.3 kmh W -- 30.08 in1018.6 mb 0.00 in0.0 mm 0.00 in0.0 mm 0.00 in0.0 mm
11:37 AM 14.5°F-9.7°C 9.1°F-12.7°C 79% 7.0 mph W11.3 kmh W -- 30.08 in1018.6 mb 0.00 in0.0 mm 0.00 in0.0 mm 0.00 in0.0 mm
11:38 AM 14.5°F-9.7°C 9.1°F-12.7°C 79% 8.0 mph W12.9 kmh W -- 30.08 in1018.6 mb 0.00 in0.0 mm 0.00 in0.0 mm 0.00 in0.0 mm
11:39 AM 14.7°F-9.6°C 9.3°F-12.6°C 79% 7.0 mph W11.3 kmh W -- 30.08 in1018.6 mb 0.00 in0.0 mm 0.00 in0.0 mm 0.00 in0.0 mm
11:40 AM 14.7°F-9.6°C 9.3°F-12.6°C 79% 9.0 mph W14.5 kmh W -- 30.08 in1018.6 mb 0.00 in0.0 mm 0.00 in0.0 mm 0.00 in0.0 mm
11:41 AM 14.7°F-9.6°C 9.3°F-12.6°C 79% 10.0 mph W16.1 kmh W -- 30.08 in1018.6 mb 0.00 in0.0 mm 0.00 in0.0 mm 0.00 in0.0 mm
11:42 AM 14.9°F-9.5°C 9.2°F-12.7°C 78% 5.0 mph W8.0 kmh W -- 30.08 in1018.6 mb 0.00 in0.0 mm 0.00 in0.0 mm 0.00 in0.0 mm
11:43 AM 14.9°F-9.5°C 9.2°F-12.7°C 78% 6.0 mph W9.7 kmh W -- 30.09 in1019.0 mb 0.00 in0.0 mm 0.00 in0.0 mm 0.00 in0.0 mm
11:44 AM 14.9°F-9.5°C 9.2°F-12.7°C 78% 8.0 mph W12.9 kmh W -- 30.08 in1018.6 mb 0.00 in0.0 mm 0.00 in0.0 mm 0.00 in0.0 mm
11:45 AM 14.9°F-9.5°C 9.2°F-12.7°C 78% 4.0 mph WSW6.4 kmh WSW -- 30.08 in1018.6 mb 0.00 in0.0 mm 0.00 in0.0 mm 0.00 in0.0 mm
11:46 AM 14.9°F-9.5°C 9.2°F-12.7°C 78% 6.0 mph W9.7 kmh W -- 30.08 in1018.6 mb 0.00 in0.0 mm 0.00 in0.0 mm 0.00 in0.0 mm
11:47 AM 15.0°F-9.4°C 9.4°F-12.6°C 78% 6.0 mph W9.7 kmh W -- 30.09 in1019.0 mb 0.00 in0.0 mm 0.00 in0.0 mm 0.00 in0.0 mm
11:48 AM 15.0°F-9.4°C 9.4°F-12.6°C 78% 7.0 mph W11.3 kmh W -- 30.09 in1019.0 mb 0.00 in0.0 mm 0.00 in0.0 mm 0.00 in0.0 mm
11:49 AM 14.9°F-9.5°C 9.2°F-12.7°C 78% 7.0 mph W11.3 kmh W -- 30.08 in1018.6 mb 0.00 in0.0 mm 0.00 in0.0 mm 0.00 in0.0 mm
11:51 AM 15.0°F-9.4°C 9.4°F-12.6°C 78% 7.0 mph W11.3 kmh W -- 30.08 in1018.6 mb 0.00 in0.0 mm 0.00 in0.0 mm 0.00 in0.0 mm
11:52 AM 15.0°F-9.4°C 9.4°F-12.6°C 78% 9.0 mph WSW14.5 kmh WSW -- 30.08 in1018.6 mb 0.00 in0.0 mm 0.00 in0.0 mm 0.00 in0.0 mm
11:53 AM 15.0°F-9.4°C 9.4°F-12.6°C 78% 6.0 mph W9.7 kmh W -- 30.08 in1018.6 mb 0.00 in0.0 mm 0.00 in0.0 mm 0.00 in0.0 mm
11:54 AM 15.2°F-9.3°C 9.6°F-12.4°C 78% 5.0 mph W8.0 kmh W -- 30.08 in1018.6 mb 0.00 in0.0 mm 0.00 in0.0 mm 0.00 in0.0 mm
11:55 AM 15.2°F-9.3°C 9.6°F-12.4°C 78% 6.0 mph W9.7 kmh W -- 30.08 in1018.6 mb 0.00 in0.0 mm 0.00 in0.0 mm 0.00 in0.0 mm
11:57 AM 15.2°F-9.3°C 9.0°F-12.8°C 76% 8.0 mph W12.9 kmh W -- 30.08 in1018.6 mb 0.00 in0.0 mm 0.00 in0.0 mm 0.00 in0.0 mm
11:58 AM 15.2°F-9.3°C 9.0°F-12.8°C 76% 7.0 mph W11.3 kmh W -- 30.08 in1018.6 mb 0.00 in0.0 mm 0.00 in0.0 mm 0.00 in0.0 mm
11:59 AM 15.2°F-9.3°C 9.0°F-12.8°C 76% 8.0 mph WSW12.9 kmh WSW -- 30.08 in1018.6 mb 0.00 in0.0 mm 0.00 in0.0 mm 0.00 in0.0 mm
12:00 PM 15.3°F-9.3°C 9.3°F-12.6°C 77% 7.0 mph W11.3 kmh W -- 30.08 in1018.6 mb 0.00 in0.0 mm 0.00 in0.0 mm 0.00 in0.0 mm
12:01 PM 15.3°F-9.3°C 9.0°F-12.8°C 76% 5.0 mph W8.0 kmh W -- 30.08 in1018.6 mb 0.00 in0.0 mm 0.00 in0.0 mm 0.00 in0.0 mm
12:02 PM 15.3°F-9.3°C 9.0°F-12.8°C 76% 7.0 mph WNW11.3 kmh WNW -- 30.08 in1018.6 mb 0.00 in0.0 mm 0.00 in0.0 mm 0.00 in0.0 mm
12:03 PM 15.3°F-9.3°C 9.0°F-12.8°C 76% 5.0 mph WSW8.0 kmh WSW -- 30.08 in1018.6 mb 0.00 in0.0 mm 0.00 in0.0 mm 0.00 in0.0 mm
12:04 PM 15.3°F-9.3°C 9.0°F-12.8°C 76% 8.0 mph WSW12.9 kmh WSW -- 30.08 in1018.6 mb 0.00 in0.0 mm 0.00 in0.0 mm 0.00 in0.0 mm
12:05 PM 15.4°F-9.2°C 9.4°F-12.6°C 77% 5.0 mph W8.0 kmh W -- 30.08 in1018.6 mb 0.00 in0.0 mm 0.00 in0.0 mm 0.00 in0.0 mm
12:06 PM 15.3°F-9.3°C 9.0°F-12.8°C 76% 4.0 mph W6.4 kmh W -- 30.08 in1018.6 mb 0.00 in0.0 mm 0.00 in0.0 mm 0.00 in0.0 mm
12:07 PM 15.2°F-9.3°C 9.0°F-12.8°C 76% 9.0 mph W14.5 kmh W -- 30.08 in1018.6 mb 0.00 in0.0 mm 0.00 in0.0 mm 0.00 in0.0 mm
12:08 PM 15.2°F-9.3°C 9.0°F-12.8°C 76% 6.0 mph W9.7 kmh W -- 30.08 in1018.6 mb 0.00 in0.0 mm 0.00 in0.0 mm 0.00 in0.0 mm
12:09 PM 15.3°F-9.3°C 9.0°F-12.8°C 76% 7.0 mph SW11.3 kmh SW -- 30.08 in1018.6 mb 0.00 in0.0 mm 0.00 in0.0 mm 0.00 in0.0 mm
12:10 PM 15.3°F-9.3°C 9.3°F-12.6°C 77% 7.0 mph SW11.3 kmh SW -- 30.08 in1018.6 mb 0.00 in0.0 mm 0.00 in0.0 mm 0.00 in0.0 mm
12:11 PM 15.6°F-9.1°C 9.3°F-12.6°C 76% 7.0 mph W11.3 kmh W -- 30.08 in1018.6 mb 0.00 in0.0 mm 0.00 in0.0 mm 0.00 in0.0 mm
12:12 PM 15.8°F-9.0°C 9.5°F-12.5°C 76% 6.0 mph SW9.7 kmh SW -- 30.08 in1018.6 mb 0.00 in0.0 mm 0.00 in0.0 mm 0.00 in0.0 mm
12:13 PM 15.8°F-9.0°C 9.5°F-12.5°C 76% 7.0 mph WSW11.3 kmh WSW -- 30.08 in1018.6 mb 0.00 in0.0 mm 0.00 in0.0 mm 0.00 in0.0 mm
12:14 PM 15.8°F-9.0°C 9.5°F-12.5°C 76% 5.0 mph WSW8.0 kmh WSW -- 30.07 in1018.3 mb 0.00 in0.0 mm 0.00 in0.0 mm 0.00 in0.0 mm
12:15 PM 15.6°F-9.1°C 9.6°F-12.4°C 77% 7.0 mph W11.3 kmh W -- 30.08 in1018.6 mb 0.00 in0.0 mm 0.00 in0.0 mm 0.00 in0.0 mm
12:16 PM 15.8°F-9.0°C 9.5°F-12.5°C 76% 10.0 mph W16.1 kmh W -- 30.07 in1018.3 mb 0.00 in0.0 mm 0.00 in0.0 mm 0.00 in0.0 mm
12:17 PM 15.9°F-8.9°C 9.4°F-12.6°C 75% 9.0 mph WSW14.5 kmh WSW -- 30.08 in1018.6 mb 0.00 in0.0 mm 0.00 in0.0 mm 0.00 in0.0 mm
12:18 PM 15.9°F-8.9°C 9.4°F-12.6°C 75% 6.0 mph SW9.7 kmh SW -- 30.07 in1018.3 mb 0.00 in0.0 mm 0.00 in0.0 mm 0.00 in0.0 mm
12:19 PM 15.9°F-8.9°C 9.4°F-12.6°C 75% 7.0 mph SW11.3 kmh SW -- 30.07 in1018.3 mb 0.00 in0.0 mm 0.00 in0.0 mm 0.00 in0.0 mm
12:20 PM 15.8°F-9.0°C 9.8°F-12.3°C 77% 7.0 mph SW11.3 kmh SW -- 30.07 in1018.3 mb 0.00 in0.0 mm 0.00 in0.0 mm 0.00 in0.0 mm
12:21 PM 15.9°F-8.9°C 9.4°F-12.6°C 75% 8.0 mph SW12.9 kmh SW -- 30.07 in1018.3 mb 0.00 in0.0 mm 0.00 in0.0 mm 0.00 in0.0 mm
12:22 PM 16.2°F-8.8°C 9.5°F-12.5°C 75% 9.0 mph SW14.5 kmh SW -- 30.07 in1018.3 mb 0.00 in0.0 mm 0.00 in0.0 mm 0.00 in0.0 mm
12:23 PM 16.2°F-8.8°C 9.5°F-12.5°C 75% 6.0 mph W9.7 kmh W -- 30.07 in1018.3 mb 0.00 in0.0 mm 0.00 in0.0 mm 0.00 in0.0 mm
12:24 PM 16.2°F-8.8°C 9.5°F-12.5°C 75% 5.0 mph W8.0 kmh W -- 30.07 in1018.3 mb 0.00 in0.0 mm 0.00 in0.0 mm 0.00 in0.0 mm
12:25 PM 16.2°F-8.8°C 9.5°F-12.5°C 75% 6.0 mph WSW9.7 kmh WSW -- 30.07 in1018.3 mb 0.00 in0.0 mm 0.00 in0.0 mm 0.00 in0.0 mm
12:26 PM 16.2°F-8.8°C 9.5°F-12.5°C 75% 7.0 mph SSW11.3 kmh SSW -- 30.07 in1018.3 mb 0.00 in0.0 mm 0.00 in0.0 mm 0.00 in0.0 mm
12:27 PM 16.2°F-8.8°C 9.5°F-12.5°C 75% 9.0 mph SW14.5 kmh SW -- 30.07 in1018.3 mb 0.00 in0.0 mm 0.00 in0.0 mm 0.00 in0.0 mm
12:28 PM 16.2°F-8.8°C 9.5°F-12.5°C 75% 7.0 mph W11.3 kmh W -- 30.07 in1018.3 mb 0.00 in0.0 mm 0.00 in0.0 mm 0.00 in0.0 mm
12:29 PM 16.2°F-8.8°C 9.5°F-12.5°C 75% 6.0 mph SW9.7 kmh SW -- 30.07 in1018.3 mb 0.00 in0.0 mm 0.00 in0.0 mm 0.00 in0.0 mm
12:30 PM 16.4°F-8.7°C 9.7°F-12.4°C 75% 6.0 mph W9.7 kmh W -- 30.07 in1018.3 mb 0.00 in0.0 mm 0.00 in0.0 mm 0.00 in0.0 mm
12:31 PM 16.5°F-8.6°C 9.9°F-12.3°C 75% 7.0 mph WSW11.3 kmh WSW -- 30.07 in1018.3 mb 0.00 in0.0 mm 0.00 in0.0 mm 0.00 in0.0 mm
12:32 PM 16.4°F-8.7°C 9.7°F-12.4°C 75% 6.0 mph WSW9.7 kmh WSW -- 30.07 in1018.3 mb 0.00 in0.0 mm 0.00 in0.0 mm 0.00 in0.0 mm
12:33 PM 16.4°F-8.7°C 9.7°F-12.4°C 75% 8.0 mph WSW12.9 kmh WSW -- 30.07 in1018.3 mb 0.00 in0.0 mm 0.00 in0.0 mm 0.00 in0.0 mm
12:34 PM 16.4°F-8.7°C 9.7°F-12.4°C 75% 9.0 mph SSW14.5 kmh SSW -- 30.07 in1018.3 mb 0.00 in0.0 mm 0.00 in0.0 mm 0.00 in0.0 mm
12:35 PM 16.5°F-8.6°C 9.9°F-12.3°C 75% 7.0 mph W11.3 kmh W -- 30.07 in1018.3 mb 0.00 in0.0 mm 0.00 in0.0 mm 0.00 in0.0 mm
12:36 PM 16.4°F-8.7°C 9.7°F-12.4°C 75% 5.0 mph SW8.0 kmh SW -- 30.06 in1017.9 mb 0.00 in0.0 mm 0.00 in0.0 mm 0.00 in0.0 mm
12:37 PM 16.4°F-8.7°C 9.7°F-12.4°C 75% 7.0 mph SW11.3 kmh SW -- 30.06 in1017.9 mb 0.00 in0.0 mm 0.00 in0.0 mm 0.00 in0.0 mm
12:38 PM 16.4°F-8.7°C 9.7°F-12.4°C 75% 6.0 mph W9.7 kmh W -- 30.06 in1017.9 mb 0.00 in0.0 mm 0.00 in0.0 mm 0.00 in0.0 mm
12:39 PM 16.4°F-8.7°C 9.7°F-12.4°C 75% 8.0 mph WSW12.9 kmh WSW -- 30.06 in1017.9 mb 0.00 in0.0 mm 0.00 in0.0 mm 0.00 in0.0 mm
12:40 PM 16.7°F-8.5°C 10.1°F-12.2°C 75% 6.0 mph WSW9.7 kmh WSW -- 30.06 in1017.9 mb 0.00 in0.0 mm 0.00 in0.0 mm 0.00 in0.0 mm
12:41 PM 16.7°F-8.5°C 10.1°F-12.2°C 75% 11.0 mph WSW17.7 kmh WSW -- 30.06 in1017.9 mb 0.00 in0.0 mm 0.00 in0.0 mm 0.00 in0.0 mm
12:42 PM 16.7°F-8.5°C 10.1°F-12.2°C 75% 5.0 mph WSW8.0 kmh WSW -- 30.06 in1017.9 mb 0.00 in0.0 mm 0.00 in0.0 mm 0.00 in0.0 mm
12:43 PM 16.7°F-8.5°C 10.1°F-12.2°C 75% 8.0 mph W12.9 kmh W -- 30.06 in1017.9 mb 0.00 in0.0 mm 0.00 in0.0 mm 0.00 in0.0 mm
12:44 PM 16.7°F-8.5°C 10.1°F-12.2°C 75% 6.0 mph W9.7 kmh W -- 30.06 in1017.9 mb 0.00 in0.0 mm 0.00 in0.0 mm 0.00 in0.0 mm
12:45 PM 16.7°F-8.5°C 10.1°F-12.2°C 75% 4.0 mph SW6.4 kmh SW -- 30.06 in1017.9 mb 0.00 in0.0 mm 0.00 in0.0 mm 0.00 in0.0 mm
12:46 PM 16.9°F-8.4°C 10.2°F-12.1°C 75% 7.0 mph SW11.3 kmh SW -- 30.06 in1017.9 mb 0.00 in0.0 mm 0.00 in0.0 mm 0.00 in0.0 mm
12:47 PM 16.9°F-8.4°C 10.2°F-12.1°C 75% 7.0 mph W11.3 kmh W -- 30.06 in1017.9 mb 0.00 in0.0 mm 0.00 in0.0 mm 0.00 in0.0 mm
12:48 PM 16.9°F-8.4°C 10.2°F-12.1°C 75% 9.0 mph W14.5 kmh W -- 30.06 in1017.9 mb 0.00 in0.0 mm 0.00 in0.0 mm 0.00 in0.0 mm
12:49 PM 16.9°F-8.4°C 10.2°F-12.1°C 75% 6.0 mph W9.7 kmh W -- 30.06 in1017.9 mb 0.00 in0.0 mm 0.00 in0.0 mm 0.00 in0.0 mm
12:50 PM 17.1°F-8.3°C 10.4°F-12.0°C 75% 10.0 mph S16.1 kmh S -- 30.06 in1017.9 mb 0.00 in0.0 mm 0.00 in0.0 mm 0.00 in0.0 mm
12:51 PM 17.1°F-8.3°C 10.4°F-12.0°C 75% 9.0 mph W14.5 kmh W -- 30.06 in1017.9 mb 0.00 in0.0 mm 0.00 in0.0 mm 0.00 in0.0 mm
12:52 PM 17.2°F-8.2°C 10.3°F-12.1°C 74% 9.0 mph W14.5 kmh W -- 30.06 in1017.9 mb 0.00 in0.0 mm 0.00 in0.0 mm 0.00 in0.0 mm
12:53 PM 17.2°F-8.2°C 10.3°F-12.1°C 74% 8.0 mph W12.9 kmh W -- 30.06 in1017.9 mb 0.00 in0.0 mm 0.00 in0.0 mm 0.00 in0.0 mm
12:54 PM 17.2°F-8.2°C 10.3°F-12.1°C 74% 7.0 mph W11.3 kmh W -- 30.07 in1018.3 mb 0.00 in0.0 mm 0.00 in0.0 mm 0.00 in0.0 mm
12:55 PM 17.2°F-8.2°C 10.3°F-12.1°C 74% 8.0 mph W12.9 kmh W -- 30.07 in1018.3 mb 0.00 in0.0 mm 0.00 in0.0 mm 0.00 in0.0 mm
12:56 PM 17.2°F-8.2°C 10.3°F-12.1°C 74% 4.0 mph WSW6.4 kmh WSW -- 30.07 in1018.3 mb 0.00 in0.0 mm 0.00 in0.0 mm 0.00 in0.0 mm
12:57 PM 17.1°F-8.3°C 10.1°F-12.2°C 74% 6.0 mph WSW9.7 kmh WSW -- 30.06 in1017.9 mb 0.00 in0.0 mm 0.00 in0.0 mm 0.00 in0.0 mm
12:58 PM 17.1°F-8.3°C 10.1°F-12.2°C 74% 7.0 mph W11.3 kmh W -- 30.06 in1017.9 mb 0.00 in0.0 mm 0.00 in0.0 mm 0.00 in0.0 mm
12:59 PM 17.2°F-8.2°C 10.3°F-12.1°C 74% 6.0 mph W9.7 kmh W -- 30.06 in1017.9 mb 0.00 in0.0 mm 0.00 in0.0 mm 0.00 in0.0 mm
01:00 PM 17.1°F-8.3°C 10.1°F-12.2°C 74% 8.0 mph W12.9 kmh W -- 30.06 in1017.9 mb 0.00 in0.0 mm 0.00 in0.0 mm 0.00 in0.0 mm
01:01 PM 17.1°F-8.3°C 10.1°F-12.2°C 74% 6.0 mph W9.7 kmh W -- 30.06 in1017.9 mb 0.00 in0.0 mm 0.00 in0.0 mm 0.00 in0.0 mm
01:02 PM 17.1°F-8.3°C 10.1°F-12.2°C 74% 7.0 mph W11.3 kmh W -- 30.06 in1017.9 mb 0.00 in0.0 mm 0.00 in0.0 mm 0.00 in0.0 mm
01:03 PM 17.1°F-8.3°C 10.1°F-12.2°C 74% 4.0 mph WNW6.4 kmh WNW -- 30.06 in1017.9 mb 0.00 in0.0 mm 0.00 in0.0 mm 0.00 in0.0 mm
01:04 PM 17.1°F-8.3°C 10.1°F-12.2°C 74% 6.0 mph W9.7 kmh W -- 30.06 in1017.9 mb 0.00 in0.0 mm 0.00 in0.0 mm 0.00 in0.0 mm
01:05 PM 17.1°F-8.3°C 10.1°F-12.2°C 74% 6.0 mph WSW9.7 kmh WSW -- 30.06 in1017.9 mb 0.00 in0.0 mm 0.00 in0.0 mm 0.00 in0.0 mm
01:06 PM 17.1°F-8.3°C 10.1°F-12.2°C 74% 9.0 mph WSW14.5 kmh WSW -- 30.06 in1017.9 mb 0.00 in0.0 mm 0.00 in0.0 mm 0.00 in0.0 mm
01:07 PM 17.1°F-8.3°C 10.1°F-12.2°C 74% 8.0 mph WSW12.9 kmh WSW -- 30.06 in1017.9 mb 0.00 in0.0 mm 0.00 in0.0 mm 0.00 in0.0 mm
01:08 PM 17.2°F-8.2°C 10.3°F-12.1°C 74% 8.0 mph W12.9 kmh W -- 30.07 in1018.3 mb 0.00 in0.0 mm 0.00 in0.0 mm 0.00 in0.0 mm
01:09 PM 17.2°F-8.2°C 10.3°F-12.1°C 74% 7.0 mph WSW11.3 kmh WSW -- 30.07 in1018.3 mb 0.00 in0.0 mm 0.00 in0.0 mm 0.00 in0.0 mm
01:10 PM 17.2°F-8.2°C 10.3°F-12.1°C 74% 8.0 mph W12.9 kmh W -- 30.06 in1017.9 mb 0.00 in0.0 mm 0.00 in0.0 mm 0.00 in0.0 mm
01:11 PM 17.2°F-8.2°C 10.3°F-12.1°C 74% 6.0 mph W9.7 kmh W -- 30.07 in1018.3 mb 0.00 in0.0 mm 0.00 in0.0 mm 0.00 in0.0 mm
01:12 PM 17.2°F-8.2°C 10.3°F-12.1°C 74% 7.0 mph W11.3 kmh W -- 30.07 in1018.3 mb 0.00 in0.0 mm 0.00 in0.0 mm 0.00 in0.0 mm
01:13 PM 17.4°F-8.1°C 10.5°F-11.9°C 74% 6.0 mph W9.7 kmh W -- 30.06 in1017.9 mb 0.00 in0.0 mm 0.00 in0.0 mm 0.00 in0.0 mm
01:14 PM 17.4°F-8.1°C 10.5°F-11.9°C 74% 9.0 mph WSW14.5 kmh WSW -- 30.07 in1018.3 mb 0.00 in0.0 mm 0.00 in0.0 mm 0.00 in0.0 mm
01:15 PM 17.4°F-8.1°C 10.5°F-11.9°C 74% 5.0 mph WSW8.0 kmh WSW -- 30.07 in1018.3 mb 0.00 in0.0 mm 0.00 in0.0 mm 0.00 in0.0 mm
01:16 PM 17.4°F-8.1°C 10.5°F-11.9°C 74% 9.0 mph SW14.5 kmh SW -- 30.07 in1018.3 mb 0.00 in0.0 mm 0.00 in0.0 mm 0.00 in0.0 mm
01:17 PM 17.4°F-8.1°C 10.5°F-11.9°C 74% 6.0 mph W9.7 kmh W -- 30.07 in1018.3 mb 0.00 in0.0 mm 0.00 in0.0 mm 0.00 in0.0 mm
01:18 PM 17.4°F-8.1°C 10.5°F-11.9°C 74% 7.0 mph W11.3 kmh W -- 30.06 in1017.9 mb 0.00 in0.0 mm 0.00 in0.0 mm 0.00 in0.0 mm
01:19 PM 17.4°F-8.1°C 10.5°F-11.9°C 74% 9.0 mph W14.5 kmh W -- 30.07 in1018.3 mb 0.00 in0.0 mm 0.00 in0.0 mm 0.00 in0.0 mm
01:20 PM 17.4°F-8.1°C 10.5°F-11.9°C 74% 10.0 mph W16.1 kmh W -- 30.07 in1018.3 mb 0.00 in0.0 mm 0.00 in0.0 mm 0.00 in0.0 mm
01:21 PM 17.4°F-8.1°C 10.5°F-11.9°C 74% 8.0 mph W12.9 kmh W -- 30.06 in1017.9 mb 0.00 in0.0 mm 0.00 in0.0 mm 0.00 in0.0 mm
01:22 PM 17.4°F-8.1°C 10.5°F-11.9°C 74% 5.0 mph W8.0 kmh W -- 30.06 in1017.9 mb 0.00 in0.0 mm 0.00 in0.0 mm 0.00 in0.0 mm
01:23 PM 17.4°F-8.1°C 10.5°F-11.9°C 74% 7.0 mph W11.3 kmh W -- 30.07 in1018.3 mb 0.00 in0.0 mm 0.00 in0.0 mm 0.00 in0.0 mm
01:24 PM 17.4°F-8.1°C 10.5°F-11.9°C 74% 5.0 mph WSW8.0 kmh WSW -- 30.07 in1018.3 mb 0.00 in0.0 mm 0.00 in0.0 mm 0.00 in0.0 mm
01:25 PM 17.4°F-8.1°C 10.5°F-11.9°C 74% 9.0 mph W14.5 kmh W -- 30.07 in1018.3 mb 0.00 in0.0 mm 0.00 in0.0 mm 0.00 in0.0 mm
01:26 PM 17.4°F-8.1°C 10.5°F-11.9°C 74% 6.0 mph W9.7 kmh W -- 30.06 in1017.9 mb 0.00 in0.0 mm 0.00 in0.0 mm 0.00 in0.0 mm
01:27 PM 17.4°F-8.1°C 10.5°F-11.9°C 74% 5.0 mph W8.0 kmh W -- 30.06 in1017.9 mb 0.00 in0.0 mm 0.00 in0.0 mm 0.00 in0.0 mm
01:28 PM 17.4°F-8.1°C 10.5°F-11.9°C 74% 6.0 mph W9.7 kmh W -- 30.06 in1017.9 mb 0.00 in0.0 mm 0.00 in0.0 mm 0.00 in0.0 mm
01:29 PM 17.4°F-8.1°C 10.5°F-11.9°C 74% 10.0 mph W16.1 kmh W -- 30.07 in1018.3 mb 0.00 in0.0 mm 0.00 in0.0 mm 0.00 in0.0 mm
01:30 PM 17.4°F-8.1°C 10.5°F-11.9°C 74% 9.0 mph W14.5 kmh W -- 30.06 in1017.9 mb 0.00 in0.0 mm 0.00 in0.0 mm 0.00 in0.0 mm
01:31 PM 17.5°F-8.1°C 10.5°F-11.9°C 74% 7.0 mph W11.3 kmh W -- 30.07 in1018.3 mb 0.00 in0.0 mm 0.00 in0.0 mm 0.00 in0.0 mm
01:32 PM 17.5°F-8.1°C 10.5°F-11.9°C 74% 8.0 mph W12.9 kmh W -- 30.06 in1017.9 mb 0.00 in0.0 mm 0.00 in0.0 mm 0.00 in0.0 mm
01:34 PM 17.5°F-8.1°C 10.5°F-11.9°C 74% 6.0 mph W9.7 kmh W -- 30.06 in1017.9 mb 0.00 in0.0 mm 0.00 in0.0 mm 0.00 in0.0 mm
01:35 PM 17.6°F-8.0°C 10.6°F-11.9°C 74% 9.0 mph WSW14.5 kmh WSW -- 30.06 in1017.9 mb 0.00 in0.0 mm 0.00 in0.0 mm 0.00 in0.0 mm
01:36 PM 17.6°F-8.0°C 10.6°F-11.9°C 74% 7.0 mph W11.3 kmh W -- 30.06 in1017.9 mb 0.00 in0.0 mm 0.00 in0.0 mm 0.00 in0.0 mm
01:37 PM 17.5°F-8.1°C 10.5°F-11.9°C 74% 6.0 mph W9.7 kmh W -- 30.06 in1017.9 mb 0.00 in0.0 mm 0.00 in0.0 mm 0.00 in0.0 mm
01:38 PM 17.5°F-8.1°C 10.5°F-11.9°C 74% 7.0 mph W11.3 kmh W -- 30.06 in1017.9 mb 0.00 in0.0 mm 0.00 in0.0 mm 0.00 in0.0 mm
01:39 PM 17.5°F-8.1°C 10.5°F-11.9°C 74% 5.0 mph W8.0 kmh W -- 30.06 in1017.9 mb 0.00 in0.0 mm 0.00 in0.0 mm 0.00 in0.0 mm
01:40 PM 17.6°F-8.0°C 10.6°F-11.9°C 74% 9.0 mph WNW14.5 kmh WNW -- 30.06 in1017.9 mb 0.00 in0.0 mm 0.00 in0.0 mm 0.00 in0.0 mm
01:41 PM 17.5°F-8.1°C 10.5°F-11.9°C 74% 5.0 mph WSW8.0 kmh WSW -- 30.06 in1017.9 mb 0.00 in0.0 mm 0.00 in0.0 mm 0.00 in0.0 mm
01:42 PM 17.5°F-8.1°C 10.5°F-11.9°C 74% 9.0 mph W14.5 kmh W -- 30.06 in1017.9 mb 0.00 in0.0 mm 0.00 in0.0 mm 0.00 in0.0 mm
01:43 PM 17.7°F-7.9°C 10.8°F-11.8°C 74% 8.0 mph W12.9 kmh W -- 30.07 in1018.3 mb 0.00 in0.0 mm 0.00 in0.0 mm 0.00 in0.0 mm
01:44 PM 17.7°F-7.9°C 10.8°F-11.8°C 74% 6.0 mph W9.7 kmh W -- 30.06 in1017.9 mb 0.00 in0.0 mm 0.00 in0.0 mm 0.00 in0.0 mm
01:45 PM 17.8°F-7.9°C 10.5°F-11.9°C 73% 8.0 mph WSW12.9 kmh WSW -- 30.06 in1017.9 mb 0.00 in0.0 mm 0.00 in0.0 mm 0.00 in0.0 mm
01:46 PM 17.5°F-8.1°C 10.1°F-12.2°C 73% 6.0 mph WSW9.7 kmh WSW -- 30.06 in1017.9 mb 0.00 in0.0 mm 0.00 in0.0 mm 0.00 in0.0 mm
01:47 PM 17.5°F-8.1°C 10.1°F-12.2°C 73% 6.0 mph W9.7 kmh W -- 30.06 in1017.9 mb 0.00 in0.0 mm 0.00 in0.0 mm 0.00 in0.0 mm
01:48 PM 17.7°F-7.9°C 10.5°F-11.9°C 73% 6.0 mph W9.7 kmh W -- 30.06 in1017.9 mb 0.00 in0.0 mm 0.00 in0.0 mm 0.00 in0.0 mm
01:49 PM 17.5°F-8.1°C 10.1°F-12.2°C 73% 5.0 mph W8.0 kmh W -- 30.06 in1017.9 mb 0.00 in0.0 mm 0.00 in0.0 mm 0.00 in0.0 mm
01:50 PM 17.6°F-8.0°C 10.3°F-12.1°C 73% 5.0 mph W8.0 kmh W -- 30.06 in1017.9 mb 0.00 in0.0 mm 0.00 in0.0 mm 0.00 in0.0 mm
01:51 PM 17.5°F-8.1°C 10.5°F-11.9°C 74% 5.0 mph W8.0 kmh W -- 30.06 in1017.9 mb 0.00 in0.0 mm 0.00 in0.0 mm 0.00 in0.0 mm
01:53 PM 17.4°F-8.1°C 10.5°F-11.9°C 74% 6.0 mph W9.7 kmh W -- 30.06 in1017.9 mb 0.00 in0.0 mm 0.00 in0.0 mm 0.00 in0.0 mm
01:54 PM 17.4°F-8.1°C 10.5°F-11.9°C 74% 5.0 mph W8.0 kmh W -- 30.06 in1017.9 mb 0.00 in0.0 mm 0.00 in0.0 mm 0.00 in0.0 mm
01:58 PM 17.4°F-8.1°C 10.5°F-11.9°C 74% 6.0 mph W9.7 kmh W -- 30.06 in1017.9 mb 0.00 in0.0 mm 0.00 in0.0 mm 0.00 in0.0 mm
01:59 PM 17.4°F-8.1°C 10.5°F-11.9°C 74% 5.0 mph W8.0 kmh W -- 30.06 in1017.9 mb 0.00 in0.0 mm 0.00 in0.0 mm 0.00 in0.0 mm
02:04 PM 17.4°F-8.1°C 10.5°F-11.9°C 74% 6.0 mph W9.7 kmh W -- 30.06 in1017.9 mb 0.00 in0.0 mm 0.00 in0.0 mm 0.00 in0.0 mm
02:05 PM 17.4°F-8.1°C 10.5°F-11.9°C 74% 4.0 mph W6.4 kmh W -- 30.06 in1017.9 mb 0.00 in0.0 mm 0.00 in0.0 mm 0.00 in0.0 mm
02:06 PM 17.1°F-8.3°C 10.1°F-12.2°C 74% 3.0 mph W4.8 kmh W -- 30.06 in1017.9 mb 0.00 in0.0 mm 0.00 in0.0 mm 0.00 in0.0 mm
02:07 PM 17.1°F-8.3°C 10.1°F-12.2°C 74% 5.0 mph W8.0 kmh W -- 30.06 in1017.9 mb 0.00 in0.0 mm 0.00 in0.0 mm 0.00 in0.0 mm
02:08 PM 17.4°F-8.1°C 10.5°F-11.9°C 74% 6.0 mph WSW9.7 kmh WSW -- 30.06 in1017.9 mb 0.00 in0.0 mm 0.00 in0.0 mm 0.00 in0.0 mm
02:09 PM 17.4°F-8.1°C 10.5°F-11.9°C 74% 7.0 mph SW11.3 kmh SW -- 30.06 in1017.9 mb 0.00 in0.0 mm 0.00 in0.0 mm 0.00 in0.0 mm
02:10 PM 17.6°F-8.0°C 10.6°F-11.9°C 74% 8.0 mph WSW12.9 kmh WSW -- 30.06 in1017.9 mb 0.00 in0.0 mm 0.00 in0.0 mm 0.00 in0.0 mm
02:11 PM 17.7°F-7.9°C 10.8°F-11.8°C 74% 4.0 mph W6.4 kmh W -- 30.06 in1017.9 mb 0.00 in0.0 mm 0.00 in0.0 mm 0.00 in0.0 mm
02:12 PM 17.9°F-7.8°C 11.0°F-11.7°C 74% 5.0 mph WSW8.0 kmh WSW -- 30.06 in1017.9 mb 0.00 in0.0 mm 0.00 in0.0 mm 0.00 in0.0 mm
02:13 PM 18.1°F-7.7°C 11.2°F-11.6°C 74% 4.0 mph WSW6.4 kmh WSW -- 30.06 in1017.9 mb 0.00 in0.0 mm 0.00 in0.0 mm 0.00 in0.0 mm
02:14 PM 17.9°F-7.8°C 11.0°F-11.7°C 74% 3.0 mph W4.8 kmh W -- 30.05 in1017.6 mb 0.00 in0.0 mm 0.00 in0.0 mm 0.00 in0.0 mm
02:15 PM 18.1°F-7.7°C 11.2°F-11.6°C 74% 6.0 mph WSW9.7 kmh WSW -- 30.05 in1017.6 mb 0.00 in0.0 mm 0.00 in0.0 mm 0.00 in0.0 mm
02:16 PM 18.5°F-7.5°C 11.2°F-11.6°C 73% 8.0 mph WSW12.9 kmh WSW -- 30.06 in1017.9 mb 0.00 in0.0 mm 0.00 in0.0 mm 0.00 in0.0 mm
02:17 PM 18.7°F-7.4°C 11.4°F-11.4°C 73% 8.0 mph W12.9 kmh W -- 30.06 in1017.9 mb 0.00 in0.0 mm 0.00 in0.0 mm 0.00 in0.0 mm
02:18 PM 18.7°F-7.4°C 11.4°F-11.4°C 73% 5.0 mph W8.0 kmh W -- 30.05 in1017.6 mb 0.00 in0.0 mm 0.00 in0.0 mm 0.00 in0.0 mm
02:20 PM 18.5°F-7.5°C 11.2°F-11.6°C 73% 6.0 mph W9.7 kmh W -- 30.05 in1017.6 mb 0.00 in0.0 mm 0.00 in0.0 mm 0.00 in0.0 mm
02:21 PM 18.5°F-7.5°C 11.2°F-11.6°C 73% 7.0 mph W11.3 kmh W -- 30.06 in1017.9 mb 0.00 in0.0 mm 0.00 in0.0 mm 0.00 in0.0 mm
02:22 PM 18.8°F-7.3°C 10.9°F-11.7°C 71% 4.0 mph WSW6.4 kmh WSW -- 30.05 in1017.6 mb 0.00 in0.0 mm 0.00 in0.0 mm 0.00 in0.0 mm
02:23 PM 18.5°F-7.5°C 10.6°F-11.9°C 71% 5.0 mph W8.0 kmh W -- 30.05 in1017.6 mb 0.00 in0.0 mm 0.00 in0.0 mm 0.00 in0.0 mm
02:24 PM 18.5°F-7.5°C 10.6°F-11.9°C 71% 4.0 mph W6.4 kmh W -- 30.05 in1017.6 mb 0.00 in0.0 mm 0.00 in0.0 mm 0.00 in0.0 mm
02:25 PM 18.3°F-7.6°C 10.7°F-11.8°C 72% 5.0 mph WNW8.0 kmh WNW -- 30.06 in1017.9 mb 0.00 in0.0 mm 0.00 in0.0 mm 0.00 in0.0 mm
02:26 PM 18.2°F-7.7°C 10.2°F-12.1°C 71% 3.0 mph W4.8 kmh W -- 30.06 in1017.9 mb 0.00 in0.0 mm 0.00 in0.0 mm 0.00 in0.0 mm
02:27 PM 18.5°F-7.5°C 11.2°F-11.6°C 73% 2.0 mph W3.2 kmh W -- 30.06 in1017.9 mb 0.00 in0.0 mm 0.00 in0.0 mm 0.00 in0.0 mm
02:28 PM 18.7°F-7.4°C 11.4°F-11.4°C 73% 4.0 mph WSW6.4 kmh WSW -- 30.06 in1017.9 mb 0.00 in0.0 mm 0.00 in0.0 mm 0.00 in0.0 mm
02:29 PM 18.2°F-7.7°C 10.8°F-11.8°C 73% 3.0 mph W4.8 kmh W -- 30.06 in1017.9 mb 0.00 in0.0 mm 0.00 in0.0 mm 0.00 in0.0 mm
02:30 PM 18.1°F-7.7°C 10.8°F-11.8°C 73% 3.0 mph W4.8 kmh W -- 30.06 in1017.9 mb 0.00 in0.0 mm 0.00 in0.0 mm 0.00 in0.0 mm
02:32 PM 18.2°F-7.7°C 10.8°F-11.8°C 73% 1.0 mph W1.6 kmh W -- 30.06 in1017.9 mb 0.00 in0.0 mm 0.00 in0.0 mm 0.00 in0.0 mm
02:33 PM 18.5°F-7.5°C 11.2°F-11.6°C 73% 4.0 mph WSW6.4 kmh WSW -- 30.06 in1017.9 mb 0.00 in0.0 mm 0.00 in0.0 mm 0.00 in0.0 mm
02:34 PM 18.5°F-7.5°C 11.2°F-11.6°C 73% 2.0 mph SW3.2 kmh SW -- 30.05 in1017.6 mb 0.00 in0.0 mm 0.00 in0.0 mm 0.00 in0.0 mm
02:35 PM 18.3°F-7.6°C 11.0°F-11.7°C 73% 4.0 mph W6.4 kmh W -- 30.06 in1017.9 mb 0.00 in0.0 mm 0.00 in0.0 mm 0.00 in0.0 mm
02:36 PM 18.2°F-7.7°C 10.8°F-11.8°C 73% 1.0 mph W1.6 kmh W -- 30.06 in1017.9 mb 0.00 in0.0 mm 0.00 in0.0 mm 0.00 in0.0 mm
02:37 PM 18.1°F-7.7°C 10.8°F-11.8°C 73% 3.0 mph W4.8 kmh W -- 30.06 in1017.9 mb 0.00 in0.0 mm 0.00 in0.0 mm 0.00 in0.0 mm
02:38 PM 18.2°F-7.7°C 10.8°F-11.8°C 73% 4.0 mph W6.4 kmh W -- 30.06 in1017.9 mb 0.00 in0.0 mm 0.00 in0.0 mm 0.00 in0.0 mm
02:39 PM 18.2°F-7.7°C 10.8°F-11.8°C 73% 2.0 mph W3.2 kmh W -- 30.06 in1017.9 mb 0.00 in0.0 mm 0.00 in0.0 mm 0.00 in0.0 mm
02:40 PM 18.1°F-7.7°C 10.8°F-11.8°C 73% 4.0 mph SW6.4 kmh SW -- 30.06 in1017.9 mb 0.00 in0.0 mm 0.00 in0.0 mm 0.00 in0.0 mm
02:42 PM 18.2°F-7.7°C 10.8°F-11.8°C 73% 6.0 mph SW9.7 kmh SW -- 30.06 in1017.9 mb 0.00 in0.0 mm 0.00 in0.0 mm 0.00 in0.0 mm
02:43 PM 18.5°F-7.5°C 11.2°F-11.6°C 73% 4.0 mph W6.4 kmh W -- 30.06 in1017.9 mb 0.00 in0.0 mm 0.00 in0.0 mm 0.00 in0.0 mm
02:44 PM 18.5°F-7.5°C 10.6°F-11.9°C 71% 3.0 mph W4.8 kmh W -- 30.05 in1017.6 mb 0.00 in0.0 mm 0.00 in0.0 mm 0.00 in0.0 mm
02:45 PM 18.3°F-7.6°C 10.7°F-11.8°C 72% 3.0 mph WSW4.8 kmh WSW -- 30.06 in1017.9 mb 0.00 in0.0 mm 0.00 in0.0 mm 0.00 in0.0 mm
02:46 PM 18.1°F-7.7°C 10.2°F-12.1°C 71% 5.0 mph W8.0 kmh W -- 30.05 in1017.6 mb 0.00 in0.0 mm 0.00 in0.0 mm 0.00 in0.0 mm
02:47 PM 18.5°F-7.5°C 10.6°F-11.9°C 71% 5.0 mph SW8.0 kmh SW -- 30.05 in1017.6 mb 0.00 in0.0 mm 0.00 in0.0 mm 0.00 in0.0 mm
02:48 PM 17.9°F-7.8°C 10.0°F-12.2°C 71% 4.0 mph WSW6.4 kmh WSW -- 30.06 in1017.9 mb 0.00 in0.0 mm 0.00 in0.0 mm 0.00 in0.0 mm
02:49 PM 18.1°F-7.7°C 10.2°F-12.1°C 71% 6.0 mph SW9.7 kmh SW -- 30.06 in1017.9 mb 0.00 in0.0 mm 0.00 in0.0 mm 0.00 in0.0 mm
02:50 PM 18.3°F-7.6°C 10.7°F-11.8°C 72% 5.0 mph SW8.0 kmh SW -- 30.06 in1017.9 mb 0.00 in0.0 mm 0.00 in0.0 mm 0.00 in0.0 mm
02:51 PM 18.2°F-7.7°C 10.2°F-12.1°C 71% 4.0 mph WSW6.4 kmh WSW -- 30.06 in1017.9 mb 0.00 in0.0 mm 0.00 in0.0 mm 0.00 in0.0 mm
02:52 PM 18.2°F-7.7°C 10.2°F-12.1°C 71% 8.0 mph SW12.9 kmh SW -- 30.06 in1017.9 mb 0.00 in0.0 mm 0.00 in0.0 mm 0.00 in0.0 mm
02:53 PM 18.7°F-7.4°C 10.7°F-11.8°C 71% 8.0 mph WSW12.9 kmh WSW -- 30.06 in1017.9 mb 0.00 in0.0 mm 0.00 in0.0 mm 0.00 in0.0 mm
02:54 PM 18.8°F-7.3°C 10.9°F-11.7°C 71% 7.0 mph WSW11.3 kmh WSW -- 30.05 in1017.6 mb 0.00 in0.0 mm 0.00 in0.0 mm 0.00 in0.0 mm
02:55 PM 18.9°F-7.3°C 11.2°F-11.6°C 72% 6.0 mph W9.7 kmh W -- 30.06 in1017.9 mb 0.00 in0.0 mm 0.00 in0.0 mm 0.00 in0.0 mm
02:56 PM 18.8°F-7.3°C 10.9°F-11.7°C 71% 7.0 mph W11.3 kmh W -- 30.06 in1017.9 mb 0.00 in0.0 mm 0.00 in0.0 mm 0.00 in0.0 mm
02:57 PM 18.8°F-7.3°C 10.9°F-11.7°C 71% 9.0 mph W14.5 kmh W -- 30.06 in1017.9 mb 0.00 in0.0 mm 0.00 in0.0 mm 0.00 in0.0 mm
02:58 PM 18.8°F-7.3°C 10.9°F-11.7°C 71% 4.0 mph SW6.4 kmh SW -- 30.06 in1017.9 mb 0.00 in0.0 mm 0.00 in0.0 mm 0.00 in0.0 mm
02:59 PM 18.5°F-7.5°C 10.6°F-11.9°C 71% 5.0 mph W8.0 kmh W -- 30.06 in1017.9 mb 0.00 in0.0 mm 0.00 in0.0 mm 0.00 in0.0 mm
03:00 PM 18.5°F-7.5°C 10.9°F-11.7°C 72% 4.0 mph W6.4 kmh W -- 30.06 in1017.9 mb 0.00 in0.0 mm 0.00 in0.0 mm 0.00 in0.0 mm
03:01 PM 18.5°F-7.5°C 10.6°F-11.9°C 71% 7.0 mph W11.3 kmh W -- 30.06 in1017.9 mb 0.00 in0.0 mm 0.00 in0.0 mm 0.00 in0.0 mm
03:02 PM 18.2°F-7.7°C 10.2°F-12.1°C 71% 5.0 mph W8.0 kmh W -- 30.06 in1017.9 mb 0.00 in0.0 mm 0.00 in0.0 mm 0.00 in0.0 mm
03:03 PM 18.2°F-7.7°C 10.2°F-12.1°C 71% 6.0 mph SSW9.7 kmh SSW -- 30.05 in1017.6 mb 0.00 in0.0 mm 0.00 in0.0 mm 0.00 in0.0 mm
03:04 PM 17.7°F-7.9°C 9.9°F-12.3°C 71% 4.0 mph WSW6.4 kmh WSW -- 30.06 in1017.9 mb 0.00 in0.0 mm 0.00 in0.0 mm 0.00 in0.0 mm
03:05 PM 17.8°F-7.9°C 10.2°F-12.1°C 72% 6.0 mph SW9.7 kmh SW -- 30.06 in1017.9 mb 0.00 in0.0 mm 0.00 in0.0 mm 0.00 in0.0 mm
03:06 PM 17.9°F-7.8°C 10.0°F-12.2°C 71% 6.0 mph SW9.7 kmh SW -- 30.06 in1017.9 mb 0.00 in0.0 mm 0.00 in0.0 mm 0.00 in0.0 mm
03:07 PM 17.9°F-7.8°C 10.0°F-12.2°C 71% 3.0 mph WSW4.8 kmh WSW -- 30.06 in1017.9 mb 0.00 in0.0 mm 0.00 in0.0 mm 0.00 in0.0 mm
03:08 PM 17.9°F-7.8°C 10.0°F-12.2°C 71% 6.0 mph SW9.7 kmh SW -- 30.06 in1017.9 mb 0.00 in0.0 mm 0.00 in0.0 mm 0.00 in0.0 mm
03:09 PM 18.1°F-7.7°C 10.2°F-12.1°C 71% 4.0 mph W6.4 kmh W -- 30.06 in1017.9 mb 0.00 in0.0 mm 0.00 in0.0 mm 0.00 in0.0 mm
03:10 PM 18.0°F-7.8°C 10.4°F-12.0°C 72% 4.0 mph WSW6.4 kmh WSW -- 30.06 in1017.9 mb 0.00 in0.0 mm 0.00 in0.0 mm 0.00 in0.0 mm
03:11 PM 17.9°F-7.8°C 10.0°F-12.2°C 71% 3.0 mph W4.8 kmh W -- 30.06 in1017.9 mb 0.00 in0.0 mm 0.00 in0.0 mm 0.00 in0.0 mm
03:12 PM 17.5°F-8.1°C 10.1°F-12.2°C 73% 3.0 mph W4.8 kmh W -- 30.06 in1017.9 mb 0.00 in0.0 mm 0.00 in0.0 mm 0.00 in0.0 mm
03:13 PM 17.5°F-8.1°C 10.1°F-12.2°C 73% 5.0 mph WSW8.0 kmh WSW -- 30.06 in1017.9 mb 0.00 in0.0 mm 0.00 in0.0 mm 0.00 in0.0 mm
03:14 PM 17.5°F-8.1°C 10.1°F-12.2°C 73% 4.0 mph W6.4 kmh W -- 30.06 in1017.9 mb 0.00 in0.0 mm 0.00 in0.0 mm 0.00 in0.0 mm
03:15 PM 17.8°F-7.9°C 10.5°F-11.9°C 73% 5.0 mph W8.0 kmh W -- 30.06 in1017.9 mb 0.00 in0.0 mm 0.00 in0.0 mm 0.00 in0.0 mm
03:16 PM 17.4°F-8.1°C 10.1°F-12.2°C 73% 3.0 mph WNW4.8 kmh WNW -- 30.06 in1017.9 mb 0.00 in0.0 mm 0.00 in0.0 mm 0.00 in0.0 mm
03:17 PM 17.2°F-8.2°C 10.0°F-12.2°C 73% 5.0 mph W8.0 kmh W -- 30.06 in1017.9 mb 0.00 in0.0 mm 0.00 in0.0 mm 0.00 in0.0 mm
03:18 PM 17.2°F-8.2°C 10.0°F-12.2°C 73% 4.0 mph W6.4 kmh W -- 30.06 in1017.9 mb 0.00 in0.0 mm 0.00 in0.0 mm 0.00 in0.0 mm
03:20 PM 17.4°F-8.1°C 10.1°F-12.2°C 73% 3.0 mph W4.8 kmh W -- 30.06 in1017.9 mb 0.00 in0.0 mm 0.00 in0.0 mm 0.00 in0.0 mm
03:21 PM 17.1°F-8.3°C 9.8°F-12.3°C 73% 4.0 mph W6.4 kmh W -- 30.06 in1017.9 mb 0.00 in0.0 mm 0.00 in0.0 mm 0.00 in0.0 mm
03:22 PM 17.1°F-8.3°C 9.8°F-12.3°C 73% 5.0 mph WSW8.0 kmh WSW -- 30.06 in1017.9 mb 0.00 in0.0 mm 0.00 in0.0 mm 0.00 in0.0 mm
03:23 PM 17.1°F-8.3°C 9.8°F-12.3°C 73% 5.0 mph W8.0 kmh W -- 30.06 in1017.9 mb 0.00 in0.0 mm 0.00 in0.0 mm 0.00 in0.0 mm
03:24 PM 16.7°F-8.5°C 9.5°F-12.5°C 73% 2.0 mph W3.2 kmh W -- 30.06 in1017.9 mb 0.00 in0.0 mm 0.00 in0.0 mm 0.00 in0.0 mm
03:25 PM 16.7°F-8.5°C 9.8°F-12.3°C 74% 6.0 mph WSW9.7 kmh WSW -- 30.06 in1017.9 mb 0.00 in0.0 mm 0.00 in0.0 mm 0.00 in0.0 mm
03:26 PM 16.9°F-8.4°C 9.9°F-12.3°C 74% 4.0 mph WSW6.4 kmh WSW -- 30.06 in1017.9 mb 0.00 in0.0 mm 0.00 in0.0 mm 0.00 in0.0 mm
03:27 PM 16.9°F-8.4°C 9.9°F-12.3°C 74% 7.0 mph W11.3 kmh W -- 30.06 in1017.9 mb 0.00 in0.0 mm 0.00 in0.0 mm 0.00 in0.0 mm
03:28 PM 17.2°F-8.2°C 10.3°F-12.1°C 74% 3.0 mph SW4.8 kmh SW -- 30.06 in1017.9 mb 0.00 in0.0 mm 0.00 in0.0 mm 0.00 in0.0 mm
03:29 PM 17.1°F-8.3°C 10.1°F-12.2°C 74% 5.0 mph W8.0 kmh W -- 30.06 in1017.9 mb 0.00 in0.0 mm 0.00 in0.0 mm 0.00 in0.0 mm
03:30 PM 17.1°F-8.3°C 10.1°F-12.2°C 74% 3.0 mph SW4.8 kmh SW -- 30.06 in1017.9 mb 0.00 in0.0 mm 0.00 in0.0 mm 0.00 in0.0 mm
03:31 PM 16.7°F-8.5°C 10.1°F-12.2°C 75% 4.0 mph WSW6.4 kmh WSW -- 30.06 in1017.9 mb 0.00 in0.0 mm 0.00 in0.0 mm 0.00 in0.0 mm
03:32 PM 16.9°F-8.4°C 10.2°F-12.1°C 75% 4.0 mph W6.4 kmh W -- 30.06 in1017.9 mb 0.00 in0.0 mm 0.00 in0.0 mm 0.00 in0.0 mm
03:33 PM 16.7°F-8.5°C 10.1°F-12.2°C 75% 7.0 mph W11.3 kmh W -- 30.06 in1017.9 mb 0.00 in0.0 mm 0.00 in0.0 mm 0.00 in0.0 mm
03:34 PM 16.9°F-8.4°C 10.2°F-12.1°C 75% 3.0 mph WSW4.8 kmh WSW -- 30.07 in1018.3 mb 0.00 in0.0 mm 0.00 in0.0 mm 0.00 in0.0 mm
03:35 PM 16.5°F-8.6°C 9.9°F-12.3°C 75% 4.0 mph W6.4 kmh W -- 30.06 in1017.9 mb 0.00 in0.0 mm 0.00 in0.0 mm 0.00 in0.0 mm
03:36 PM 16.4°F-8.7°C 9.7°F-12.4°C 75% 3.0 mph W4.8 kmh W -- 30.06 in1017.9 mb 0.00 in0.0 mm 0.00 in0.0 mm 0.00 in0.0 mm
03:37 PM 16.2°F-8.8°C 9.5°F-12.5°C 75% 4.0 mph W6.4 kmh W -- 30.06 in1017.9 mb 0.00 in0.0 mm 0.00 in0.0 mm 0.00 in0.0 mm
03:38 PM 16.2°F-8.8°C 9.5°F-12.5°C 75% 4.0 mph WSW6.4 kmh WSW -- 30.06 in1017.9 mb 0.00 in0.0 mm 0.00 in0.0 mm 0.00 in0.0 mm
03:39 PM 16.2°F-8.8°C 9.5°F-12.5°C 75% 6.0 mph W9.7 kmh W -- 30.06 in1017.9 mb 0.00 in0.0 mm 0.00 in0.0 mm 0.00 in0.0 mm
03:40 PM 16.2°F-8.8°C 9.5°F-12.5°C 75% 4.0 mph W6.4 kmh W -- 30.07 in1018.3 mb 0.00 in0.0 mm 0.00 in0.0 mm 0.00 in0.0 mm
03:41 PM 15.8°F-9.0°C 9.2°F-12.7°C 75% 3.0 mph W4.8 kmh W -- 30.06 in1017.9 mb 0.00 in0.0 mm 0.00 in0.0 mm 0.00 in0.0 mm
03:42 PM 15.6°F-9.1°C 9.0°F-12.8°C 75% 3.0 mph SW4.8 kmh SW -- 30.06 in1017.9 mb 0.00 in0.0 mm 0.00 in0.0 mm 0.00 in0.0 mm
03:43 PM 15.2°F-9.3°C 8.7°F-12.9°C 75% 3.0 mph SSW4.8 kmh SSW -- 30.07 in1018.3 mb 0.00 in0.0 mm 0.00 in0.0 mm 0.00 in0.0 mm
03:44 PM 15.3°F-9.3°C 9.0°F-12.8°C 76% 4.0 mph W6.4 kmh W -- 30.07 in1018.3 mb 0.00 in0.0 mm 0.00 in0.0 mm 0.00 in0.0 mm
03:45 PM 15.4°F-9.2°C 9.4°F-12.6°C 77% 4.0 mph W6.4 kmh W -- 30.06 in1017.9 mb 0.00 in0.0 mm 0.00 in0.0 mm 0.00 in0.0 mm
03:46 PM 15.0°F-9.4°C 8.8°F-12.9°C 76% 4.0 mph W6.4 kmh W -- 30.06 in1017.9 mb 0.00 in0.0 mm 0.00 in0.0 mm 0.00 in0.0 mm
03:47 PM 14.7°F-9.6°C 8.4°F-13.1°C 76% 3.0 mph W4.8 kmh W -- 30.06 in1017.9 mb 0.00 in0.0 mm 0.00 in0.0 mm 0.00 in0.0 mm
03:48 PM 14.5°F-9.7°C 8.3°F-13.2°C 76% 5.0 mph SW8.0 kmh SW -- 30.06 in1017.9 mb 0.00 in0.0 mm 0.00 in0.0 mm 0.00 in0.0 mm
03:49 PM 14.9°F-9.5°C 9.2°F-12.7°C 78% 4.0 mph W6.4 kmh W -- 30.06 in1017.9 mb 0.00 in0.0 mm 0.00 in0.0 mm 0.00 in0.0 mm
03:50 PM 15.1°F-9.4°C 9.4°F-12.6°C 78% 4.0 mph W6.4 kmh W -- 30.06 in1017.9 mb 0.00 in0.0 mm 0.00 in0.0 mm 0.00 in0.0 mm
03:51 PM 15.2°F-9.3°C 9.0°F-12.8°C 76% 4.0 mph WNW6.4 kmh WNW -- 30.06 in1017.9 mb 0.00 in0.0 mm 0.00 in0.0 mm 0.00 in0.0 mm
03:52 PM 15.2°F-9.3°C 9.0°F-12.8°C 76% 3.0 mph W4.8 kmh W -- 30.06 in1017.9 mb 0.00 in0.0 mm 0.00 in0.0 mm 0.00 in0.0 mm
03:53 PM 15.2°F-9.3°C 9.0°F-12.8°C 76% 2.0 mph W3.2 kmh W -- 30.06 in1017.9 mb 0.00 in0.0 mm 0.00 in0.0 mm 0.00 in0.0 mm
03:54 PM 15.0°F-9.4°C 8.8°F-12.9°C 76% 2.0 mph WNW3.2 kmh WNW -- 30.06 in1017.9 mb 0.00 in0.0 mm 0.00 in0.0 mm 0.00 in0.0 mm
03:55 PM 15.1°F-9.4°C 9.1°F-12.7°C 77% 2.0 mph W3.2 kmh W -- 30.07 in1018.3 mb 0.00 in0.0 mm 0.00 in0.0 mm 0.00 in0.0 mm
03:56 PM 14.7°F-9.6°C 8.4°F-13.1°C 76% 2.0 mph W3.2 kmh W -- 30.07 in1018.3 mb 0.00 in0.0 mm 0.00 in0.0 mm 0.00 in0.0 mm
03:57 PM 14.5°F-9.7°C 8.3°F-13.2°C 76% 3.0 mph W4.8 kmh W -- 30.07 in1018.3 mb 0.00 in0.0 mm 0.00 in0.0 mm 0.00 in0.0 mm
03:58 PM 14.3°F-9.8°C 8.1°F-13.3°C 76% 1.0 mph W1.6 kmh W -- 30.06 in1017.9 mb 0.00 in0.0 mm 0.00 in0.0 mm 0.00 in0.0 mm
03:59 PM 14.1°F-9.9°C 7.9°F-13.4°C 76% 2.0 mph W3.2 kmh W -- 30.07 in1018.3 mb 0.00 in0.0 mm 0.00 in0.0 mm 0.00 in0.0 mm
04:00 PM 14.2°F-9.9°C 8.5°F-13.1°C 78% 4.0 mph WNW6.4 kmh WNW -- 30.07 in1018.3 mb 0.00 in0.0 mm 0.00 in0.0 mm 0.00 in0.0 mm
04:01 PM 13.9°F-10.1°C 8.2°F-13.2°C 78% 2.0 mph SW3.2 kmh SW -- 30.07 in1018.3 mb 0.00 in0.0 mm 0.00 in0.0 mm 0.00 in0.0 mm
04:02 PM 13.7°F-10.2°C 8.0°F-13.3°C 78% 2.0 mph W3.2 kmh W -- 30.06 in1017.9 mb 0.00 in0.0 mm 0.00 in0.0 mm 0.00 in0.0 mm
04:03 PM 13.6°F-10.2°C 8.3°F-13.2°C 79% 2.0 mph W3.2 kmh W -- 30.07 in1018.3 mb 0.00 in0.0 mm 0.00 in0.0 mm 0.00 in0.0 mm
04:04 PM 13.6°F-10.2°C 8.3°F-13.2°C 79% 3.0 mph WSW4.8 kmh WSW -- 30.07 in1018.3 mb 0.00 in0.0 mm 0.00 in0.0 mm 0.00 in0.0 mm
04:05 PM 13.6°F-10.2°C 8.3°F-13.2°C 79% 2.0 mph W3.2 kmh W -- 30.07 in1018.3 mb 0.00 in0.0 mm 0.00 in0.0 mm 0.00 in0.0 mm
04:06 PM 13.3°F-10.4°C 7.9°F-13.4°C 79% 2.0 mph W3.2 kmh W -- 30.06 in1017.9 mb 0.00 in0.0 mm 0.00 in0.0 mm 0.00 in0.0 mm
04:08 PM 13.1°F-10.5°C 8.0°F-13.3°C 80% 2.0 mph W3.2 kmh W -- 30.07 in1018.3 mb 0.00 in0.0 mm 0.00 in0.0 mm 0.00 in0.0 mm
04:10 PM 13.1°F-10.5°C 8.0°F-13.3°C 80% Calm Calm -- 30.06 in1017.9 mb 0.00 in0.0 mm 0.00 in0.0 mm 0.00 in0.0 mm
04:11 PM 12.8°F-10.7°C 7.7°F-13.5°C 80% Calm Calm -- 30.07 in1018.3 mb 0.00 in0.0 mm 0.00 in0.0 mm 0.00 in0.0 mm
04:13 PM 12.6°F-10.8°C 7.8°F-13.4°C 81% Calm Calm -- 30.06 in1017.9 mb 0.00 in0.0 mm 0.00 in0.0 mm 0.00 in0.0 mm
04:14 PM 12.5°F-10.8°C 7.8°F-13.4°C 81% Calm Calm -- 30.06 in1017.9 mb 0.00 in0.0 mm 0.00 in0.0 mm 0.00 in0.0 mm
04:15 PM 12.6°F-10.8°C 8.0°F-13.3°C 82% Calm Calm -- 30.06 in1017.9 mb 0.00 in0.0 mm 0.00 in0.0 mm 0.00 in0.0 mm
04:16 PM 12.5°F-10.8°C 7.8°F-13.4°C 81% Calm Calm -- 30.06 in1017.9 mb 0.00 in0.0 mm 0.00 in0.0 mm 0.00 in0.0 mm
04:17 PM 12.4°F-10.9°C 7.6°F-13.6°C 81% Calm Calm -- 30.06 in1017.9 mb 0.00 in0.0 mm 0.00 in0.0 mm 0.00 in0.0 mm
04:18 PM 12.4°F-10.9°C 8.1°F-13.3°C 83% Calm Calm -- 30.06 in1017.9 mb 0.00 in0.0 mm 0.00 in0.0 mm 0.00 in0.0 mm
04:20 PM 12.2°F-11.0°C 8.0°F-13.3°C 83% Calm Calm -- 30.06 in1017.9 mb 0.00 in0.0 mm 0.00 in0.0 mm 0.00 in0.0 mm
04:21 PM 12.2°F-11.0°C 8.0°F-13.3°C 83% Calm Calm -- 30.07 in1018.3 mb 0.00 in0.0 mm 0.00 in0.0 mm 0.00 in0.0 mm
04:22 PM 12.0°F-11.1°C 7.8°F-13.4°C 83% Calm Calm -- 30.06 in1017.9 mb 0.00 in0.0 mm 0.00 in0.0 mm 0.00 in0.0 mm
04:23 PM 11.6°F-11.3°C 7.4°F-13.7°C 83% Calm Calm -- 30.06 in1017.9 mb 0.00 in0.0 mm 0.00 in0.0 mm 0.00 in0.0 mm
04:25 PM 11.7°F-11.3°C 7.4°F-13.7°C 83% Calm Calm -- 30.06 in1017.9 mb 0.00 in0.0 mm 0.00 in0.0 mm 0.00 in0.0 mm
04:26 PM 11.4°F-11.4°C 7.3°F-13.7°C 83% Calm Calm -- 30.06 in1017.9 mb 0.00 in0.0 mm 0.00 in0.0 mm 0.00 in0.0 mm
04:27 PM 11.4°F-11.4°C 7.3°F-13.7°C 83% Calm Calm -- 30.06 in1017.9 mb 0.00 in0.0 mm 0.00 in0.0 mm 0.00 in0.0 mm
04:28 PM 11.4°F-11.4°C 7.8°F-13.4°C 85% Calm Calm -- 30.06 in1017.9 mb 0.00 in0.0 mm 0.00 in0.0 mm 0.00 in0.0 mm
04:29 PM 11.2°F-11.6°C 7.4°F-13.7°C 85% Calm Calm -- 30.06 in1017.9 mb 0.00 in0.0 mm 0.00 in0.0 mm 0.00 in0.0 mm
04:30 PM 11.3°F-11.5°C 7.6°F-13.6°C 85% Calm Calm -- 30.06 in1017.9 mb 0.00 in0.0 mm 0.00 in0.0 mm 0.00 in0.0 mm
04:31 PM 11.2°F-11.6°C 7.4°F-13.7°C 85% Calm Calm -- 30.06 in1017.9 mb 0.00 in0.0 mm 0.00 in0.0 mm 0.00 in0.0 mm
04:32 PM 11.2°F-11.6°C 7.4°F-13.7°C 85% Calm Calm -- 30.06 in1017.9 mb 0.00 in0.0 mm 0.00 in0.0 mm 0.00 in0.0 mm
04:33 PM 11.1°F-11.6°C 7.4°F-13.7°C 85% Calm Calm -- 30.06 in1017.9 mb 0.00 in0.0 mm 0.00 in0.0 mm 0.00 in0.0 mm
04:34 PM 10.8°F-11.8°C 7.1°F-13.8°C 85% 4.0 mph WSW6.4 kmh WSW -- 30.06 in1017.9 mb 0.00 in0.0 mm 0.00 in0.0 mm 0.00 in0.0 mm
04:35 PM 10.9°F-11.7°C 7.3°F-13.7°C 85% 3.0 mph SSW4.8 kmh SSW -- 30.06 in1017.9 mb 0.00 in0.0 mm 0.00 in0.0 mm 0.00 in0.0 mm
04:36 PM 10.8°F-11.8°C 7.1°F-13.8°C 85% 5.0 mph W8.0 kmh W -- 30.06 in1017.9 mb 0.00 in0.0 mm 0.00 in0.0 mm 0.00 in0.0 mm
04:37 PM 10.8°F-11.8°C 7.1°F-13.8°C 85% 3.0 mph W4.8 kmh W -- 30.06 in1017.9 mb 0.00 in0.0 mm 0.00 in0.0 mm 0.00 in0.0 mm
04:38 PM 10.8°F-11.8°C 7.1°F-13.8°C 85% 1.0 mph W1.6 kmh W -- 30.07 in1018.3 mb 0.00 in0.0 mm 0.00 in0.0 mm 0.00 in0.0 mm
04:39 PM 10.8°F-11.8°C 7.1°F-13.8°C 85% 5.0 mph WSW8.0 kmh WSW -- 30.06 in1017.9 mb 0.00 in0.0 mm 0.00 in0.0 mm 0.00 in0.0 mm
04:40 PM 10.9°F-11.7°C 7.3°F-13.7°C 85% 1.0 mph W1.6 kmh W -- 30.06 in1017.9 mb 0.00 in0.0 mm 0.00 in0.0 mm 0.00 in0.0 mm
04:41 PM 10.8°F-11.8°C 7.1°F-13.8°C 85% 5.0 mph SSW8.0 kmh SSW -- 30.06 in1017.9 mb 0.00 in0.0 mm 0.00 in0.0 mm 0.00 in0.0 mm
04:42 PM 11.1°F-11.6°C 7.4°F-13.7°C 85% 5.0 mph SW8.0 kmh SW -- 30.06 in1017.9 mb 0.00 in0.0 mm 0.00 in0.0 mm 0.00 in0.0 mm
04:43 PM 11.1°F-11.6°C 7.4°F-13.7°C 85% 2.0 mph SW3.2 kmh SW -- 30.06 in1017.9 mb 0.00 in0.0 mm 0.00 in0.0 mm 0.00 in0.0 mm
04:44 PM 11.1°F-11.6°C 7.4°F-13.7°C 85% Calm Calm -- 30.06 in1017.9 mb 0.00 in0.0 mm 0.00 in0.0 mm 0.00 in0.0 mm
04:45 PM 11.1°F-11.6°C 7.4°F-13.7°C 85% 2.0 mph WSW3.2 kmh WSW -- 30.06 in1017.9 mb 0.00 in0.0 mm 0.00 in0.0 mm 0.00 in0.0 mm
04:46 PM 11.1°F-11.6°C 7.4°F-13.7°C 85% 2.0 mph S3.2 kmh S -- 30.07 in1018.3 mb 0.00 in0.0 mm 0.00 in0.0 mm 0.00 in0.0 mm
04:47 PM 11.1°F-11.6°C 7.4°F-13.7°C 85% Calm Calm -- 30.06 in1017.9 mb 0.00 in0.0 mm 0.00 in0.0 mm 0.00 in0.0 mm
04:48 PM 10.8°F-11.8°C 7.1°F-13.8°C 85% Calm Calm -- 30.07 in1018.3 mb 0.00 in0.0 mm 0.00 in0.0 mm 0.00 in0.0 mm
04:49 PM 10.8°F-11.8°C 7.1°F-13.8°C 85% Calm Calm -- 30.06 in1017.9 mb 0.00 in0.0 mm 0.00 in0.0 mm 0.00 in0.0 mm
04:50 PM 10.9°F-11.7°C 7.3°F-13.7°C 85% Calm Calm -- 30.07 in1018.3 mb 0.00 in0.0 mm 0.00 in0.0 mm 0.00 in0.0 mm
04:51 PM 10.8°F-11.8°C 7.1°F-13.8°C 85% 4.0 mph SSE6.4 kmh SSE -- 30.07 in1018.3 mb 0.00 in0.0 mm 0.00 in0.0 mm 0.00 in0.0 mm
04:52 PM 10.8°F-11.8°C 7.1°F-13.8°C 85% 2.0 mph SSW3.2 kmh SSW -- 30.06 in1017.9 mb 0.00 in0.0 mm 0.00 in0.0 mm 0.00 in0.0 mm
04:54 PM 10.8°F-11.8°C 7.1°F-13.8°C 85% Calm Calm -- 30.06 in1017.9 mb 0.00 in0.0 mm 0.00 in0.0 mm 0.00 in0.0 mm
04:55 PM 10.9°F-11.7°C 7.3°F-13.7°C 85% Calm Calm -- 30.07 in1018.3 mb 0.00 in0.0 mm 0.00 in0.0 mm 0.00 in0.0 mm
04:56 PM 10.8°F-11.8°C 7.1°F-13.8°C 85% 1.0 mph S1.6 kmh S -- 30.06 in1017.9 mb 0.00 in0.0 mm 0.00 in0.0 mm 0.00 in0.0 mm
04:57 PM 10.8°F-11.8°C 7.1°F-13.8°C 85% Calm Calm -- 30.06 in1017.9 mb 0.00 in0.0 mm 0.00 in0.0 mm 0.00 in0.0 mm
04:58 PM 10.8°F-11.8°C 7.1°F-13.8°C 85% Calm Calm -- 30.06 in1017.9 mb 0.00 in0.0 mm 0.00 in0.0 mm 0.00 in0.0 mm
04:59 PM 10.8°F-11.8°C 7.1°F-13.8°C 85% 2.0 mph ESE3.2 kmh ESE -- 30.06 in1017.9 mb 0.00 in0.0 mm 0.00 in0.0 mm 0.00 in0.0 mm
05:00 PM 10.8°F-11.8°C 7.1°F-13.8°C 85% 1.0 mph SE1.6 kmh SE -- 30.06 in1017.9 mb 0.00 in0.0 mm 0.00 in0.0 mm 0.00 in0.0 mm
05:02 PM 10.6°F-11.9°C 7.2°F-13.8°C 86% 2.0 mph SE3.2 kmh SE -- 30.06 in1017.9 mb 0.00 in0.0 mm 0.00 in0.0 mm 0.00 in0.0 mm
05:03 PM 10.6°F-11.9°C 7.2°F-13.8°C 86% 4.0 mph SW6.4 kmh SW -- 30.06 in1017.9 mb 0.00 in0.0 mm 0.00 in0.0 mm 0.00 in0.0 mm
05:04 PM 10.8°F-11.8°C 7.4°F-13.7°C 86% 3.0 mph ESE4.8 kmh ESE -- 30.06 in1017.9 mb 0.00 in0.0 mm 0.00 in0.0 mm 0.00 in0.0 mm
05:05 PM 10.8°F-11.8°C 7.4°F-13.7°C 86% 1.0 mph ESE1.6 kmh ESE -- 30.06 in1017.9 mb 0.00 in0.0 mm 0.00 in0.0 mm 0.00 in0.0 mm
05:06 PM 10.6°F-11.9°C 7.2°F-13.8°C 86% 2.0 mph E3.2 kmh E -- 30.06 in1017.9 mb 0.00 in0.0 mm 0.00 in0.0 mm 0.00 in0.0 mm
05:07 PM 10.3°F-12.1°C 6.8°F-14.0°C 86% 2.0 mph ESE3.2 kmh ESE -- 30.06 in1017.9 mb 0.00 in0.0 mm 0.00 in0.0 mm 0.00 in0.0 mm
05:09 PM 10.3°F-12.1°C 6.8°F-14.0°C 86% 2.0 mph E3.2 kmh E -- 30.06 in1017.9 mb 0.00 in0.0 mm 0.00 in0.0 mm 0.00 in0.0 mm
05:10 PM 10.4°F-12.0°C 7.0°F-13.9°C 86% 2.0 mph E3.2 kmh E -- 30.05 in1017.6 mb 0.00 in0.0 mm 0.00 in0.0 mm 0.00 in0.0 mm
05:11 PM 10.1°F-12.2°C 6.6°F-14.1°C 86% 2.0 mph ESE3.2 kmh ESE -- 30.05 in1017.6 mb 0.00 in0.0 mm 0.00 in0.0 mm 0.00 in0.0 mm
05:13 PM 10.1°F-12.2°C 6.6°F-14.1°C 86% 2.0 mph ESE3.2 kmh ESE -- 30.06 in1017.9 mb 0.00 in0.0 mm 0.00 in0.0 mm 0.00 in0.0 mm
05:14 PM 10.1°F-12.2°C 6.6°F-14.1°C 86% 3.0 mph SE4.8 kmh SE -- 30.06 in1017.9 mb 0.00 in0.0 mm 0.00 in0.0 mm 0.00 in0.0 mm
05:15 PM 10.2°F-12.1°C 6.8°F-14.0°C 86% 2.0 mph ESE3.2 kmh ESE -- 30.06 in1017.9 mb 0.00 in0.0 mm 0.00 in0.0 mm 0.00 in0.0 mm
05:16 PM 10.1°F-12.2°C 6.6°F-14.1°C 86% 2.0 mph E3.2 kmh E -- 30.05 in1017.6 mb 0.00 in0.0 mm 0.00 in0.0 mm 0.00 in0.0 mm
05:17 PM 10.1°F-12.2°C 6.6°F-14.1°C 86% 1.0 mph E1.6 kmh E -- 30.05 in1017.6 mb 0.00 in0.0 mm 0.00 in0.0 mm 0.00 in0.0 mm
05:18 PM 10.1°F-12.2°C 6.6°F-14.1°C 86% 1.0 mph E1.6 kmh E -- 30.06 in1017.9 mb 0.00 in0.0 mm 0.00 in0.0 mm 0.00 in0.0 mm
05:19 PM 10.1°F-12.2°C 6.6°F-14.1°C 86% 1.0 mph ENE1.6 kmh ENE -- 30.06 in1017.9 mb 0.00 in0.0 mm 0.00 in0.0 mm 0.00 in0.0 mm
05:20 PM 10.1°F-12.2°C 6.6°F-14.1°C 86% Calm Calm -- 30.05 in1017.6 mb 0.00 in0.0 mm 0.00 in0.0 mm 0.00 in0.0 mm
05:21 PM 10.1°F-12.2°C 6.6°F-14.1°C 86% 1.0 mph SSE1.6 kmh SSE -- 30.05 in1017.6 mb 0.00 in0.0 mm 0.00 in0.0 mm 0.00 in0.0 mm
05:22 PM 10.2°F-12.1°C 7.1°F-13.8°C 87% 2.0 mph ESE3.2 kmh ESE -- 30.06 in1017.9 mb 0.00 in0.0 mm 0.00 in0.0 mm 0.00 in0.0 mm
05:24 PM 10.1°F-12.2°C 6.6°F-14.1°C 86% 5.0 mph SW8.0 kmh SW -- 30.06 in1017.9 mb 0.00 in0.0 mm 0.00 in0.0 mm 0.00 in0.0 mm
05:25 PM 10.2°F-12.1°C 6.8°F-14.0°C 86% 2.0 mph SW3.2 kmh SW -- 30.06 in1017.9 mb 0.00 in0.0 mm 0.00 in0.0 mm 0.00 in0.0 mm
05:26 PM 10.3°F-12.1°C 6.8°F-14.0°C 86% 2.0 mph SSW3.2 kmh SSW -- 30.06 in1017.9 mb 0.00 in0.0 mm 0.00 in0.0 mm 0.00 in0.0 mm
05:27 PM 10.3°F-12.1°C 6.8°F-14.0°C 86% 3.0 mph SSW4.8 kmh SSW -- 30.06 in1017.9 mb 0.00 in0.0 mm 0.00 in0.0 mm 0.00 in0.0 mm
05:28 PM 10.6°F-11.9°C 7.2°F-13.8°C 86% Calm Calm -- 30.06 in1017.9 mb 0.00 in0.0 mm 0.00 in0.0 mm 0.00 in0.0 mm
05:29 PM 10.6°F-11.9°C 7.2°F-13.8°C 86% 4.0 mph SSE6.4 kmh SSE -- 30.06 in1017.9 mb 0.00 in0.0 mm 0.00 in0.0 mm 0.00 in0.0 mm
05:32 PM 10.6°F-11.9°C 7.2°F-13.8°C 86% 3.0 mph S4.8 kmh S -- 30.06 in1017.9 mb 0.00 in0.0 mm 0.00 in0.0 mm 0.00 in0.0 mm
05:33 PM 10.6°F-11.9°C 7.2°F-13.8°C 86% 4.0 mph SW6.4 kmh SW -- 30.06 in1017.9 mb 0.00 in0.0 mm 0.00 in0.0 mm 0.00 in0.0 mm
05:34 PM 10.6°F-11.9°C 7.2°F-13.8°C 86% 3.0 mph S4.8 kmh S -- 30.06 in1017.9 mb 0.00 in0.0 mm 0.00 in0.0 mm 0.00 in0.0 mm
05:35 PM 10.6°F-11.9°C 7.2°F-13.8°C 86% 1.0 mph SW1.6 kmh SW -- 30.06 in1017.9 mb 0.00 in0.0 mm 0.00 in0.0 mm 0.00 in0.0 mm
05:36 PM 10.6°F-11.9°C 6.9°F-13.9°C 85% 2.0 mph SSW3.2 kmh SSW -- 30.06 in1017.9 mb 0.00 in0.0 mm 0.00 in0.0 mm 0.00 in0.0 mm
05:37 PM 10.6°F-11.9°C 6.9°F-13.9°C 85% 3.0 mph S4.8 kmh S -- 30.06 in1017.9 mb 0.00 in0.0 mm 0.00 in0.0 mm 0.00 in0.0 mm
05:38 PM 10.8°F-11.8°C 7.1°F-13.8°C 85% 2.0 mph SW3.2 kmh SW -- 30.06 in1017.9 mb 0.00 in0.0 mm 0.00 in0.0 mm 0.00 in0.0 mm
05:39 PM 10.8°F-11.8°C 7.1°F-13.8°C 85% 6.0 mph SSW9.7 kmh SSW -- 30.06 in1017.9 mb 0.00 in0.0 mm 0.00 in0.0 mm 0.00 in0.0 mm
05:40 PM 10.8°F-11.8°C 7.1°F-13.8°C 85% 3.0 mph SE4.8 kmh SE -- 30.06 in1017.9 mb 0.00 in0.0 mm 0.00 in0.0 mm 0.00 in0.0 mm
05:41 PM 10.8°F-11.8°C 7.1°F-13.8°C 85% 2.0 mph SSE3.2 kmh SSE -- 30.06 in1017.9 mb 0.00 in0.0 mm 0.00 in0.0 mm 0.00 in0.0 mm
05:42 PM 10.8°F-11.8°C 7.1°F-13.8°C 85% 4.0 mph SSW6.4 kmh SSW -- 30.06 in1017.9 mb 0.00 in0.0 mm 0.00 in0.0 mm 0.00 in0.0 mm
05:43 PM 10.8°F-11.8°C 7.1°F-13.8°C 85% 2.0 mph S3.2 kmh S -- 30.06 in1017.9 mb 0.00 in0.0 mm 0.00 in0.0 mm 0.00 in0.0 mm
05:44 PM 10.8°F-11.8°C 7.1°F-13.8°C 85% 1.0 mph SSW1.6 kmh SSW -- 30.06 in1017.9 mb 0.00 in0.0 mm 0.00 in0.0 mm 0.00 in0.0 mm
05:45 PM 10.8°F-11.8°C 7.1°F-13.8°C 85% Calm Calm -- 30.06 in1017.9 mb 0.00 in0.0 mm 0.00 in0.0 mm 0.00 in0.0 mm
05:46 PM 10.8°F-11.8°C 7.1°F-13.8°C 85% Calm Calm -- 30.06 in1017.9 mb 0.00 in0.0 mm 0.00 in0.0 mm 0.00 in0.0 mm
05:47 PM 10.8°F-11.8°C 7.1°F-13.8°C 85% 2.0 mph WSW3.2 kmh WSW -- 30.06 in1017.9 mb 0.00 in0.0 mm 0.00 in0.0 mm 0.00 in0.0 mm
05:48 PM 10.8°F-11.8°C 7.1°F-13.8°C 85% 3.0 mph SSW4.8 kmh SSW -- 30.06 in1017.9 mb 0.00 in0.0 mm 0.00 in0.0 mm 0.00 in0.0 mm
05:49 PM 10.8°F-11.8°C 7.4°F-13.7°C 86% Calm Calm -- 30.06 in1017.9 mb 0.00 in0.0 mm 0.00 in0.0 mm 0.00 in0.0 mm
05:50 PM 10.6°F-11.9°C 7.2°F-13.8°C 86% Calm Calm -- 30.06 in1017.9 mb 0.00 in0.0 mm 0.00 in0.0 mm 0.00 in0.0 mm
05:51 PM 10.3°F-12.1°C 6.8°F-14.0°C 86% Calm Calm -- 30.06 in1017.9 mb 0.00 in0.0 mm 0.00 in0.0 mm 0.00 in0.0 mm
05:52 PM 10.3°F-12.1°C 6.8°F-14.0°C 86% Calm Calm -- 30.06 in1017.9 mb 0.00 in0.0 mm 0.00 in0.0 mm 0.00 in0.0 mm
05:53 PM 10.4°F-12.0°C 7.0°F-13.9°C 86% Calm Calm -- 30.06 in1017.9 mb 0.00 in0.0 mm 0.00 in0.0 mm 0.00 in0.0 mm
05:54 PM 10.3°F-12.1°C 6.8°F-14.0°C 86% Calm Calm -- 30.06 in1017.9 mb 0.00 in0.0 mm 0.00 in0.0 mm 0.00 in0.0 mm
05:55 PM 10.3°F-12.1°C 6.8°F-14.0°C 86% Calm Calm -- 30.06 in1017.9 mb 0.00 in0.0 mm 0.00 in0.0 mm 0.00 in0.0 mm
05:56 PM 10.3°F-12.1°C 6.8°F-14.0°C 86% 3.0 mph SSW4.8 kmh SSW -- 30.06 in1017.9 mb 0.00 in0.0 mm 0.00 in0.0 mm 0.00 in0.0 mm
05:58 PM 10.2°F-12.1°C 7.1°F-13.8°C 87% Calm Calm -- 30.06 in1017.9 mb 0.00 in0.0 mm 0.00 in0.0 mm 0.00 in0.0 mm
05:59 PM 10.1°F-12.2°C 6.6°F-14.1°C 86% 4.0 mph E6.4 kmh E -- 30.06 in1017.9 mb 0.00 in0.0 mm 0.00 in0.0 mm 0.00 in0.0 mm
06:00 PM 10.6°F-11.9°C 7.2°F-13.8°C 86% 1.0 mph SW1.6 kmh SW -- 30.06 in1017.9 mb 0.00 in0.0 mm 0.00 in0.0 mm 0.00 in0.0 mm
06:01 PM 10.6°F-11.9°C 7.2°F-13.8°C 86% 5.0 mph WSW8.0 kmh WSW -- 30.05 in1017.6 mb 0.00 in0.0 mm 0.00 in0.0 mm 0.00 in0.0 mm
06:02 PM 10.6°F-11.9°C 7.2°F-13.8°C 86% 3.0 mph SSW4.8 kmh SSW -- 30.05 in1017.6 mb 0.00 in0.0 mm 0.00 in0.0 mm 0.00 in0.0 mm
06:03 PM 10.6°F-11.9°C 7.4°F-13.7°C 87% 2.0 mph SSW3.2 kmh SSW -- 30.06 in1017.9 mb 0.00 in0.0 mm 0.00 in0.0 mm 0.00 in0.0 mm
06:04 PM 10.6°F-11.9°C 7.2°F-13.8°C 86% 4.0 mph SSW6.4 kmh SSW -- 30.06 in1017.9 mb 0.00 in0.0 mm 0.00 in0.0 mm 0.00 in0.0 mm
06:05 PM 10.6°F-11.9°C 7.2°F-13.8°C 86% 3.0 mph SW4.8 kmh SW -- 30.06 in1017.9 mb 0.00 in0.0 mm 0.00 in0.0 mm 0.00 in0.0 mm
06:06 PM 10.6°F-11.9°C 7.2°F-13.8°C 86% 2.0 mph SSW3.2 kmh SSW -- 30.06 in1017.9 mb 0.00 in0.0 mm 0.00 in0.0 mm 0.00 in0.0 mm
06:07 PM 10.6°F-11.9°C 7.2°F-13.8°C 86% 2.0 mph SW3.2 kmh SW -- 30.06 in1017.9 mb 0.00 in0.0 mm 0.00 in0.0 mm 0.00 in0.0 mm
06:08 PM 10.8°F-11.8°C 7.6°F-13.6°C 87% 3.0 mph SW4.8 kmh SW -- 30.06 in1017.9 mb 0.00 in0.0 mm 0.00 in0.0 mm 0.00 in0.0 mm
06:09 PM 10.8°F-11.8°C 7.4°F-13.7°C 86% 2.0 mph SW3.2 kmh SW -- 30.06 in1017.9 mb 0.00 in0.0 mm 0.00 in0.0 mm 0.00 in0.0 mm
06:10 PM 10.8°F-11.8°C 7.4°F-13.7°C 86% 1.0 mph SW1.6 kmh SW -- 30.06 in1017.9 mb 0.00 in0.0 mm 0.00 in0.0 mm 0.00 in0.0 mm
06:11 PM 10.8°F-11.8°C 7.4°F-13.7°C 86% 2.0 mph SSW3.2 kmh SSW -- 30.06 in1017.9 mb 0.00 in0.0 mm 0.00 in0.0 mm 0.00 in0.0 mm
06:12 PM 10.8°F-11.8°C 7.4°F-13.7°C 86% 3.0 mph SSW4.8 kmh SSW -- 30.06 in1017.9 mb 0.00 in0.0 mm 0.00 in0.0 mm 0.00 in0.0 mm
06:13 PM 10.9°F-11.7°C 7.5°F-13.6°C 86% 2.0 mph S3.2 kmh S -- 30.06 in1017.9 mb 0.00 in0.0 mm 0.00 in0.0 mm 0.00 in0.0 mm
06:14 PM 10.8°F-11.8°C 7.4°F-13.7°C 86% 2.0 mph SW3.2 kmh SW -- 30.06 in1017.9 mb 0.00 in0.0 mm 0.00 in0.0 mm 0.00 in0.0 mm
06:15 PM 10.8°F-11.8°C 7.4°F-13.7°C 86% 1.0 mph SSW1.6 kmh SSW -- 30.06 in1017.9 mb 0.00 in0.0 mm 0.00 in0.0 mm 0.00 in0.0 mm
06:16 PM 10.8°F-11.8°C 7.4°F-13.7°C 86% 3.0 mph WSW4.8 kmh WSW -- 30.06 in1017.9 mb 0.00 in0.0 mm 0.00 in0.0 mm 0.00 in0.0 mm
06:17 PM 10.8°F-11.8°C 7.4°F-13.7°C 86% 1.0 mph SSE1.6 kmh SSE -- 30.05 in1017.6 mb 0.00 in0.0 mm 0.00 in0.0 mm 0.00 in0.0 mm
06:18 PM 10.9°F-11.7°C 7.5°F-13.6°C 86% 2.0 mph SW3.2 kmh SW -- 30.05 in1017.6 mb 0.00 in0.0 mm 0.00 in0.0 mm 0.00 in0.0 mm
06:19 PM 10.8°F-11.8°C 7.4°F-13.7°C 86% 2.0 mph SSW3.2 kmh SSW -- 30.05 in1017.6 mb 0.00 in0.0 mm 0.00 in0.0 mm 0.00 in0.0 mm
06:20 PM 10.8°F-11.8°C 7.4°F-13.7°C 86% 1.0 mph SSW1.6 kmh SSW -- 30.05 in1017.6 mb 0.00 in0.0 mm 0.00 in0.0 mm 0.00 in0.0 mm
06:21 PM 10.8°F-11.8°C 7.4°F-13.7°C 86% 4.0 mph SW6.4 kmh SW -- 30.05 in1017.6 mb 0.00 in0.0 mm 0.00 in0.0 mm 0.00 in0.0 mm
06:22 PM 10.8°F-11.8°C 7.4°F-13.7°C 86% 3.0 mph SSW4.8 kmh SSW -- 30.05 in1017.6 mb 0.00 in0.0 mm 0.00 in0.0 mm 0.00 in0.0 mm
06:23 PM 10.9°F-11.7°C 7.5°F-13.6°C 86% 2.0 mph SW3.2 kmh SW -- 30.05 in1017.6 mb 0.00 in0.0 mm 0.00 in0.0 mm 0.00 in0.0 mm
06:24 PM 10.8°F-11.8°C 7.4°F-13.7°C 86% 2.0 mph SSW3.2 kmh SSW -- 30.05 in1017.6 mb 0.00 in0.0 mm 0.00 in0.0 mm 0.00 in0.0 mm
06:25 PM 10.8°F-11.8°C 7.4°F-13.7°C 86% 3.0 mph S4.8 kmh S -- 30.05 in1017.6 mb 0.00 in0.0 mm 0.00 in0.0 mm 0.00 in0.0 mm
06:26 PM 10.8°F-11.8°C 7.4°F-13.7°C 86% 3.0 mph SSW4.8 kmh SSW -- 30.05 in1017.6 mb 0.00 in0.0 mm 0.00 in0.0 mm 0.00 in0.0 mm
06:27 PM 10.8°F-11.8°C 7.4°F-13.7°C 86% 4.0 mph W6.4 kmh W -- 30.05 in1017.6 mb 0.00 in0.0 mm 0.00 in0.0 mm 0.00 in0.0 mm
06:28 PM 11.1°F-11.6°C 7.7°F-13.5°C 86% 2.0 mph SSW3.2 kmh SSW -- 30.05 in1017.6 mb 0.00 in0.0 mm 0.00 in0.0 mm 0.00 in0.0 mm
06:31 PM 11.1°F-11.6°C 7.7°F-13.5°C 86% 1.0 mph S1.6 kmh S -- 30.05 in1017.6 mb 0.00 in0.0 mm 0.00 in0.0 mm 0.00 in0.0 mm
06:32 PM 11.1°F-11.6°C 7.7°F-13.5°C 86% 3.0 mph S4.8 kmh S -- 30.05 in1017.6 mb 0.00 in0.0 mm 0.00 in0.0 mm 0.00 in0.0 mm
06:33 PM 11.1°F-11.6°C 7.7°F-13.5°C 86% 2.0 mph WSW3.2 kmh WSW -- 30.05 in1017.6 mb 0.00 in0.0 mm 0.00 in0.0 mm 0.00 in0.0 mm
06:34 PM 11.2°F-11.6°C 7.4°F-13.7°C 85% Calm Calm -- 30.05 in1017.6 mb 0.00 in0.0 mm 0.00 in0.0 mm 0.00 in0.0 mm
06:35 PM 11.1°F-11.6°C 7.4°F-13.7°C 85% 2.0 mph SE3.2 kmh SE -- 30.04 in1017.3 mb 0.00 in0.0 mm 0.00 in0.0 mm 0.00 in0.0 mm
06:36 PM 11.1°F-11.6°C 7.4°F-13.7°C 85% Calm Calm -- 30.04 in1017.3 mb 0.00 in0.0 mm 0.00 in0.0 mm 0.00 in0.0 mm
06:37 PM 11.1°F-11.6°C 7.4°F-13.7°C 85% 2.0 mph SSE3.2 kmh SSE -- 30.05 in1017.6 mb 0.00 in0.0 mm 0.00 in0.0 mm 0.00 in0.0 mm
06:38 PM 11.1°F-11.6°C 7.4°F-13.7°C 85% 3.0 mph WSW4.8 kmh WSW -- 30.05 in1017.6 mb 0.00 in0.0 mm 0.00 in0.0 mm 0.00 in0.0 mm
06:39 PM 10.8°F-11.8°C 6.6°F-14.1°C 83% 2.0 mph W3.2 kmh W -- 30.04 in1017.3 mb 0.00 in0.0 mm 0.00 in0.0 mm 0.00 in0.0 mm
06:40 PM 10.8°F-11.8°C 6.6°F-14.1°C 83% 2.0 mph SE3.2 kmh SE -- 30.04 in1017.3 mb 0.00 in0.0 mm 0.00 in0.0 mm 0.00 in0.0 mm
06:41 PM 10.6°F-11.9°C 6.4°F-14.2°C 83% 1.0 mph ESE1.6 kmh ESE -- 30.04 in1017.3 mb 0.00 in0.0 mm 0.00 in0.0 mm 0.00 in0.0 mm
06:42 PM 10.3°F-12.1°C 6.0°F-14.4°C 83% Calm Calm -- 30.04 in1017.3 mb 0.00 in0.0 mm 0.00 in0.0 mm 0.00 in0.0 mm
06:43 PM 10.2°F-12.1°C 6.0°F-14.4°C 83% 1.0 mph ESE1.6 kmh ESE -- 30.04 in1017.3 mb 0.00 in0.0 mm 0.00 in0.0 mm 0.00 in0.0 mm
06:44 PM 10.0°F-12.2°C 5.3°F-14.8°C 81% 2.0 mph ESE3.2 kmh ESE -- 30.04 in1017.3 mb 0.00 in0.0 mm 0.00 in0.0 mm 0.00 in0.0 mm
06:45 PM 9.6°F-12.4°C 5.0°F-15.0°C 81% Calm Calm -- 30.04 in1017.3 mb 0.00 in0.0 mm 0.00 in0.0 mm 0.00 in0.0 mm
06:46 PM 9.5°F-12.5°C 4.8°F-15.1°C 81% 2.0 mph E3.2 kmh E -- 30.04 in1017.3 mb 0.00 in0.0 mm 0.00 in0.0 mm 0.00 in0.0 mm
06:47 PM 9.1°F-12.7°C 5.0°F-15.0°C 83% 2.0 mph E3.2 kmh E -- 30.04 in1017.3 mb 0.00 in0.0 mm 0.00 in0.0 mm 0.00 in0.0 mm
06:48 PM 8.8°F-12.9°C 4.6°F-15.2°C 83% 1.0 mph E1.6 kmh E -- 30.04 in1017.3 mb 0.00 in0.0 mm 0.00 in0.0 mm 0.00 in0.0 mm
06:49 PM 8.3°F-13.2°C 4.1°F-15.5°C 83% 1.0 mph E1.6 kmh E -- 30.05 in1017.6 mb 0.00 in0.0 mm 0.00 in0.0 mm 0.00 in0.0 mm
06:50 PM 8.1°F-13.3°C 3.9°F-15.6°C 83% Calm Calm -- 30.05 in1017.6 mb 0.00 in0.0 mm 0.00 in0.0 mm 0.00 in0.0 mm
06:51 PM 8.1°F-13.3°C 3.9°F-15.6°C 83% 2.0 mph ENE3.2 kmh ENE -- 30.05 in1017.6 mb 0.00 in0.0 mm 0.00 in0.0 mm 0.00 in0.0 mm
06:52 PM 7.9°F-13.4°C 3.7°F-15.7°C 83% Calm Calm -- 30.05 in1017.6 mb 0.00 in0.0 mm 0.00 in0.0 mm 0.00 in0.0 mm
06:53 PM 7.7°F-13.5°C 4.1°F-15.5°C 85% Calm Calm -- 30.05 in1017.6 mb 0.00 in0.0 mm 0.00 in0.0 mm 0.00 in0.0 mm
06:54 PM 7.5°F-13.6°C 3.9°F-15.6°C 85% 2.0 mph E3.2 kmh E -- 30.05 in1017.6 mb 0.00 in0.0 mm 0.00 in0.0 mm 0.00 in0.0 mm
06:55 PM 7.5°F-13.6°C 3.9°F-15.6°C 85% Calm Calm -- 30.05 in1017.6 mb 0.00 in0.0 mm 0.00 in0.0 mm 0.00 in0.0 mm
06:56 PM 7.5°F-13.6°C 3.9°F-15.6°C 85% 2.0 mph E3.2 kmh E -- 30.05 in1017.6 mb 0.00 in0.0 mm 0.00 in0.0 mm 0.00 in0.0 mm
06:57 PM 7.1°F-13.8°C 3.8°F-15.7°C 86% 2.0 mph ESE3.2 kmh ESE -- 30.05 in1017.6 mb 0.00 in0.0 mm 0.00 in0.0 mm 0.00 in0.0 mm
06:58 PM 7.2°F-13.8°C 3.8°F-15.7°C 86% 2.0 mph SE3.2 kmh SE -- 30.05 in1017.6 mb 0.00 in0.0 mm 0.00 in0.0 mm 0.00 in0.0 mm
06:59 PM 6.8°F-14.0°C 3.5°F-15.8°C 86% 2.0 mph SE3.2 kmh SE -- 30.04 in1017.3 mb 0.00 in0.0 mm 0.00 in0.0 mm 0.00 in0.0 mm
07:00 PM 6.3°F-14.3°C 2.9°F-16.2°C 86% 3.0 mph SE4.8 kmh SE -- 30.04 in1017.3 mb 0.00 in0.0 mm 0.00 in0.0 mm 0.00 in0.0 mm
07:01 PM 6.3°F-14.3°C 2.9°F-16.2°C 86% 2.0 mph ESE3.2 kmh ESE -- 30.04 in1017.3 mb 0.00 in0.0 mm 0.00 in0.0 mm 0.00 in0.0 mm
07:02 PM 6.3°F-14.3°C 2.9°F-16.2°C 86% 3.0 mph SE4.8 kmh SE -- 30.04 in1017.3 mb 0.00 in0.0 mm 0.00 in0.0 mm 0.00 in0.0 mm
07:03 PM 6.3°F-14.3°C 3.2°F-16.0°C 87% 2.0 mph ESE3.2 kmh ESE -- 30.05 in1017.6 mb 0.00 in0.0 mm 0.00 in0.0 mm 0.00 in0.0 mm
07:04 PM 6.1°F-14.4°C 3.3°F-15.9°C 88% 3.0 mph ESE4.8 kmh ESE -- 30.05 in1017.6 mb 0.00 in0.0 mm 0.00 in0.0 mm 0.00 in0.0 mm
07:05 PM 5.9°F-14.5°C 3.1°F-16.1°C 88% 3.0 mph ESE4.8 kmh ESE -- 30.05 in1017.6 mb 0.00 in0.0 mm 0.00 in0.0 mm 0.00 in0.0 mm
07:06 PM 5.9°F-14.5°C 3.1°F-16.1°C 88% 2.0 mph ESE3.2 kmh ESE -- 30.05 in1017.6 mb 0.00 in0.0 mm 0.00 in0.0 mm 0.00 in0.0 mm
07:07 PM 5.9°F-14.5°C 3.1°F-16.1°C 88% 2.0 mph SE3.2 kmh SE -- 30.05 in1017.6 mb 0.00 in0.0 mm 0.00 in0.0 mm 0.00 in0.0 mm
07:08 PM 5.7°F-14.6°C 3.1°F-16.1°C 89% 2.0 mph SE3.2 kmh SE -- 30.05 in1017.6 mb 0.00 in0.0 mm 0.00 in0.0 mm 0.00 in0.0 mm
07:09 PM 5.5°F-14.7°C 2.7°F-16.3°C 88% 2.0 mph ESE3.2 kmh ESE -- 30.05 in1017.6 mb 0.00 in0.0 mm 0.00 in0.0 mm 0.00 in0.0 mm
07:11 PM 5.5°F-14.7°C 2.7°F-16.3°C 88% 1.0 mph ESE1.6 kmh ESE -- 30.04 in1017.3 mb 0.00 in0.0 mm 0.00 in0.0 mm 0.00 in0.0 mm
07:12 PM 5.4°F-14.8°C 2.5°F-16.4°C 88% 1.0 mph E1.6 kmh E -- 30.04 in1017.3 mb 0.00 in0.0 mm 0.00 in0.0 mm 0.00 in0.0 mm
07:13 PM 5.4°F-14.8°C 3.0°F-16.1°C 90% 2.0 mph E3.2 kmh E -- 30.04 in1017.3 mb 0.00 in0.0 mm 0.00 in0.0 mm 0.00 in0.0 mm
07:14 PM 5.4°F-14.8°C 3.0°F-16.1°C 90% 2.0 mph ESE3.2 kmh ESE -- 30.04 in1017.3 mb 0.00 in0.0 mm 0.00 in0.0 mm 0.00 in0.0 mm
07:15 PM 5.4°F-14.8°C 3.3°F-15.9°C 91% 2.0 mph ESE3.2 kmh ESE -- 30.05 in1017.6 mb 0.00 in0.0 mm 0.00 in0.0 mm 0.00 in0.0 mm
07:16 PM 5.4°F-14.8°C 3.3°F-15.9°C 91% 2.0 mph SE3.2 kmh SE -- 30.05 in1017.6 mb 0.00 in0.0 mm 0.00 in0.0 mm 0.00 in0.0 mm
07:17 PM 5.4°F-14.8°C 3.3°F-15.9°C 91% 1.0 mph SE1.6 kmh SE -- 30.04 in1017.3 mb 0.00 in0.0 mm 0.00 in0.0 mm 0.00 in0.0 mm
07:18 PM 5.4°F-14.8°C 3.3°F-15.9°C 91% Calm Calm -- 30.05 in1017.6 mb 0.00 in0.0 mm 0.00 in0.0 mm 0.00 in0.0 mm
07:19 PM 5.4°F-14.8°C 3.3°F-15.9°C 91% 2.0 mph SE3.2 kmh SE -- 30.04 in1017.3 mb 0.00 in0.0 mm 0.00 in0.0 mm 0.00 in0.0 mm
07:20 PM 5.1°F-14.9°C 3.1°F-16.1°C 91% 2.0 mph SE3.2 kmh SE -- 30.04 in1017.3 mb 0.00 in0.0 mm 0.00 in0.0 mm 0.00 in0.0 mm
07:21 PM 5.1°F-14.9°C 3.1°F-16.1°C 91% 2.0 mph ESE3.2 kmh ESE -- 30.04 in1017.3 mb 0.00 in0.0 mm 0.00 in0.0 mm 0.00 in0.0 mm
07:22 PM 5.1°F-14.9°C 3.1°F-16.1°C 91% 1.0 mph ESE1.6 kmh ESE -- 30.04 in1017.3 mb 0.00 in0.0 mm 0.00 in0.0 mm 0.00 in0.0 mm
07:23 PM 5.1°F-14.9°C 3.1°F-16.1°C 91% 2.0 mph ESE3.2 kmh ESE -- 30.04 in1017.3 mb 0.00 in0.0 mm 0.00 in0.0 mm 0.00 in0.0 mm
07:24 PM 5.0°F-15.0°C 2.9°F-16.2°C 91% 2.0 mph SE3.2 kmh SE -- 30.04 in1017.3 mb 0.00 in0.0 mm 0.00 in0.0 mm 0.00 in0.0 mm
07:26 PM 5.0°F-15.0°C 2.9°F-16.2°C 91% 1.0 mph SSE1.6 kmh SSE -- 30.04 in1017.3 mb 0.00 in0.0 mm 0.00 in0.0 mm 0.00 in0.0 mm
07:27 PM 4.5°F-15.3°C 2.4°F-16.4°C 91% Calm Calm -- 30.04 in1017.3 mb 0.00 in0.0 mm 0.00 in0.0 mm 0.00 in0.0 mm
07:29 PM 4.5°F-15.3°C 2.1°F-16.6°C 90% Calm Calm -- 30.04 in1017.3 mb 0.00 in0.0 mm 0.00 in0.0 mm 0.00 in0.0 mm
07:30 PM 4.0°F-15.6°C 1.6°F-16.9°C 90% Calm Calm -- 30.04 in1017.3 mb 0.00 in0.0 mm 0.00 in0.0 mm 0.00 in0.0 mm
07:31 PM 3.9°F-15.6°C 1.6°F-16.9°C 90% Calm Calm -- 30.04 in1017.3 mb 0.00 in0.0 mm 0.00 in0.0 mm 0.00 in0.0 mm
07:32 PM 3.9°F-15.6°C 1.9°F-16.7°C 91% 1.0 mph SSE1.6 kmh SSE -- 30.04 in1017.3 mb 0.00 in0.0 mm 0.00 in0.0 mm 0.00 in0.0 mm
07:33 PM 3.9°F-15.6°C 2.1°F-16.6°C 92% 1.0 mph SSE1.6 kmh SSE -- 30.04 in1017.3 mb 0.00 in0.0 mm 0.00 in0.0 mm 0.00 in0.0 mm
07:34 PM 4.0°F-15.6°C 2.3°F-16.5°C 93% Calm Calm -- 30.04 in1017.3 mb 0.00 in0.0 mm 0.00 in0.0 mm 0.00 in0.0 mm
07:35 PM 4.0°F-15.6°C 2.3°F-16.5°C 93% 2.0 mph SE3.2 kmh SE -- 30.04 in1017.3 mb 0.00 in0.0 mm 0.00 in0.0 mm 0.00 in0.0 mm
07:37 PM 4.0°F-15.6°C 2.3°F-16.5°C 93% Calm Calm -- 30.04 in1017.3 mb 0.00 in0.0 mm 0.00 in0.0 mm 0.00 in0.0 mm
07:38 PM 4.1°F-15.5°C 2.5°F-16.4°C 93% Calm Calm -- 30.04 in1017.3 mb 0.00 in0.0 mm 0.00 in0.0 mm 0.00 in0.0 mm
07:39 PM 3.9°F-15.6°C 1.9°F-16.7°C 91% 2.0 mph SE3.2 kmh SE -- 30.04 in1017.3 mb 0.00 in0.0 mm 0.00 in0.0 mm 0.00 in0.0 mm
07:40 PM 3.9°F-15.6°C 1.9°F-16.7°C 91% Calm Calm -- 30.04 in1017.3 mb 0.00 in0.0 mm 0.00 in0.0 mm 0.00 in0.0 mm
07:41 PM 3.9°F-15.6°C 1.9°F-16.7°C 91% Calm Calm -- 30.04 in1017.3 mb 0.00 in0.0 mm 0.00 in0.0 mm 0.00 in0.0 mm
07:43 PM 3.7°F-15.7°C 1.9°F-16.7°C 92% Calm Calm -- 30.03 in1016.9 mb 0.00 in0.0 mm 0.00 in0.0 mm 0.00 in0.0 mm
07:44 PM 3.7°F-15.7°C 1.7°F-16.8°C 91% Calm Calm -- 30.03 in1016.9 mb 0.00 in0.0 mm 0.00 in0.0 mm 0.00 in0.0 mm
07:45 PM 3.4°F-15.9°C 1.3°F-17.1°C 91% Calm Calm -- 30.03 in1016.9 mb 0.00 in0.0 mm 0.00 in0.0 mm 0.00 in0.0 mm
07:48 PM 3.4°F-15.9°C 1.6°F-16.9°C 92% Calm Calm -- 30.04 in1017.3 mb 0.00 in0.0 mm 0.00 in0.0 mm 0.00 in0.0 mm
07:49 PM 3.1°F-16.1°C 1.0°F-17.2°C 91% Calm Calm -- 30.03 in1016.9 mb 0.00 in0.0 mm 0.00 in0.0 mm 0.00 in0.0 mm
07:50 PM 3.0°F-16.1°C 1.0°F-17.2°C 91% Calm Calm -- 30.03 in1016.9 mb 0.00 in0.0 mm 0.00 in0.0 mm 0.00 in0.0 mm
07:52 PM 2.7°F-16.3°C 0.6°F-17.4°C 91% Calm Calm -- 30.04 in1017.3 mb 0.00 in0.0 mm 0.00 in0.0 mm 0.00 in0.0 mm
07:53 PM 2.8°F-16.2°C 1.0°F-17.2°C 92% Calm Calm -- 30.04 in1017.3 mb 0.00 in0.0 mm 0.00 in0.0 mm 0.00 in0.0 mm
07:54 PM 2.7°F-16.3°C 0.6°F-17.4°C 91% Calm Calm -- 30.03 in1016.9 mb 0.00 in0.0 mm 0.00 in0.0 mm 0.00 in0.0 mm
07:57 PM 2.7°F-16.3°C 0.6°F-17.4°C 91% Calm Calm -- 30.03 in1016.9 mb 0.00 in0.0 mm 0.00 in0.0 mm 0.00 in0.0 mm
07:58 PM 2.7°F-16.3°C 1.1°F-17.2°C 93% Calm Calm -- 30.03 in1016.9 mb 0.00 in0.0 mm 0.00 in0.0 mm 0.00 in0.0 mm
08:00 PM 2.7°F-16.3°C 1.1°F-17.2°C 93% Calm Calm -- 30.03 in1016.9 mb 0.00 in0.0 mm 0.00 in0.0 mm 0.00 in0.0 mm
08:01 PM 2.5°F-16.4°C 0.9°F-17.3°C 93% Calm Calm -- 30.04 in1017.3 mb 0.00 in0.0 mm 0.00 in0.0 mm 0.00 in0.0 mm
08:02 PM 2.5°F-16.4°C 0.9°F-17.3°C 93% Calm Calm -- 30.03 in1016.9 mb 0.00 in0.0 mm 0.00 in0.0 mm 0.00 in0.0 mm
08:04 PM 2.5°F-16.4°C 0.9°F-17.3°C 93% Calm Calm -- 30.03 in1016.9 mb 0.00 in0.0 mm 0.00 in0.0 mm 0.00 in0.0 mm
08:05 PM 2.7°F-16.3°C 1.1°F-17.2°C 93% 2.0 mph E3.2 kmh E -- 30.04 in1017.3 mb 0.00 in0.0 mm 0.00 in0.0 mm 0.00 in0.0 mm
08:06 PM 2.7°F-16.3°C 1.1°F-17.2°C 93% 1.0 mph ESE1.6 kmh ESE -- 30.03 in1016.9 mb 0.00 in0.0 mm 0.00 in0.0 mm 0.00 in0.0 mm
08:07 PM 2.7°F-16.3°C 1.1°F-17.2°C 93% 1.0 mph ESE1.6 kmh ESE -- 30.04 in1017.3 mb 0.00 in0.0 mm 0.00 in0.0 mm 0.00 in0.0 mm
08:08 PM 2.7°F-16.3°C 1.3°F-17.1°C 94% Calm Calm -- 30.04 in1017.3 mb 0.00 in0.0 mm 0.00 in0.0 mm 0.00 in0.0 mm
08:09 PM 2.7°F-16.3°C 1.1°F-17.2°C 93% Calm Calm -- 30.04 in1017.3 mb 0.00 in0.0 mm 0.00 in0.0 mm 0.00 in0.0 mm
08:10 PM 2.7°F-16.3°C 1.1°F-17.2°C 93% Calm Calm -- 30.03 in1016.9 mb 0.00 in0.0 mm 0.00 in0.0 mm 0.00 in0.0 mm
08:11 PM 2.7°F-16.3°C 1.1°F-17.2°C 93% Calm Calm -- 30.04 in1017.3 mb 0.00 in0.0 mm 0.00 in0.0 mm 0.00 in0.0 mm
08:12 PM 2.7°F-16.3°C 1.1°F-17.2°C 93% Calm Calm -- 30.03 in1016.9 mb 0.00 in0.0 mm 0.00 in0.0 mm 0.00 in0.0 mm
08:13 PM 2.8°F-16.2°C 1.5°F-16.9°C 94% 1.0 mph E1.6 kmh E -- 30.04 in1017.3 mb 0.00 in0.0 mm 0.00 in0.0 mm 0.00 in0.0 mm
08:15 PM 3.0°F-16.1°C 1.4°F-17.0°C 93% 1.0 mph E1.6 kmh E -- 30.04 in1017.3 mb 0.00 in0.0 mm 0.00 in0.0 mm 0.00 in0.0 mm
08:16 PM 3.1°F-16.1°C 1.4°F-17.0°C 93% 1.0 mph E1.6 kmh E -- 30.04 in1017.3 mb 0.00 in0.0 mm 0.00 in0.0 mm 0.00 in0.0 mm
08:17 PM 3.4°F-15.9°C 1.8°F-16.8°C 93% Calm Calm -- 30.04 in1017.3 mb 0.00 in0.0 mm 0.00 in0.0 mm 0.00 in0.0 mm
08:18 PM 3.4°F-15.9°C 2.0°F-16.7°C 94% 2.0 mph E3.2 kmh E -- 30.04 in1017.3 mb 0.00 in0.0 mm 0.00 in0.0 mm 0.00 in0.0 mm
08:19 PM 3.5°F-15.8°C 2.0°F-16.7°C 93% 2.0 mph E3.2 kmh E -- 30.04 in1017.3 mb 0.00 in0.0 mm 0.00 in0.0 mm 0.00 in0.0 mm
08:20 PM 3.5°F-15.8°C 2.0°F-16.7°C 93% 3.0 mph E4.8 kmh E -- 30.04 in1017.3 mb 0.00 in0.0 mm 0.00 in0.0 mm 0.00 in0.0 mm
08:22 PM 4.0°F-15.6°C 2.3°F-16.5°C 93% 3.0 mph E4.8 kmh E -- 30.04 in1017.3 mb 0.00 in0.0 mm 0.00 in0.0 mm 0.00 in0.0 mm
08:23 PM 4.3°F-15.4°C 2.9°F-16.2°C 94% 4.0 mph E6.4 kmh E -- 30.04 in1017.3 mb 0.00 in0.0 mm 0.00 in0.0 mm 0.00 in0.0 mm
08:24 PM 4.3°F-15.4°C 2.9°F-16.2°C 94% 4.0 mph E6.4 kmh E -- 30.03 in1016.9 mb 0.00 in0.0 mm 0.00 in0.0 mm 0.00 in0.0 mm
08:25 PM 4.5°F-15.3°C 2.9°F-16.2°C 93% 3.0 mph E4.8 kmh E -- 30.03 in1016.9 mb 0.00 in0.0 mm 0.00 in0.0 mm 0.00 in0.0 mm
08:27 PM 4.5°F-15.3°C 2.9°F-16.2°C 93% 2.0 mph E3.2 kmh E -- 30.03 in1016.9 mb 0.00 in0.0 mm 0.00 in0.0 mm 0.00 in0.0 mm
08:28 PM 4.6°F-15.2°C 3.3°F-15.9°C 94% 3.0 mph E4.8 kmh E -- 30.04 in1017.3 mb 0.00 in0.0 mm 0.00 in0.0 mm 0.00 in0.0 mm
08:29 PM 4.5°F-15.3°C 2.9°F-16.2°C 93% 2.0 mph E3.2 kmh E -- 30.03 in1016.9 mb 0.00 in0.0 mm 0.00 in0.0 mm 0.00 in0.0 mm
08:32 PM 4.5°F-15.3°C 2.9°F-16.2°C 93% 1.0 mph ESE1.6 kmh ESE -- 30.04 in1017.3 mb 0.00 in0.0 mm 0.00 in0.0 mm 0.00 in0.0 mm
08:33 PM 4.6°F-15.2°C 3.3°F-15.9°C 94% 2.0 mph ESE3.2 kmh ESE -- 30.04 in1017.3 mb 0.00 in0.0 mm 0.00 in0.0 mm 0.00 in0.0 mm
08:34 PM 4.5°F-15.3°C 2.9°F-16.2°C 93% 2.0 mph ESE3.2 kmh ESE -- 30.04 in1017.3 mb 0.00 in0.0 mm 0.00 in0.0 mm 0.00 in0.0 mm
08:36 PM 4.5°F-15.3°C 2.9°F-16.2°C 93% Calm Calm -- 30.04 in1017.3 mb 0.00 in0.0 mm 0.00 in0.0 mm 0.00 in0.0 mm
08:37 PM 4.3°F-15.4°C 2.7°F-16.3°C 93% Calm Calm -- 30.04 in1017.3 mb 0.00 in0.0 mm 0.00 in0.0 mm 0.00 in0.0 mm
08:38 PM 4.3°F-15.4°C 2.9°F-16.2°C 94% Calm Calm -- 30.04 in1017.3 mb 0.00 in0.0 mm 0.00 in0.0 mm 0.00 in0.0 mm
08:39 PM 4.3°F-15.4°C 2.7°F-16.3°C 93% 2.0 mph ESE3.2 kmh ESE -- 30.04 in1017.3 mb 0.00 in0.0 mm 0.00 in0.0 mm 0.00 in0.0 mm
08:40 PM 4.0°F-15.6°C 2.3°F-16.5°C 93% 2.0 mph ESE3.2 kmh ESE -- 30.04 in1017.3 mb 0.00 in0.0 mm 0.00 in0.0 mm 0.00 in0.0 mm
08:42 PM 4.0°F-15.6°C 2.3°F-16.5°C 93% 1.0 mph ESE1.6 kmh ESE -- 30.04 in1017.3 mb 0.00 in0.0 mm 0.00 in0.0 mm 0.00 in0.0 mm
08:43 PM 4.1°F-15.5°C 2.5°F-16.4°C 93% Calm Calm -- 30.04 in1017.3 mb 0.00 in0.0 mm 0.00 in0.0 mm 0.00 in0.0 mm
08:44 PM 3.9°F-15.6°C 2.3°F-16.5°C 93% 2.0 mph E3.2 kmh E -- 30.04 in1017.3 mb 0.00 in0.0 mm 0.00 in0.0 mm 0.00 in0.0 mm
08:46 PM 3.9°F-15.6°C 2.3°F-16.5°C 93% 2.0 mph ESE3.2 kmh ESE -- 30.04 in1017.3 mb 0.00 in0.0 mm 0.00 in0.0 mm 0.00 in0.0 mm
08:47 PM 3.7°F-15.7°C 2.1°F-16.6°C 93% 3.0 mph ESE4.8 kmh ESE -- 30.04 in1017.3 mb 0.00 in0.0 mm 0.00 in0.0 mm 0.00 in0.0 mm
08:48 PM 3.7°F-15.7°C 2.1°F-16.6°C 93% 2.0 mph E3.2 kmh E -- 30.04 in1017.3 mb 0.00 in0.0 mm 0.00 in0.0 mm 0.00 in0.0 mm
08:50 PM 3.7°F-15.7°C 2.1°F-16.6°C 93% 2.0 mph ESE3.2 kmh ESE -- 30.04 in1017.3 mb 0.00 in0.0 mm 0.00 in0.0 mm 0.00 in0.0 mm
08:51 PM 3.7°F-15.7°C 2.1°F-16.6°C 93% Calm Calm -- 30.04 in1017.3 mb 0.00 in0.0 mm 0.00 in0.0 mm 0.00 in0.0 mm
08:52 PM 3.7°F-15.7°C 2.1°F-16.6°C 93% 1.0 mph SE1.6 kmh SE -- 30.04 in1017.3 mb 0.00 in0.0 mm 0.00 in0.0 mm 0.00 in0.0 mm
08:53 PM 3.6°F-15.8°C 2.0°F-16.7°C 93% 1.0 mph SE1.6 kmh SE -- 30.04 in1017.3 mb 0.00 in0.0 mm 0.00 in0.0 mm 0.00 in0.0 mm
08:54 PM 3.4°F-15.9°C 1.8°F-16.8°C 93% 1.0 mph SE1.6 kmh SE -- 30.04 in1017.3 mb 0.00 in0.0 mm 0.00 in0.0 mm 0.00 in0.0 mm
08:55 PM 3.4°F-15.9°C 1.8°F-16.8°C 93% Calm Calm -- 30.04 in1017.3 mb 0.00 in0.0 mm 0.00 in0.0 mm 0.00 in0.0 mm
08:56 PM 3.1°F-16.1°C 1.4°F-17.0°C 93% Calm Calm -- 30.04 in1017.3 mb 0.00 in0.0 mm 0.00 in0.0 mm 0.00 in0.0 mm
08:57 PM 3.1°F-16.1°C 1.4°F-17.0°C 93% Calm Calm -- 30.04 in1017.3 mb 0.00 in0.0 mm 0.00 in0.0 mm 0.00 in0.0 mm
08:58 PM 3.0°F-16.1°C 1.4°F-17.0°C 93% Calm Calm -- 30.04 in1017.3 mb 0.00 in0.0 mm 0.00 in0.0 mm 0.00 in0.0 mm
09:00 PM 3.0°F-16.1°C 1.4°F-17.0°C 93% 3.0 mph ESE4.8 kmh ESE -- 30.04 in1017.3 mb 0.00 in0.0 mm 0.00 in0.0 mm 0.00 in0.0 mm
09:01 PM 2.7°F-16.3°C 1.1°F-17.2°C 93% 2.0 mph ESE3.2 kmh ESE -- 30.04 in1017.3 mb 0.00 in0.0 mm 0.00 in0.0 mm 0.00 in0.0 mm
09:02 PM 2.7°F-16.3°C 1.1°F-17.2°C 93% 1.0 mph ESE1.6 kmh ESE -- 30.03 in1016.9 mb 0.00 in0.0 mm 0.00 in0.0 mm 0.00 in0.0 mm
09:03 PM 2.7°F-16.3°C 1.1°F-17.2°C 93% 2.0 mph ESE3.2 kmh ESE -- 30.03 in1016.9 mb 0.00 in0.0 mm 0.00 in0.0 mm 0.00 in0.0 mm
09:04 PM 2.7°F-16.3°C 1.1°F-17.2°C 93% 2.0 mph ESE3.2 kmh ESE -- 30.04 in1017.3 mb 0.00 in0.0 mm 0.00 in0.0 mm 0.00 in0.0 mm
09:05 PM 2.7°F-16.3°C 1.1°F-17.2°C 93% 1.0 mph ESE1.6 kmh ESE -- 30.04 in1017.3 mb 0.00 in0.0 mm 0.00 in0.0 mm 0.00 in0.0 mm
09:06 PM 2.7°F-16.3°C 1.1°F-17.2°C 93% 2.0 mph ESE3.2 kmh ESE -- 30.04 in1017.3 mb 0.00 in0.0 mm 0.00 in0.0 mm 0.00 in0.0 mm
09:07 PM 2.7°F-16.3°C 1.1°F-17.2°C 93% Calm Calm -- 30.04 in1017.3 mb 0.00 in0.0 mm 0.00 in0.0 mm 0.00 in0.0 mm
09:12 PM 2.7°F-16.3°C 1.1°F-17.2°C 93% Calm Calm -- 30.03 in1016.9 mb 0.00 in0.0 mm 0.00 in0.0 mm 0.00 in0.0 mm
09:14 PM 2.5°F-16.4°C 0.9°F-17.3°C 93% Calm Calm -- 30.03 in1016.9 mb 0.00 in0.0 mm 0.00 in0.0 mm 0.00 in0.0 mm
09:16 PM 2.2°F-16.6°C 0.5°F-17.5°C 93% Calm Calm -- 30.03 in1016.9 mb 0.00 in0.0 mm 0.00 in0.0 mm 0.00 in0.0 mm
09:18 PM 2.1°F-16.6°C 0.3°F-17.6°C 92% Calm Calm -- 30.04 in1017.3 mb 0.00 in0.0 mm 0.00 in0.0 mm 0.00 in0.0 mm
09:19 PM 1.9°F-16.7°C -0.1°F-17.8°C 91% Calm Calm -- 30.04 in1017.3 mb 0.00 in0.0 mm 0.00 in0.0 mm 0.00 in0.0 mm
09:20 PM 1.9°F-16.7°C -0.1°F-17.8°C 91% Calm Calm -- 30.03 in1016.9 mb 0.00 in0.0 mm 0.00 in0.0 mm 0.00 in0.0 mm
09:22 PM 1.7°F-16.8°C -0.3°F-17.9°C 91% Calm Calm -- 30.03 in1016.9 mb 0.00 in0.0 mm 0.00 in0.0 mm 0.00 in0.0 mm
09:23 PM 1.8°F-16.8°C 0.0°F-17.8°C 92% Calm Calm -- 30.04 in1017.3 mb 0.00 in0.0 mm 0.00 in0.0 mm 0.00 in0.0 mm
09:24 PM 1.5°F-16.9°C -0.5°F-18.1°C 91% Calm Calm -- 30.04 in1017.3 mb 0.00 in0.0 mm 0.00 in0.0 mm 0.00 in0.0 mm
09:25 PM 1.3°F-17.1°C -0.8°F-18.2°C 91% Calm Calm -- 30.04 in1017.3 mb 0.00 in0.0 mm 0.00 in0.0 mm 0.00 in0.0 mm
09:26 PM 1.3°F-17.1°C -0.8°F-18.2°C 91% Calm Calm -- 30.03 in1016.9 mb 0.00 in0.0 mm 0.00 in0.0 mm 0.00 in0.0 mm
09:27 PM 1.2°F-17.1°C -0.8°F-18.2°C 91% Calm Calm -- 30.03 in1016.9 mb 0.00 in0.0 mm 0.00 in0.0 mm 0.00 in0.0 mm
09:28 PM 1.2°F-17.1°C -0.6°F-18.1°C 92% Calm Calm -- 30.03 in1016.9 mb 0.00 in0.0 mm 0.00 in0.0 mm 0.00 in0.0 mm
09:29 PM 1.0°F-17.2°C -1.0°F-18.3°C 91% Calm Calm -- 30.03 in1016.9 mb 0.00 in0.0 mm 0.00 in0.0 mm 0.00 in0.0 mm
09:30 PM 0.9°F-17.3°C -1.2°F-18.4°C 91% Calm Calm -- 30.03 in1016.9 mb 0.00 in0.0 mm 0.00 in0.0 mm 0.00 in0.0 mm
09:32 PM 0.7°F-17.4°C -1.4°F-18.6°C 91% Calm Calm -- 30.03 in1016.9 mb 0.00 in0.0 mm 0.00 in0.0 mm 0.00 in0.0 mm
09:33 PM 0.7°F-17.4°C -1.1°F-18.4°C 92% Calm Calm -- 30.03 in1016.9 mb 0.00 in0.0 mm 0.00 in0.0 mm 0.00 in0.0 mm
09:34 PM 0.7°F-17.4°C -1.4°F-18.6°C 91% Calm Calm -- 30.03 in1016.9 mb 0.00 in0.0 mm 0.00 in0.0 mm 0.00 in0.0 mm
09:35 PM 0.5°F-17.5°C -1.5°F-18.6°C 91% Calm Calm -- 30.03 in1016.9 mb 0.00 in0.0 mm 0.00 in0.0 mm 0.00 in0.0 mm
09:36 PM 0.5°F-17.5°C -1.1°F-18.4°C 93% Calm Calm -- 30.03 in1016.9 mb 0.00 in0.0 mm 0.00 in0.0 mm 0.00 in0.0 mm
09:38 PM 0.3°F-17.6°C -1.2°F-18.4°C 93% Calm Calm -- 30.03 in1016.9 mb 0.00 in0.0 mm 0.00 in0.0 mm 0.00 in0.0 mm
09:44 PM 0.3°F-17.6°C -1.2°F-18.4°C 93% Calm Calm -- 30.03 in1016.9 mb 0.00 in0.0 mm 0.00 in0.0 mm 0.00 in0.0 mm
09:46 PM 0.5°F-17.5°C -1.1°F-18.4°C 93% Calm Calm -- 30.03 in1016.9 mb 0.00 in0.0 mm 0.00 in0.0 mm 0.00 in0.0 mm
09:47 PM 0.5°F-17.5°C -1.1°F-18.4°C 93% 2.0 mph SSE3.2 kmh SSE -- 30.03 in1016.9 mb 0.00 in0.0 mm 0.00 in0.0 mm 0.00 in0.0 mm
09:48 PM 0.5°F-17.5°C -0.8°F-18.2°C 94% 2.0 mph SSE3.2 kmh SSE -- 30.03 in1016.9 mb 0.00 in0.0 mm 0.00 in0.0 mm 0.00 in0.0 mm
09:49 PM 0.5°F-17.5°C -1.1°F-18.4°C 93% 2.0 mph SE3.2 kmh SE -- 30.03 in1016.9 mb 0.00 in0.0 mm 0.00 in0.0 mm 0.00 in0.0 mm
09:50 PM 0.5°F-17.5°C -1.1°F-18.4°C 93% 1.0 mph SE1.6 kmh SE -- 30.03 in1016.9 mb 0.00 in0.0 mm 0.00 in0.0 mm 0.00 in0.0 mm
09:51 PM 0.5°F-17.5°C -1.1°F-18.4°C 93% 2.0 mph SSE3.2 kmh SSE -- 30.03 in1016.9 mb 0.00 in0.0 mm 0.00 in0.0 mm 0.00 in0.0 mm
09:52 PM 0.3°F-17.6°C -1.2°F-18.4°C 93% 2.0 mph SSE3.2 kmh SSE -- 30.03 in1016.9 mb 0.00 in0.0 mm 0.00 in0.0 mm 0.00 in0.0 mm
09:53 PM 0.3°F-17.6°C -1.0°F-18.3°C 94% 3.0 mph S4.8 kmh S -- 30.03 in1016.9 mb 0.00 in0.0 mm 0.00 in0.0 mm 0.00 in0.0 mm
09:54 PM 0.3°F-17.6°C -1.2°F-18.4°C 93% 2.0 mph SSE3.2 kmh SSE -- 30.03 in1016.9 mb 0.00 in0.0 mm 0.00 in0.0 mm 0.00 in0.0 mm
09:57 PM 0.3°F-17.6°C -1.2°F-18.4°C 93% 2.0 mph SE3.2 kmh SE -- 30.03 in1016.9 mb 0.00 in0.0 mm 0.00 in0.0 mm 0.00 in0.0 mm
09:58 PM 0.3°F-17.6°C -1.0°F-18.3°C 94% 2.0 mph ESE3.2 kmh ESE -- 30.03 in1016.9 mb 0.00 in0.0 mm 0.00 in0.0 mm 0.00 in0.0 mm
09:59 PM 0.3°F-17.6°C -1.2°F-18.4°C 93% 2.0 mph ESE3.2 kmh ESE -- 30.03 in1016.9 mb 0.00 in0.0 mm 0.00 in0.0 mm 0.00 in0.0 mm
10:00 PM 0.3°F-17.6°C -1.2°F-18.4°C 93% 1.0 mph SE1.6 kmh SE -- 30.03 in1016.9 mb 0.00 in0.0 mm 0.00 in0.0 mm 0.00 in0.0 mm
10:01 PM 0.5°F-17.5°C -1.1°F-18.4°C 93% 2.0 mph SE3.2 kmh SE -- 30.03 in1016.9 mb 0.00 in0.0 mm 0.00 in0.0 mm 0.00 in0.0 mm
10:02 PM 0.5°F-17.5°C -1.1°F-18.4°C 93% 2.0 mph ESE3.2 kmh ESE -- 30.02 in1016.6 mb 0.00 in0.0 mm 0.00 in0.0 mm 0.00 in0.0 mm
10:03 PM 0.5°F-17.5°C -0.8°F-18.2°C 94% 2.0 mph SE3.2 kmh SE -- 30.02 in1016.6 mb 0.00 in0.0 mm 0.00 in0.0 mm 0.00 in0.0 mm
10:04 PM 0.5°F-17.5°C -1.1°F-18.4°C 93% 2.0 mph SE3.2 kmh SE -- 30.03 in1016.9 mb 0.00 in0.0 mm 0.00 in0.0 mm 0.00 in0.0 mm
10:05 PM 0.7°F-17.4°C -0.9°F-18.3°C 93% 2.0 mph ESE3.2 kmh ESE -- 30.03 in1016.9 mb 0.00 in0.0 mm 0.00 in0.0 mm 0.00 in0.0 mm
10:06 PM 0.9°F-17.3°C -0.7°F-18.2°C 93% 2.0 mph ESE3.2 kmh ESE -- 30.03 in1016.9 mb 0.00 in0.0 mm 0.00 in0.0 mm 0.00 in0.0 mm
10:07 PM 1.0°F-17.2°C -0.5°F-18.1°C 93% 2.0 mph SE3.2 kmh SE -- 30.03 in1016.9 mb 0.00 in0.0 mm 0.00 in0.0 mm 0.00 in0.0 mm
10:08 PM 1.2°F-17.1°C -0.1°F-17.8°C 94% 1.0 mph SSE1.6 kmh SSE -- 30.02 in1016.6 mb 0.00 in0.0 mm 0.00 in0.0 mm 0.00 in0.0 mm
10:09 PM 1.2°F-17.1°C 0.1°F-17.7°C 95% 2.0 mph SSE3.2 kmh SSE -- 30.03 in1016.9 mb 0.00 in0.0 mm 0.00 in0.0 mm 0.00 in0.0 mm
10:10 PM 1.2°F-17.1°C 0.1°F-17.7°C 95% 1.0 mph SE1.6 kmh SE -- 30.03 in1016.9 mb 0.00 in0.0 mm 0.00 in0.0 mm 0.00 in0.0 mm
10:11 PM 1.2°F-17.1°C 0.1°F-17.7°C 95% 2.0 mph SE3.2 kmh SE -- 30.03 in1016.9 mb 0.00 in0.0 mm 0.00 in0.0 mm 0.00 in0.0 mm
10:13 PM 1.2°F-17.1°C 0.1°F-17.7°C 95% 2.0 mph ESE3.2 kmh ESE -- 30.03 in1016.9 mb 0.00 in0.0 mm 0.00 in0.0 mm 0.00 in0.0 mm
10:14 PM 1.2°F-17.1°C 0.1°F-17.7°C 95% 2.0 mph SE3.2 kmh SE -- 30.03 in1016.9 mb 0.00 in0.0 mm 0.00 in0.0 mm 0.00 in0.0 mm
10:15 PM 1.3°F-17.1°C 0.1°F-17.7°C 95% 2.0 mph SE3.2 kmh SE -- 30.03 in1016.9 mb 0.00 in0.0 mm 0.00 in0.0 mm 0.00 in0.0 mm
10:16 PM 1.3°F-17.1°C 0.1°F-17.7°C 95% 2.0 mph ESE3.2 kmh ESE -- 30.03 in1016.9 mb 0.00 in0.0 mm 0.00 in0.0 mm 0.00 in0.0 mm
10:17 PM 1.3°F-17.1°C 0.1°F-17.7°C 95% 1.0 mph ESE1.6 kmh ESE -- 30.03 in1016.9 mb 0.00 in0.0 mm 0.00 in0.0 mm 0.00 in0.0 mm
10:18 PM 1.4°F-17.0°C 0.3°F-17.6°C 95% 1.0 mph ESE1.6 kmh ESE -- 30.03 in1016.9 mb 0.00 in0.0 mm 0.00 in0.0 mm 0.00 in0.0 mm
10:19 PM 1.3°F-17.1°C 0.1°F-17.7°C 95% 1.0 mph ESE1.6 kmh ESE -- 30.03 in1016.9 mb 0.00 in0.0 mm 0.00 in0.0 mm 0.00 in0.0 mm
10:20 PM 1.3°F-17.1°C 0.1°F-17.7°C 95% 2.0 mph ESE3.2 kmh ESE -- 30.02 in1016.6 mb 0.00 in0.0 mm 0.00 in0.0 mm 0.00 in0.0 mm
10:22 PM 1.3°F-17.1°C -0.4°F-18.0°C 93% 2.0 mph ESE3.2 kmh ESE -- 30.02 in1016.6 mb 0.00 in0.0 mm 0.00 in0.0 mm 0.00 in0.0 mm
10:23 PM 1.4°F-17.0°C 0.1°F-17.7°C 94% 2.0 mph ESE3.2 kmh ESE -- 30.02 in1016.6 mb 0.00 in0.0 mm 0.00 in0.0 mm 0.00 in0.0 mm
10:24 PM 1.2°F-17.1°C -0.4°F-18.0°C 93% 2.0 mph SE3.2 kmh SE -- 30.02 in1016.6 mb 0.00 in0.0 mm 0.00 in0.0 mm 0.00 in0.0 mm
10:25 PM 1.0°F-17.2°C -0.5°F-18.1°C 93% 2.0 mph SE3.2 kmh SE -- 30.02 in1016.6 mb 0.00 in0.0 mm 0.00 in0.0 mm 0.00 in0.0 mm
10:27 PM 0.9°F-17.3°C -0.7°F-18.2°C 93% 2.0 mph ESE3.2 kmh ESE -- 30.02 in1016.6 mb 0.00 in0.0 mm 0.00 in0.0 mm 0.00 in0.0 mm
10:28 PM 0.9°F-17.3°C -0.5°F-18.1°C 94% 2.0 mph ESE3.2 kmh ESE -- 30.02 in1016.6 mb 0.00 in0.0 mm 0.00 in0.0 mm 0.00 in0.0 mm
10:29 PM 0.9°F-17.3°C -0.5°F-18.1°C 94% 2.0 mph SE3.2 kmh SE -- 30.02 in1016.6 mb 0.00 in0.0 mm 0.00 in0.0 mm 0.00 in0.0 mm
10:30 PM 0.7°F-17.4°C -0.9°F-18.3°C 93% 1.0 mph SE1.6 kmh SE -- 30.02 in1016.6 mb 0.00 in0.0 mm 0.00 in0.0 mm 0.00 in0.0 mm
10:31 PM 0.5°F-17.5°C -1.1°F-18.4°C 93% 1.0 mph SE1.6 kmh SE -- 30.02 in1016.6 mb 0.00 in0.0 mm 0.00 in0.0 mm 0.00 in0.0 mm
10:32 PM 0.5°F-17.5°C -1.1°F-18.4°C 93% 1.0 mph SE1.6 kmh SE -- 30.01 in1016.3 mb 0.00 in0.0 mm 0.00 in0.0 mm 0.00 in0.0 mm
10:33 PM 0.5°F-17.5°C -1.1°F-18.4°C 93% 1.0 mph ESE1.6 kmh ESE -- 30.02 in1016.6 mb 0.00 in0.0 mm 0.00 in0.0 mm 0.00 in0.0 mm
10:34 PM 0.3°F-17.6°C -1.2°F-18.4°C 93% 2.0 mph ESE3.2 kmh ESE -- 30.02 in1016.6 mb 0.00 in0.0 mm 0.00 in0.0 mm 0.00 in0.0 mm
10:37 PM 0.1°F-17.7°C -1.4°F-18.6°C 93% Calm Calm -- 30.02 in1016.6 mb 0.00 in0.0 mm 0.00 in0.0 mm 0.00 in0.0 mm
10:42 PM 0.0°F-17.8°C -1.6°F-18.7°C 93% Calm Calm -- 30.02 in1016.6 mb 0.00 in0.0 mm 0.00 in0.0 mm 0.00 in0.0 mm
10:49 PM 0.0°F-17.8°C -1.6°F-18.7°C 93% Calm Calm -- 30.01 in1016.3 mb 0.00 in0.0 mm 0.00 in0.0 mm 0.00 in0.0 mm
10:50 PM 0.0°F-17.8°C -1.6°F-18.7°C 93% Calm Calm -- 30.02 in1016.6 mb 0.00 in0.0 mm 0.00 in0.0 mm 0.00 in0.0 mm
10:51 PM -0.2°F-17.9°C -1.8°F-18.8°C 93% Calm Calm -- 30.02 in1016.6 mb 0.00 in0.0 mm 0.00 in0.0 mm 0.00 in0.0 mm
10:57 PM -0.2°F-17.9°C -1.8°F-18.8°C 93% Calm Calm -- 30.02 in1016.6 mb 0.00 in0.0 mm 0.00 in0.0 mm 0.00 in0.0 mm
10:58 PM -0.2°F-17.9°C -1.8°F-18.8°C 93% Calm Calm -- 30.02 in1016.6 mb 0.00 in0.0 mm 0.00 in0.0 mm 0.00 in0.0 mm
10:59 PM -0.2°F-17.9°C -1.8°F-18.8°C 93% Calm Calm -- 30.02 in1016.6 mb 0.00 in0.0 mm 0.00 in0.0 mm 0.00 in0.0 mm
11:02 PM -0.2°F-17.9°C -1.8°F-18.8°C 93% Calm Calm -- 30.02 in1016.6 mb 0.00 in0.0 mm 0.00 in0.0 mm 0.00 in0.0 mm
11:04 PM -0.2°F-17.9°C -1.8°F-18.8°C 93% Calm Calm -- 30.02 in1016.6 mb 0.00 in0.0 mm 0.00 in0.0 mm 0.00 in0.0 mm
11:07 PM -0.4°F-18.0°C -2.0°F-18.9°C 93% Calm Calm -- 30.02 in1016.6 mb 0.00 in0.0 mm 0.00 in0.0 mm 0.00 in0.0 mm
11:08 PM -0.4°F-18.0°C -1.7°F-18.7°C 94% Calm Calm -- 30.02 in1016.6 mb 0.00 in0.0 mm 0.00 in0.0 mm 0.00 in0.0 mm
11:09 PM -0.4°F-18.0°C -2.0°F-18.9°C 93% Calm Calm -- 30.02 in1016.6 mb 0.00 in0.0 mm 0.00 in0.0 mm 0.00 in0.0 mm
11:13 PM -0.4°F-18.0°C -1.7°F-18.7°C 94% Calm Calm -- 30.02 in1016.6 mb 0.00 in0.0 mm 0.00 in0.0 mm 0.00 in0.0 mm
11:14 PM -0.4°F-18.0°C -2.0°F-18.9°C 93% Calm Calm -- 30.02 in1016.6 mb 0.00 in0.0 mm 0.00 in0.0 mm 0.00 in0.0 mm
11:15 PM -0.4°F-18.0°C -2.0°F-18.9°C 93% Calm Calm -- 30.02 in1016.6 mb 0.00 in0.0 mm 0.00 in0.0 mm 0.00 in0.0 mm
11:16 PM -0.4°F-18.0°C -2.0°F-18.9°C 93% Calm Calm -- 30.02 in1016.6 mb 0.00 in0.0 mm 0.00 in0.0 mm 0.00 in0.0 mm
11:18 PM -0.4°F-18.0°C -1.7°F-18.7°C 94% Calm Calm -- 30.02 in1016.6 mb 0.00 in0.0 mm